<?xml version='1.0' encoding='UTF-8'?><gpx version="1.1" creator="JPX - https://github.com/jenetics/jpx" xmlns="http://www.topografix.com/GPX/1/1"><trk><trkseg><trkpt lat="45.95237381887326" lon="12.418148116018564"><ele>57.0</ele><time>2026-04-16T13:21:48.999Z</time></trkpt><trkpt lat="45.9524611686817" lon="12.418165644643196"><ele>57.0</ele><time>2026-04-16T13:21:50.999Z</time></trkpt><trkpt lat="45.952590987862" lon="12.418196882557414"><ele>57.0</ele><time>2026-04-16T13:21:52.999Z</time></trkpt><trkpt lat="45.95266087572577" lon="12.418245759710434"><ele>57.0</ele><time>2026-04-16T13:21:53.999Z</time></trkpt><trkpt lat="45.952731786835955" lon="12.418292473222065"><ele>57.0</ele><time>2026-04-16T13:21:54.999Z</time></trkpt><trkpt lat="45.95281701958066" lon="12.418355554579401"><ele>57.5</ele><time>2026-04-16T13:21:55.999Z</time></trkpt><trkpt lat="45.95290681694359" lon="12.418439561921561"><ele>58.0</ele><time>2026-04-16T13:21:56.999Z</time></trkpt><trkpt lat="45.95298738230994" lon="12.418562041164934"><ele>58.5</ele><time>2026-04-16T13:21:57.999Z</time></trkpt><trkpt lat="45.953082866080244" lon="12.418674185554165"><ele>59.0</ele><time>2026-04-16T13:21:58.999Z</time></trkpt><trkpt lat="45.95317936707138" lon="12.418789706664025"><ele>59.0</ele><time>2026-04-16T13:21:59.999Z</time></trkpt><trkpt lat="45.95328213038726" lon="12.418914052853713"><ele>59.0</ele><time>2026-04-16T13:22:00.999Z</time></trkpt><trkpt lat="45.95339381192591" lon="12.41902008693538"><ele>59.0</ele><time>2026-04-16T13:22:01.999Z</time></trkpt><trkpt lat="45.95349469469133" lon="12.419170901750281"><ele>59.0</ele><time>2026-04-16T13:22:02.999Z</time></trkpt><trkpt lat="45.95360501301584" lon="12.419302786024955"><ele>58.25</ele><time>2026-04-16T13:22:03.999Z</time></trkpt><trkpt lat="45.95372271984841" lon="12.41944115850332"><ele>57.5</ele><time>2026-04-16T13:22:04.999Z</time></trkpt><trkpt lat="45.95384725325151" lon="12.419545699516705"><ele>56.75</ele><time>2026-04-16T13:22:05.999Z</time></trkpt><trkpt lat="45.95395809603033" lon="12.419650751726236"><ele>56.0</ele><time>2026-04-16T13:22:06.999Z</time></trkpt><trkpt lat="45.95408201372429" lon="12.419726965340596"><ele>56.0</ele><time>2026-04-16T13:22:07.999Z</time></trkpt><trkpt lat="45.9542280571784" lon="12.41977538515981"><ele>56.0</ele><time>2026-04-16T13:22:08.999Z</time></trkpt><trkpt lat="45.9543831022025" lon="12.419799994167674"><ele>56.0</ele><time>2026-04-16T13:22:09.999Z</time></trkpt><trkpt lat="45.95454077467588" lon="12.419810431837128"><ele>56.0</ele><time>2026-04-16T13:22:10.999Z</time></trkpt><trkpt lat="45.954703383550886" lon="12.419820100646216"><ele>56.0</ele><time>2026-04-16T13:22:11.999Z</time></trkpt><trkpt lat="45.95485895259412" lon="12.419828308697094"><ele>56.0</ele><time>2026-04-16T13:22:12.999Z</time></trkpt><trkpt lat="45.95503564479449" lon="12.419838042902057"><ele>56.0</ele><time>2026-04-16T13:22:13.999Z</time></trkpt><trkpt lat="45.95520809872117" lon="12.419860023660586"><ele>56.0</ele><time>2026-04-16T13:22:14.999Z</time></trkpt><trkpt lat="45.9553767616706" lon="12.419915283442373"><ele>56.0</ele><time>2026-04-16T13:22:15.999Z</time></trkpt><trkpt lat="45.955534109515874" lon="12.420035332383563"><ele>56.0</ele><time>2026-04-16T13:22:16.999Z</time></trkpt><trkpt lat="45.95569122334334" lon="12.420152560422565"><ele>56.0</ele><time>2026-04-16T13:22:17.999Z</time></trkpt><trkpt lat="45.95584545760743" lon="12.420247455035653"><ele>56.0</ele><time>2026-04-16T13:22:18.999Z</time></trkpt><trkpt lat="45.9559779301298" lon="12.420361505542635"><ele>56.199999999999996</ele><time>2026-04-16T13:22:19.999Z</time></trkpt><trkpt lat="45.956088514100806" lon="12.420464062746607"><ele>56.39999999999999</ele><time>2026-04-16T13:22:20.999Z</time></trkpt><trkpt lat="45.95618189364669" lon="12.420544586294412"><ele>56.6</ele><time>2026-04-16T13:22:21.999Z</time></trkpt><trkpt lat="45.95626190907101" lon="12.420617736699308"><ele>56.8</ele><time>2026-04-16T13:22:22.999Z</time></trkpt><trkpt lat="45.95631592627225" lon="12.420718261478733"><ele>57.0</ele><time>2026-04-16T13:22:24.999Z</time></trkpt><trkpt lat="45.95646670414273" lon="12.420605457961988"><ele>57.0</ele><time>2026-04-16T13:22:29.999Z</time></trkpt><trkpt lat="45.95653737596235" lon="12.420553344634994"><ele>57.0</ele><time>2026-04-16T13:22:30.999Z</time></trkpt><trkpt lat="45.95661382163852" lon="12.420474200114294"><ele>57.0</ele><time>2026-04-16T13:22:31.999Z</time></trkpt><trkpt lat="45.956707836974765" lon="12.42037958400912"><ele>57.0</ele><time>2026-04-16T13:22:32.999Z</time></trkpt><trkpt lat="45.95680644085332" lon="12.420271642701188"><ele>57.0</ele><time>2026-04-16T13:22:33.999Z</time></trkpt><trkpt lat="45.95691051866275" lon="12.42014210622395"><ele>57.0</ele><time>2026-04-16T13:22:34.999Z</time></trkpt><trkpt lat="45.95703855017759" lon="12.42002581364728"><ele>57.0</ele><time>2026-04-16T13:22:35.999Z</time></trkpt><trkpt lat="45.95716987866682" lon="12.419894696265066"><ele>57.0</ele><time>2026-04-16T13:22:36.999Z</time></trkpt><trkpt lat="45.95731613584759" lon="12.419785085190764"><ele>57.0</ele><time>2026-04-16T13:22:37.999Z</time></trkpt><trkpt lat="45.957462286285136" lon="12.419652054449912"><ele>57.0</ele><time>2026-04-16T13:22:38.999Z</time></trkpt><trkpt lat="45.95762144686091" lon="12.419507181488921"><ele>57.0</ele><time>2026-04-16T13:22:39.999Z</time></trkpt><trkpt lat="45.95777839965983" lon="12.419365248323025"><ele>57.0</ele><time>2026-04-16T13:22:40.999Z</time></trkpt><trkpt lat="45.95793167892639" lon="12.419200172678604"><ele>57.0</ele><time>2026-04-16T13:22:41.999Z</time></trkpt><trkpt lat="45.95809666802934" lon="12.419050716838516"><ele>57.0</ele><time>2026-04-16T13:22:42.999Z</time></trkpt><trkpt lat="45.95827558882167" lon="12.418925318513608"><ele>56.33333333333333</ele><time>2026-04-16T13:22:43.999Z</time></trkpt><trkpt lat="45.958445836831366" lon="12.418765210035025"><ele>55.666666666666664</ele><time>2026-04-16T13:22:44.999Z</time></trkpt><trkpt lat="45.95862211252528" lon="12.418631999460366"><ele>55.0</ele><time>2026-04-16T13:22:45.999Z</time></trkpt><trkpt lat="45.95880707116115" lon="12.418500115677597"><ele>55.0</ele><time>2026-04-16T13:22:46.999Z</time></trkpt><trkpt lat="45.958988489837346" lon="12.418363141279613"><ele>55.0</ele><time>2026-04-16T13:22:47.999Z</time></trkpt><trkpt lat="45.959174925894125" lon="12.418226536893716"><ele>55.0</ele><time>2026-04-16T13:22:48.999Z</time></trkpt><trkpt lat="45.95936367874713" lon="12.418101174883775"><ele>56.33333333333333</ele><time>2026-04-16T13:22:49.999Z</time></trkpt><trkpt lat="45.95955165054871" lon="12.417961122687878"><ele>57.66666666666667</ele><time>2026-04-16T13:22:50.999Z</time></trkpt><trkpt lat="45.95974147167802" lon="12.417819692701256"><ele>59.0</ele><time>2026-04-16T13:22:51.999Z</time></trkpt><trkpt lat="45.95992504912346" lon="12.417659690919313"><ele>59.333333333333336</ele><time>2026-04-16T13:22:52.999Z</time></trkpt><trkpt lat="45.960117338119694" lon="12.41751797647962"><ele>59.66666666666667</ele><time>2026-04-16T13:22:53.999Z</time></trkpt><trkpt lat="45.96030910625255" lon="12.417375928401748"><ele>60.0</ele><time>2026-04-16T13:22:54.999Z</time></trkpt><trkpt lat="45.96050201330903" lon="12.417236697095316"><ele>60.0</ele><time>2026-04-16T13:22:55.999Z</time></trkpt><trkpt lat="45.96069405944272" lon="12.417099499321417"><ele>60.0</ele><time>2026-04-16T13:22:56.999Z</time></trkpt><trkpt lat="45.960887778994106" lon="12.416957987259346"><ele>60.0</ele><time>2026-04-16T13:22:57.999Z</time></trkpt><trkpt lat="45.961085333420726" lon="12.416835728597361"><ele>59.66666666666667</ele><time>2026-04-16T13:22:58.999Z</time></trkpt><trkpt lat="45.961274964815" lon="12.416697816486295"><ele>59.333333333333336</ele><time>2026-04-16T13:22:59.999Z</time></trkpt><trkpt lat="45.96146138812632" lon="12.416560555827923"><ele>59.0</ele><time>2026-04-16T13:23:01Z</time></trkpt><trkpt lat="45.96163788877051" lon="12.416405580423662"><ele>60.0</ele><time>2026-04-16T13:23:02Z</time></trkpt><trkpt lat="45.96181574323879" lon="12.416300590850442"><ele>61.0</ele><time>2026-04-16T13:23:03Z</time></trkpt><trkpt lat="45.96197905218269" lon="12.416182210836674"><ele>62.0</ele><time>2026-04-16T13:23:04Z</time></trkpt><trkpt lat="45.962129139997835" lon="12.41604514433392"><ele>62.0</ele><time>2026-04-16T13:23:05Z</time></trkpt><trkpt lat="45.96227257946329" lon="12.415913246850687"><ele>62.0</ele><time>2026-04-16T13:23:06Z</time></trkpt><trkpt lat="45.96240491479037" lon="12.415750434754795"><ele>62.0</ele><time>2026-04-16T13:23:07Z</time></trkpt><trkpt lat="45.962509230215" lon="12.415529422418956"><ele>63.66666666666667</ele><time>2026-04-16T13:23:08Z</time></trkpt><trkpt lat="45.962609678289525" lon="12.415305753169521"><ele>65.33333333333333</ele><time>2026-04-16T13:23:09Z</time></trkpt><trkpt lat="45.962723224364325" lon="12.415098761028968"><ele>67.0</ele><time>2026-04-16T13:23:10Z</time></trkpt><trkpt lat="45.9628453083358" lon="12.414903954596658"><ele>67.0</ele><time>2026-04-16T13:23:11Z</time></trkpt><trkpt lat="45.962976314147824" lon="12.414721819803317"><ele>67.0</ele><time>2026-04-16T13:23:12Z</time></trkpt><trkpt lat="45.963109330467645" lon="12.414551864444036"><ele>67.0</ele><time>2026-04-16T13:23:13Z</time></trkpt><trkpt lat="45.9632317072996" lon="12.414402458529887"><ele>67.25</ele><time>2026-04-16T13:23:14Z</time></trkpt><trkpt lat="45.963363584204195" lon="12.41429322838253"><ele>67.5</ele><time>2026-04-16T13:23:15Z</time></trkpt><trkpt lat="45.96349536479634" lon="12.414240023103257"><ele>67.75</ele><time>2026-04-16T13:23:16Z</time></trkpt><trkpt lat="45.96364360029846" lon="12.414206805835805"><ele>68.0</ele><time>2026-04-16T13:23:17Z</time></trkpt><trkpt lat="45.96380402887665" lon="12.414175347959644"><ele>68.75</ele><time>2026-04-16T13:23:18Z</time></trkpt><trkpt lat="45.96397141492015" lon="12.414149687300256"><ele>69.5</ele><time>2026-04-16T13:23:19Z</time></trkpt><trkpt lat="45.96408626039484" lon="12.414147315287158"><ele>70.25</ele><time>2026-04-16T13:23:20Z</time></trkpt><trkpt lat="45.96420541894966" lon="12.41415842171558"><ele>71.0</ele><time>2026-04-16T13:23:21Z</time></trkpt><trkpt lat="45.96434356484375" lon="12.414178764136363"><ele>72.0</ele><time>2026-04-16T13:23:22Z</time></trkpt><trkpt lat="45.96451218107516" lon="12.414225776593792"><ele>73.0</ele><time>2026-04-16T13:23:23Z</time></trkpt><trkpt lat="45.964643318976236" lon="12.414273312165133"><ele>74.0</ele><time>2026-04-16T13:23:24Z</time></trkpt><trkpt lat="45.964793976107735" lon="12.414326700138465"><ele>74.0</ele><time>2026-04-16T13:23:25Z</time></trkpt><trkpt lat="45.96494936883374" lon="12.414350589819742"><ele>74.0</ele><time>2026-04-16T13:23:26Z</time></trkpt><trkpt lat="45.96512868366419" lon="12.414400012611896"><ele>74.0</ele><time>2026-04-16T13:23:27Z</time></trkpt><trkpt lat="45.96530374761766" lon="12.414426254178192"><ele>74.66666666666667</ele><time>2026-04-16T13:23:28Z</time></trkpt><trkpt lat="45.96548702211608" lon="12.414443244013524"><ele>75.33333333333333</ele><time>2026-04-16T13:23:29Z</time></trkpt><trkpt lat="45.965636328654384" lon="12.414490086975603"><ele>76.0</ele><time>2026-04-16T13:23:30Z</time></trkpt><trkpt lat="45.965783415892986" lon="12.414561719428232"><ele>77.0</ele><time>2026-04-16T13:23:31Z</time></trkpt><trkpt lat="45.96591539252334" lon="12.414644849473648"><ele>78.0</ele><time>2026-04-16T13:23:32Z</time></trkpt><trkpt lat="45.96603805268358" lon="12.414735012582504"><ele>79.0</ele><time>2026-04-16T13:23:33Z</time></trkpt><trkpt lat="45.96615413528117" lon="12.414801248601536"><ele>80.0</ele><time>2026-04-16T13:23:34Z</time></trkpt><trkpt lat="45.96626334644452" lon="12.414865896752817"><ele>80.0</ele><time>2026-04-16T13:23:35Z</time></trkpt><trkpt lat="45.96632516781546" lon="12.414968005100896"><ele>80.0</ele><time>2026-04-16T13:23:36Z</time></trkpt><trkpt lat="45.96641168245152" lon="12.41501750208202"><ele>80.0</ele><time>2026-04-16T13:23:37Z</time></trkpt><trkpt lat="45.96649574429229" lon="12.415014359676677"><ele>80.0</ele><time>2026-04-16T13:23:38Z</time></trkpt><trkpt lat="45.966557881042036" lon="12.414931744694535"><ele>80.0</ele><time>2026-04-16T13:23:39Z</time></trkpt><trkpt lat="45.96662041306451" lon="12.414845415437116"><ele>80.0</ele><time>2026-04-16T13:23:40Z</time></trkpt><trkpt lat="45.966703337358496" lon="12.414761863038834"><ele>80.75</ele><time>2026-04-16T13:23:41Z</time></trkpt><trkpt lat="45.96678630514601" lon="12.414658437659364"><ele>81.5</ele><time>2026-04-16T13:23:42Z</time></trkpt><trkpt lat="45.966875454815714" lon="12.414560229570256"><ele>82.25</ele><time>2026-04-16T13:23:43Z</time></trkpt><trkpt lat="45.9669726092676" lon="12.414461614512561"><ele>83.0</ele><time>2026-04-16T13:23:44Z</time></trkpt><trkpt lat="45.96708365096531" lon="12.414373112239318"><ele>84.0</ele><time>2026-04-16T13:23:45Z</time></trkpt><trkpt lat="45.9672016714952" lon="12.414298500030428"><ele>85.0</ele><time>2026-04-16T13:23:46Z</time></trkpt><trkpt lat="45.96731176892296" lon="12.414220298277716"><ele>86.0</ele><time>2026-04-16T13:23:47Z</time></trkpt><trkpt lat="45.96740208214551" lon="12.414111346365615"><ele>87.0</ele><time>2026-04-16T13:23:48Z</time></trkpt><trkpt lat="45.96748858922392" lon="12.41402619979761"><ele>86.75</ele><time>2026-04-16T13:23:49Z</time></trkpt><trkpt lat="45.96758418119462" lon="12.413938438500983"><ele>86.5</ele><time>2026-04-16T13:23:50Z</time></trkpt><trkpt lat="45.96768861638893" lon="12.41384996374341"><ele>86.25</ele><time>2026-04-16T13:23:51Z</time></trkpt><trkpt lat="45.967789709175705" lon="12.413763169429147"><ele>86.0</ele><time>2026-04-16T13:23:52Z</time></trkpt><trkpt lat="45.967900808762316" lon="12.41368461575327"><ele>87.0</ele><time>2026-04-16T13:23:53Z</time></trkpt><trkpt lat="45.96802352337968" lon="12.413631026793942"><ele>88.0</ele><time>2026-04-16T13:23:54Z</time></trkpt><trkpt lat="45.96812823720145" lon="12.413543173711767"><ele>89.0</ele><time>2026-04-16T13:23:55Z</time></trkpt><trkpt lat="45.96823395773952" lon="12.413440352008989"><ele>90.0</ele><time>2026-04-16T13:23:56Z</time></trkpt><trkpt lat="45.96833487541311" lon="12.413343116769495"><ele>91.6</ele><time>2026-04-16T13:23:57Z</time></trkpt><trkpt lat="45.96842432489194" lon="12.413225044109778"><ele>93.2</ele><time>2026-04-16T13:23:58Z</time></trkpt><trkpt lat="45.96851274612134" lon="12.413128178765376"><ele>94.80000000000001</ele><time>2026-04-16T13:23:59Z</time></trkpt><trkpt lat="45.96860198831883" lon="12.41305758994455"><ele>96.4</ele><time>2026-04-16T13:24:00Z</time></trkpt><trkpt lat="45.968679878078746" lon="12.412967488787608"><ele>98.0</ele><time>2026-04-16T13:24:01Z</time></trkpt><trkpt lat="45.96875180132877" lon="12.412895414585595"><ele>98.0</ele><time>2026-04-16T13:24:02Z</time></trkpt><trkpt lat="45.9688209809053" lon="12.412827898376296"><ele>98.0</ele><time>2026-04-16T13:24:03Z</time></trkpt><trkpt lat="45.96889727930365" lon="12.412755074266753"><ele>98.0</ele><time>2026-04-16T13:24:04Z</time></trkpt><trkpt lat="45.968979533681164" lon="12.412662108621657"><ele>98.0</ele><time>2026-04-16T13:24:05Z</time></trkpt><trkpt lat="45.96906829394" lon="12.412561993306845"><ele>98.0</ele><time>2026-04-16T13:24:06Z</time></trkpt><trkpt lat="45.96916609392474" lon="12.412466305533764"><ele>99.75</ele><time>2026-04-16T13:24:07Z</time></trkpt><trkpt lat="45.96926945694151" lon="12.412359613664956"><ele>101.5</ele><time>2026-04-16T13:24:08Z</time></trkpt><trkpt lat="45.96937964282649" lon="12.412253670049006"><ele>103.25</ele><time>2026-04-16T13:24:09Z</time></trkpt><trkpt lat="45.96949811664479" lon="12.412163301610136"><ele>105.0</ele><time>2026-04-16T13:24:10Z</time></trkpt><trkpt lat="45.96962887322718" lon="12.412100044697372"><ele>105.0</ele><time>2026-04-16T13:24:11Z</time></trkpt><trkpt lat="45.969766950937725" lon="12.412059819356873"><ele>105.0</ele><time>2026-04-16T13:24:12Z</time></trkpt><trkpt lat="45.969922245881975" lon="12.412067379947834"><ele>105.0</ele><time>2026-04-16T13:24:13Z</time></trkpt><trkpt lat="45.9700670675206" lon="12.412085941992366"><ele>105.0</ele><time>2026-04-16T13:24:14Z</time></trkpt><trkpt lat="45.97021093205181" lon="12.4121267942534"><ele>106.5</ele><time>2026-04-16T13:24:15Z</time></trkpt><trkpt lat="45.97034563216655" lon="12.41221074798168"><ele>108.0</ele><time>2026-04-16T13:24:16Z</time></trkpt><trkpt lat="45.97045223520395" lon="12.412324989724898"><ele>109.5</ele><time>2026-04-16T13:24:17Z</time></trkpt><trkpt lat="45.97053952213747" lon="12.412472734777777"><ele>111.0</ele><time>2026-04-16T13:24:18Z</time></trkpt><trkpt lat="45.970602530838164" lon="12.412652585065702"><ele>111.0</ele><time>2026-04-16T13:24:19Z</time></trkpt><trkpt lat="45.97062399635748" lon="12.412855709567548"><ele>111.0</ele><time>2026-04-16T13:24:20Z</time></trkpt><trkpt lat="45.97063613950618" lon="12.41306077788775"><ele>111.0</ele><time>2026-04-16T13:24:21Z</time></trkpt><trkpt lat="45.97064029041921" lon="12.413272601717383"><ele>111.0</ele><time>2026-04-16T13:24:22Z</time></trkpt><trkpt lat="45.9706208057907" lon="12.413468191832692"><ele>111.8</ele><time>2026-04-16T13:24:23Z</time></trkpt><trkpt lat="45.97060699725099" lon="12.41363173327476"><ele>112.6</ele><time>2026-04-16T13:24:24Z</time></trkpt><trkpt lat="45.970600680345115" lon="12.413754060799837"><ele>113.4</ele><time>2026-04-16T13:24:25Z</time></trkpt><trkpt lat="45.970624197375635" lon="12.413872914749497"><ele>114.2</ele><time>2026-04-16T13:24:26Z</time></trkpt><trkpt lat="45.97068121112654" lon="12.41396234418026"><ele>115.0</ele><time>2026-04-16T13:24:27Z</time></trkpt><trkpt lat="45.9707543633098" lon="12.414052009525744"><ele>117.0</ele><time>2026-04-16T13:24:28Z</time></trkpt><trkpt lat="45.97086518294047" lon="12.414058191366017"><ele>119.0</ele><time>2026-04-16T13:24:29Z</time></trkpt><trkpt lat="45.97096597442734" lon="12.414060483982475"><ele>121.0</ele><time>2026-04-16T13:24:30Z</time></trkpt><trkpt lat="45.97107262291723" lon="12.41407129878314"><ele>123.0</ele><time>2026-04-16T13:24:31Z</time></trkpt><trkpt lat="45.97114533952397" lon="12.414164526489753"><ele>125.0</ele><time>2026-04-16T13:24:32Z</time></trkpt><trkpt lat="45.97120980558913" lon="12.414264608936294"><ele>125.0</ele><time>2026-04-16T13:24:33Z</time></trkpt><trkpt lat="45.97121520310519" lon="12.41441897480871"><ele>125.0</ele><time>2026-04-16T13:24:34Z</time></trkpt><trkpt lat="45.97125163850127" lon="12.414570174229668"><ele>125.0</ele><time>2026-04-16T13:24:35Z</time></trkpt><trkpt lat="45.97126959074338" lon="12.414732891841236"><ele>125.0</ele><time>2026-04-16T13:24:36Z</time></trkpt><trkpt lat="45.9712917316126" lon="12.414899339860412"><ele>126.0</ele><time>2026-04-16T13:24:37Z</time></trkpt><trkpt lat="45.97131812063312" lon="12.415046492035385"><ele>127.0</ele><time>2026-04-16T13:24:38Z</time></trkpt><trkpt lat="45.97135770930264" lon="12.415187029729791"><ele>128.0</ele><time>2026-04-16T13:24:39Z</time></trkpt><trkpt lat="45.97141648102844" lon="12.415303895658175"><ele>129.0</ele><time>2026-04-16T13:24:40Z</time></trkpt><trkpt lat="45.97147506412019" lon="12.415383498454217"><ele>130.0</ele><time>2026-04-16T13:24:41Z</time></trkpt><trkpt lat="45.971529646719894" lon="12.415430625027502"><ele>130.0</ele><time>2026-04-16T13:24:42Z</time></trkpt><trkpt lat="45.97163346765321" lon="12.41544858055957"><ele>130.0</ele><time>2026-04-16T13:24:44Z</time></trkpt><trkpt lat="45.97169926514224" lon="12.415401422303166"><ele>130.0</ele><time>2026-04-16T13:24:45Z</time></trkpt><trkpt lat="45.97177037581086" lon="12.41532383156593"><ele>130.0</ele><time>2026-04-16T13:24:46Z</time></trkpt><trkpt lat="45.97184672937029" lon="12.415253206493649"><ele>130.0</ele><time>2026-04-16T13:24:47Z</time></trkpt><trkpt lat="45.97194285774018" lon="12.415238715105081"><ele>132.2</ele><time>2026-04-16T13:24:48Z</time></trkpt><trkpt lat="45.972035952874094" lon="12.415173584463925"><ele>134.4</ele><time>2026-04-16T13:24:49Z</time></trkpt><trkpt lat="45.972128618921964" lon="12.415112023282733"><ele>136.6</ele><time>2026-04-16T13:24:50Z</time></trkpt><trkpt lat="45.97223271378012" lon="12.415036785859355"><ele>138.8</ele><time>2026-04-16T13:24:51Z</time></trkpt><trkpt lat="45.9723404765978" lon="12.41495996142261"><ele>141.0</ele><time>2026-04-16T13:24:52Z</time></trkpt><trkpt lat="45.97244463662512" lon="12.414879208377897"><ele>145.0</ele><time>2026-04-16T13:24:53Z</time></trkpt><trkpt lat="45.97254740115764" lon="12.414800327502011"><ele>149.0</ele><time>2026-04-16T13:24:54Z</time></trkpt><trkpt lat="45.9726472056897" lon="12.414722218575397"><ele>153.0</ele><time>2026-04-16T13:24:55Z</time></trkpt><trkpt lat="45.972721656162214" lon="12.414634900693045"><ele>157.0</ele><time>2026-04-16T13:24:56Z</time></trkpt><trkpt lat="45.972786042828744" lon="12.414515287130952"><ele>161.0</ele><time>2026-04-16T13:24:57Z</time></trkpt><trkpt lat="45.97284162181423" lon="12.414362537904909"><ele>161.0</ele><time>2026-04-16T13:24:58.001Z</time></trkpt><trkpt lat="45.9728911072407" lon="12.414195874397208"><ele>161.0</ele><time>2026-04-16T13:24:59.001Z</time></trkpt><trkpt lat="45.97293483997372" lon="12.414025328197873"><ele>161.0</ele><time>2026-04-16T13:25:00.001Z</time></trkpt><trkpt lat="45.97299040861921" lon="12.41385899938195"><ele>161.0</ele><time>2026-04-16T13:25:01.001Z</time></trkpt><trkpt lat="45.97306304951248" lon="12.413714125929252"><ele>162.0</ele><time>2026-04-16T13:25:02.001Z</time></trkpt><trkpt lat="45.973159687823454" lon="12.413603527786298"><ele>163.0</ele><time>2026-04-16T13:25:03.001Z</time></trkpt><trkpt lat="45.97324968542947" lon="12.413500142797139"><ele>164.0</ele><time>2026-04-16T13:25:04.001Z</time></trkpt><trkpt lat="45.973326735275165" lon="12.413426326829427"><ele>165.0</ele><time>2026-04-16T13:25:05.001Z</time></trkpt><trkpt lat="45.973399150692046" lon="12.413398702076343"><ele>166.0</ele><time>2026-04-16T13:25:06.001Z</time></trkpt><trkpt lat="45.9734669078727" lon="12.413424010661343"><ele>166.0</ele><time>2026-04-16T13:25:07.001Z</time></trkpt><trkpt lat="45.97350660210152" lon="12.41349715305448"><ele>166.0</ele><time>2026-04-16T13:25:08.001Z</time></trkpt><trkpt lat="45.97350892454853" lon="12.413594092816814"><ele>166.0</ele><time>2026-04-16T13:25:09.001Z</time></trkpt><trkpt lat="45.973474839213274" lon="12.413709734362316"><ele>166.0</ele><time>2026-04-16T13:25:10.001Z</time></trkpt><trkpt lat="45.973418545522364" lon="12.413816113341616"><ele>166.0</ele><time>2026-04-16T13:25:11.001Z</time></trkpt><trkpt lat="45.97337030395287" lon="12.413924363630477"><ele>166.0</ele><time>2026-04-16T13:25:12.001Z</time></trkpt><trkpt lat="45.973354999017396" lon="12.414055105551693"><ele>169.60000000000002</ele><time>2026-04-16T13:25:13.001Z</time></trkpt><trkpt lat="45.973361710703436" lon="12.414190885099693"><ele>173.2</ele><time>2026-04-16T13:25:14.001Z</time></trkpt><trkpt lat="45.97339012577993" lon="12.414334283980445"><ele>176.8</ele><time>2026-04-16T13:25:15.001Z</time></trkpt><trkpt lat="45.97343307158638" lon="12.414488276043917"><ele>180.39999999999998</ele><time>2026-04-16T13:25:16.001Z</time></trkpt><trkpt lat="45.97347779683856" lon="12.414640803774756"><ele>184.0</ele><time>2026-04-16T13:25:17.001Z</time></trkpt><trkpt lat="45.973536858105504" lon="12.414796779373631"><ele>184.0</ele><time>2026-04-16T13:25:18.001Z</time></trkpt><trkpt lat="45.97359860928654" lon="12.41495248566371"><ele>184.0</ele><time>2026-04-16T13:25:19Z</time></trkpt><trkpt lat="45.97366799537582" lon="12.415098707118831"><ele>184.0</ele><time>2026-04-16T13:25:20Z</time></trkpt><trkpt lat="45.97374695048709" lon="12.415235207823812"><ele>184.0</ele><time>2026-04-16T13:25:21Z</time></trkpt><trkpt lat="45.97382718886561" lon="12.415374996253608"><ele>182.66666666666669</ele><time>2026-04-16T13:25:22Z</time></trkpt><trkpt lat="45.97389800342566" lon="12.41548930101885"><ele>181.33333333333334</ele><time>2026-04-16T13:25:23Z</time></trkpt><trkpt lat="45.97394647473157" lon="12.41557978944739"><ele>180.0</ele><time>2026-04-16T13:25:24Z</time></trkpt><trkpt lat="45.973996063282954" lon="12.415651924788031"><ele>178.66666666666666</ele><time>2026-04-16T13:25:25Z</time></trkpt><trkpt lat="45.97402832317895" lon="12.415774800110578"><ele>177.33333333333331</ele><time>2026-04-16T13:25:26Z</time></trkpt><trkpt lat="45.97406344888209" lon="12.415851081183948"><ele>176.0</ele><time>2026-04-16T13:25:27Z</time></trkpt><trkpt lat="45.97413225932193" lon="12.415972613082367"><ele>176.0</ele><time>2026-04-16T13:25:29Z</time></trkpt><trkpt lat="45.97414694631765" lon="12.416083895374744"><ele>176.0</ele><time>2026-04-16T13:25:30Z</time></trkpt><trkpt lat="45.97418412044276" lon="12.416189389982913"><ele>176.0</ele><time>2026-04-16T13:25:31Z</time></trkpt><trkpt lat="45.974216553624416" lon="12.416315270376481"><ele>176.0</ele><time>2026-04-16T13:25:32Z</time></trkpt><trkpt lat="45.97424107503497" lon="12.416444262094705"><ele>176.0</ele><time>2026-04-16T13:25:33Z</time></trkpt><trkpt lat="45.974254711295906" lon="12.416577755445754"><ele>176.0</ele><time>2026-04-16T13:25:34Z</time></trkpt><trkpt lat="45.97425184879789" lon="12.416717394307735"><ele>176.8</ele><time>2026-04-16T13:25:35Z</time></trkpt><trkpt lat="45.97423252236276" lon="12.416853603413376"><ele>177.60000000000002</ele><time>2026-04-16T13:25:36Z</time></trkpt><trkpt lat="45.974203843653676" lon="12.416994453392645"><ele>178.4</ele><time>2026-04-16T13:25:37Z</time></trkpt><trkpt lat="45.97415996307684" lon="12.417128000256207"><ele>179.2</ele><time>2026-04-16T13:25:38Z</time></trkpt><trkpt lat="45.97410906546099" lon="12.417248015690056"><ele>180.0</ele><time>2026-04-16T13:25:39Z</time></trkpt><trkpt lat="45.97405406213311" lon="12.41734644609722"><ele>182.33333333333334</ele><time>2026-04-16T13:25:40Z</time></trkpt><trkpt lat="45.974006651877694" lon="12.417427293412628"><ele>184.66666666666669</ele><time>2026-04-16T13:25:41Z</time></trkpt><trkpt lat="45.97394418343059" lon="12.417502859976215"><ele>187.0</ele><time>2026-04-16T13:25:42Z</time></trkpt><trkpt lat="45.97386774705223" lon="12.41756492187326"><ele>189.33333333333334</ele><time>2026-04-16T13:25:43Z</time></trkpt><trkpt lat="45.973786869639945" lon="12.417635452417548"><ele>191.66666666666669</ele><time>2026-04-16T13:25:44Z</time></trkpt><trkpt lat="45.973709250427504" lon="12.41772114180581"><ele>194.0</ele><time>2026-04-16T13:25:45Z</time></trkpt><trkpt lat="45.97364309522441" lon="12.417802681985304"><ele>194.00000000000003</ele><time>2026-04-16T13:25:46Z</time></trkpt><trkpt lat="45.97358670701485" lon="12.417876308728378"><ele>194.0</ele><time>2026-04-16T13:25:47Z</time></trkpt><trkpt lat="45.97348424143894" lon="12.417955188819358"><ele>194.0</ele><time>2026-04-16T13:25:49Z</time></trkpt><trkpt lat="45.973415013966864" lon="12.417992773511026"><ele>194.0</ele><time>2026-04-16T13:25:50Z</time></trkpt><trkpt lat="45.973335164909784" lon="12.417979627806186"><ele>194.00000000000003</ele><time>2026-04-16T13:25:51Z</time></trkpt><trkpt lat="45.97327023888481" lon="12.417967223902691"><ele>194.0</ele><time>2026-04-16T13:25:52Z</time></trkpt><trkpt lat="45.973156189621875" lon="12.417949359001229"><ele>194.33333333333334</ele><time>2026-04-16T13:25:54Z</time></trkpt><trkpt lat="45.973053926000304" lon="12.417972478443453"><ele>194.66666666666669</ele><time>2026-04-16T13:25:56Z</time></trkpt><trkpt lat="45.972991814053806" lon="12.418040131619577"><ele>195.0</ele><time>2026-04-16T13:25:57Z</time></trkpt><trkpt lat="45.97295965791189" lon="12.418152262223678"><ele>195.33333333333331</ele><time>2026-04-16T13:25:58Z</time></trkpt><trkpt lat="45.97293227509369" lon="12.418258640982748"><ele>195.66666666666666</ele><time>2026-04-16T13:25:59Z</time></trkpt><trkpt lat="45.97290373981347" lon="12.418397383565482"><ele>196.0</ele><time>2026-04-16T13:26:00Z</time></trkpt><trkpt lat="45.97285791105442" lon="12.41852458098263"><ele>196.0</ele><time>2026-04-16T13:26:01Z</time></trkpt><trkpt lat="45.97280432452823" lon="12.418651010760133"><ele>196.0</ele><time>2026-04-16T13:26:02Z</time></trkpt><trkpt lat="45.97274980458169" lon="12.418787098116391"><ele>196.0</ele><time>2026-04-16T13:26:03Z</time></trkpt><trkpt lat="45.97270606772107" lon="12.418947283387505"><ele>196.0</ele><time>2026-04-16T13:26:04Z</time></trkpt><trkpt lat="45.97266320472749" lon="12.41907365523882"><ele>196.0</ele><time>2026-04-16T13:26:05Z</time></trkpt><trkpt lat="45.97261058523193" lon="12.419184508181067"><ele>197.33333333333331</ele><time>2026-04-16T13:26:06Z</time></trkpt><trkpt lat="45.972547248796545" lon="12.419277637074732"><ele>198.66666666666666</ele><time>2026-04-16T13:26:07Z</time></trkpt><trkpt lat="45.97247896772777" lon="12.41938093009458"><ele>200.0</ele><time>2026-04-16T13:26:08Z</time></trkpt><trkpt lat="45.97243155569511" lon="12.419470560119935"><ele>201.33333333333331</ele><time>2026-04-16T13:26:09Z</time></trkpt><trkpt lat="45.972400342580784" lon="12.419567246704734"><ele>202.66666666666666</ele><time>2026-04-16T13:26:10Z</time></trkpt><trkpt lat="45.972372426480966" lon="12.41967696431789"><ele>204.0</ele><time>2026-04-16T13:26:11Z</time></trkpt><trkpt lat="45.972349757161766" lon="12.419791358902932"><ele>204.0</ele><time>2026-04-16T13:26:12Z</time></trkpt><trkpt lat="45.9723301012656" lon="12.419907831534116"><ele>204.0</ele><time>2026-04-16T13:26:13Z</time></trkpt><trkpt lat="45.97231656017259" lon="12.420036359584355"><ele>204.0</ele><time>2026-04-16T13:26:14Z</time></trkpt><trkpt lat="45.97230767613966" lon="12.420151659734877"><ele>204.0</ele><time>2026-04-16T13:26:15Z</time></trkpt><trkpt lat="45.9723051866725" lon="12.420266927416732"><ele>204.0</ele><time>2026-04-16T13:26:16Z</time></trkpt><trkpt lat="45.97230521757461" lon="12.420387290312327"><ele>204.0</ele><time>2026-04-16T13:26:17Z</time></trkpt><trkpt lat="45.97232081094895" lon="12.420486151576544"><ele>204.16666666666666</ele><time>2026-04-16T13:26:18Z</time></trkpt><trkpt lat="45.972333157935225" lon="12.42059692665715"><ele>204.33333333333331</ele><time>2026-04-16T13:26:19Z</time></trkpt><trkpt lat="45.972358836727274" lon="12.420706450346442"><ele>204.5</ele><time>2026-04-16T13:26:20Z</time></trkpt><trkpt lat="45.97239750759491" lon="12.420832092837754"><ele>204.66666666666666</ele><time>2026-04-16T13:26:21Z</time></trkpt><trkpt lat="45.972428104257425" lon="12.420956556421382"><ele>204.83333333333331</ele><time>2026-04-16T13:26:22Z</time></trkpt><trkpt lat="45.97246709624086" lon="12.421068267870156"><ele>205.0</ele><time>2026-04-16T13:26:23Z</time></trkpt><trkpt lat="45.972491776526645" lon="12.421179271412885"><ele>205.0</ele><time>2026-04-16T13:26:24Z</time></trkpt><trkpt lat="45.97250112379472" lon="12.421291728746164"><ele>205.0</ele><time>2026-04-16T13:26:25Z</time></trkpt><trkpt lat="45.972505131064175" lon="12.421407967159919"><ele>205.0</ele><time>2026-04-16T13:26:26Z</time></trkpt><trkpt lat="45.97251036097311" lon="12.421543588465342"><ele>205.0</ele><time>2026-04-16T13:26:27Z</time></trkpt><trkpt lat="45.9724904944912" lon="12.421688832965055"><ele>205.0</ele><time>2026-04-16T13:26:28Z</time></trkpt><trkpt lat="45.97248847898001" lon="12.42184094544755"><ele>205.6</ele><time>2026-04-16T13:26:29Z</time></trkpt><trkpt lat="45.97245575799832" lon="12.421985082622216"><ele>206.2</ele><time>2026-04-16T13:26:30Z</time></trkpt><trkpt lat="45.97242370662984" lon="12.42211938588463"><ele>206.8</ele><time>2026-04-16T13:26:31Z</time></trkpt><trkpt lat="45.97239612836295" lon="12.4222519337388"><ele>207.4</ele><time>2026-04-16T13:26:32Z</time></trkpt><trkpt lat="45.9723641560298" lon="12.422388655259406"><ele>208.0</ele><time>2026-04-16T13:26:33Z</time></trkpt><trkpt lat="45.97233018570932" lon="12.4225327975974"><ele>210.60000000000002</ele><time>2026-04-16T13:26:34Z</time></trkpt><trkpt lat="45.9722824972536" lon="12.422674504157275"><ele>213.20000000000002</ele><time>2026-04-16T13:26:35Z</time></trkpt><trkpt lat="45.97226175569631" lon="12.422813482773272"><ele>215.8</ele><time>2026-04-16T13:26:36Z</time></trkpt><trkpt lat="45.97223206018607" lon="12.422944288906764"><ele>218.4</ele><time>2026-04-16T13:26:37Z</time></trkpt><trkpt lat="45.97220978353445" lon="12.423069849518095"><ele>221.0</ele><time>2026-04-16T13:26:38Z</time></trkpt><trkpt lat="45.972186729604005" lon="12.42319828710037"><ele>224.0</ele><time>2026-04-16T13:26:39Z</time></trkpt><trkpt lat="45.97217488370331" lon="12.423330655030444"><ele>227.00000000000003</ele><time>2026-04-16T13:26:40Z</time></trkpt><trkpt lat="45.972170848359156" lon="12.423462115896658"><ele>230.00000000000003</ele><time>2026-04-16T13:26:41Z</time></trkpt><trkpt lat="45.97217228698232" lon="12.423612418089114"><ele>233.0</ele><time>2026-04-16T13:26:42Z</time></trkpt><trkpt lat="45.97218810284999" lon="12.42379100474469"><ele>236.0</ele><time>2026-04-16T13:26:43Z</time></trkpt><trkpt lat="45.972177614781764" lon="12.423952948041205"><ele>236.4</ele><time>2026-04-16T13:26:44Z</time></trkpt><trkpt lat="45.972200433867876" lon="12.424111061604284"><ele>236.8</ele><time>2026-04-16T13:26:45Z</time></trkpt><trkpt lat="45.9722102231809" lon="12.424246621054042"><ele>237.20000000000002</ele><time>2026-04-16T13:26:46Z</time></trkpt><trkpt lat="45.97220971869146" lon="12.424395364394822"><ele>237.60000000000002</ele><time>2026-04-16T13:26:47Z</time></trkpt><trkpt lat="45.97222891308411" lon="12.424540866970796"><ele>238.0</ele><time>2026-04-16T13:26:48Z</time></trkpt><trkpt lat="45.97225196535235" lon="12.424682920368966"><ele>238.0</ele><time>2026-04-16T13:26:49Z</time></trkpt><trkpt lat="45.97228978012747" lon="12.424830233314305"><ele>238.0</ele><time>2026-04-16T13:26:50Z</time></trkpt><trkpt lat="45.972349993546295" lon="12.424967484103735"><ele>238.0</ele><time>2026-04-16T13:26:51Z</time></trkpt><trkpt lat="45.97241456281252" lon="12.425101278328517"><ele>238.0</ele><time>2026-04-16T13:26:52Z</time></trkpt><trkpt lat="45.97248637338455" lon="12.425240490867857"><ele>244.5</ele><time>2026-04-16T13:26:53Z</time></trkpt><trkpt lat="45.97255714559656" lon="12.425357403628109"><ele>251.0</ele><time>2026-04-16T13:26:54Z</time></trkpt><trkpt lat="45.97263430445553" lon="12.425470852582908"><ele>257.5</ele><time>2026-04-16T13:26:55Z</time></trkpt><trkpt lat="45.972719029999986" lon="12.42558931584349"><ele>264.0</ele><time>2026-04-16T13:26:56Z</time></trkpt><trkpt lat="45.97280857047262" lon="12.425709373693817"><ele>264.0</ele><time>2026-04-16T13:26:57Z</time></trkpt><trkpt lat="45.97291178968298" lon="12.425809191883635"><ele>264.0</ele><time>2026-04-16T13:26:58Z</time></trkpt><trkpt lat="45.97302595841945" lon="12.425898758011865"><ele>264.0</ele><time>2026-04-16T13:26:59Z</time></trkpt><trkpt lat="45.97314851661799" lon="12.425984751550498"><ele>264.0</ele><time>2026-04-16T13:27:00Z</time></trkpt><trkpt lat="45.97328134421439" lon="12.426051295926287"><ele>262.75</ele><time>2026-04-16T13:27:01Z</time></trkpt><trkpt lat="45.97340889704358" lon="12.426134709004755"><ele>261.5</ele><time>2026-04-16T13:27:02Z</time></trkpt><trkpt lat="45.97352440291091" lon="12.426206803516939"><ele>260.25</ele><time>2026-04-16T13:27:03Z</time></trkpt><trkpt lat="45.973628880856396" lon="12.426275156846224"><ele>259.0</ele><time>2026-04-16T13:27:04.001Z</time></trkpt><trkpt lat="45.97373161632306" lon="12.426343551408024"><ele>259.0</ele><time>2026-04-16T13:27:05.001Z</time></trkpt><trkpt lat="45.973820767685986" lon="12.426430633726255"><ele>259.0</ele><time>2026-04-16T13:27:06.001Z</time></trkpt><trkpt lat="45.97391326056873" lon="12.426500130059045"><ele>259.0</ele><time>2026-04-16T13:27:07.001Z</time></trkpt><trkpt lat="45.974005359550574" lon="12.426580139639603"><ele>259.0</ele><time>2026-04-16T13:27:08.001Z</time></trkpt><trkpt lat="45.97408655395429" lon="12.426676428729392"><ele>259.0</ele><time>2026-04-16T13:27:09.001Z</time></trkpt><trkpt lat="45.97415393420005" lon="12.426781261869353"><ele>261.4</ele><time>2026-04-16T13:27:10.001Z</time></trkpt><trkpt lat="45.9742069288608" lon="12.426880880924204"><ele>263.79999999999995</ele><time>2026-04-16T13:27:11.001Z</time></trkpt><trkpt lat="45.974241502283995" lon="12.426997031543728"><ele>266.20000000000005</ele><time>2026-04-16T13:27:12.001Z</time></trkpt><trkpt lat="45.974251179394024" lon="12.42711150773498"><ele>268.6</ele><time>2026-04-16T13:27:13.001Z</time></trkpt><trkpt lat="45.974250927105736" lon="12.427241072958923"><ele>271.0</ele><time>2026-04-16T13:27:14.001Z</time></trkpt><trkpt lat="45.97424290460119" lon="12.427391115035013"><ele>271.0</ele><time>2026-04-16T13:27:15.001Z</time></trkpt><trkpt lat="45.97422525045323" lon="12.427551307172832"><ele>271.0</ele><time>2026-04-16T13:27:16.001Z</time></trkpt><trkpt lat="45.97421895660093" lon="12.42770284327594"><ele>271.0</ele><time>2026-04-16T13:27:17.001Z</time></trkpt><trkpt lat="45.97422333068571" lon="12.427837403462469"><ele>271.0</ele><time>2026-04-16T13:27:18.001Z</time></trkpt><trkpt lat="45.97423313340912" lon="12.427950870089365"><ele>271.0</ele><time>2026-04-16T13:27:19.001Z</time></trkpt><trkpt lat="45.97425525406455" lon="12.428067787444427"><ele>267.66666666666663</ele><time>2026-04-16T13:27:20.001Z</time></trkpt><trkpt lat="45.97427635298646" lon="12.428163054506186"><ele>264.3333333333333</ele><time>2026-04-16T13:27:21.001Z</time></trkpt><trkpt lat="45.97432355160955" lon="12.428305249441063"><ele>261.0</ele><time>2026-04-16T13:27:23.001Z</time></trkpt><trkpt lat="45.974409732109144" lon="12.428436911855608"><ele>257.6666666666667</ele><time>2026-04-16T13:27:25.001Z</time></trkpt><trkpt lat="45.97447453797846" lon="12.428447990002104"><ele>254.33333333333334</ele><time>2026-04-16T13:27:26.001Z</time></trkpt><trkpt lat="45.97454018648205" lon="12.428470726053332"><ele>251.0</ele><time>2026-04-16T13:27:27.001Z</time></trkpt><trkpt lat="45.974606395797004" lon="12.42847378176128"><ele>251.00000000000003</ele><time>2026-04-16T13:27:28.001Z</time></trkpt><trkpt lat="45.97467633647636" lon="12.428447737735395"><ele>251.0</ele><time>2026-04-16T13:27:29.001Z</time></trkpt><trkpt lat="45.97474763899711" lon="12.428407110666312"><ele>251.0</ele><time>2026-04-16T13:27:30.001Z</time></trkpt><trkpt lat="45.97482088533773" lon="12.428356504871877"><ele>251.0</ele><time>2026-04-16T13:27:31.001Z</time></trkpt><trkpt lat="45.974903159408704" lon="12.428298759212574"><ele>251.00000000000003</ele><time>2026-04-16T13:27:32.001Z</time></trkpt><trkpt lat="45.97498636965091" lon="12.428241438358793"><ele>251.0</ele><time>2026-04-16T13:27:33.001Z</time></trkpt><trkpt lat="45.97507867869007" lon="12.42818522925799"><ele>251.83333333333334</ele><time>2026-04-16T13:27:34.001Z</time></trkpt><trkpt lat="45.9751607764705" lon="12.428132553057955"><ele>252.66666666666669</ele><time>2026-04-16T13:27:35.001Z</time></trkpt><trkpt lat="45.97524536485005" lon="12.428108372264248"><ele>253.5</ele><time>2026-04-16T13:27:36.001Z</time></trkpt><trkpt lat="45.97533645288702" lon="12.428082036186407"><ele>254.33333333333331</ele><time>2026-04-16T13:27:37.001Z</time></trkpt><trkpt lat="45.97540445146029" lon="12.428054868343118"><ele>255.16666666666666</ele><time>2026-04-16T13:27:38.001Z</time></trkpt><trkpt lat="45.97547822128027" lon="12.428041630143046"><ele>256.0</ele><time>2026-04-16T13:27:39Z</time></trkpt><trkpt lat="45.97554552449404" lon="12.42802770062389"><ele>255.99999999999997</ele><time>2026-04-16T13:27:40Z</time></trkpt><trkpt lat="45.97560793441853" lon="12.428002860111922"><ele>256.0</ele><time>2026-04-16T13:27:41Z</time></trkpt><trkpt lat="45.975716614385654" lon="12.428030576988004"><ele>256.0</ele><time>2026-04-16T13:27:43Z</time></trkpt><trkpt lat="45.975779981292135" lon="12.42806220572118"><ele>256.0</ele><time>2026-04-16T13:27:44Z</time></trkpt><trkpt lat="45.97584980180648" lon="12.428093501439605"><ele>255.99999999999997</ele><time>2026-04-16T13:27:45Z</time></trkpt><trkpt lat="45.97588109055238" lon="12.428198452689855"><ele>256.0</ele><time>2026-04-16T13:27:46Z</time></trkpt><trkpt lat="45.97590841617125" lon="12.42828521402814"><ele>255.99999999999997</ele><time>2026-04-16T13:27:47Z</time></trkpt><trkpt lat="45.97590670753455" lon="12.428469615443893"><ele>256.0</ele><time>2026-04-16T13:27:49Z</time></trkpt><trkpt lat="45.975881162413266" lon="12.428563164798907"><ele>256.0</ele><time>2026-04-16T13:27:50Z</time></trkpt><trkpt lat="45.9758318902848" lon="12.428643645169851"><ele>256.0</ele><time>2026-04-16T13:27:51Z</time></trkpt><trkpt lat="45.975774333409774" lon="12.428725286094544"><ele>255.99999999999997</ele><time>2026-04-16T13:27:52Z</time></trkpt><trkpt lat="45.97572349693292" lon="12.42881473184007"><ele>256.0</ele><time>2026-04-16T13:27:53Z</time></trkpt><trkpt lat="45.97567729294112" lon="12.428906881795632"><ele>258.0</ele><time>2026-04-16T13:27:54Z</time></trkpt><trkpt lat="45.97559474206211" lon="12.429037809255924"><ele>260.0</ele><time>2026-04-16T13:27:56Z</time></trkpt><trkpt lat="45.975565949125524" lon="12.42911960680329"><ele>262.0</ele><time>2026-04-16T13:27:57Z</time></trkpt><trkpt lat="45.97553955744709" lon="12.42922221604385"><ele>264.0</ele><time>2026-04-16T13:27:58Z</time></trkpt><trkpt lat="45.975532864639355" lon="12.429325117525956"><ele>266.0</ele><time>2026-04-16T13:27:59Z</time></trkpt><trkpt lat="45.97554222372046" lon="12.429436378592724"><ele>268.0</ele><time>2026-04-16T13:28:00Z</time></trkpt><trkpt lat="45.97555556091802" lon="12.429557775581978"><ele>270.0</ele><time>2026-04-16T13:28:01Z</time></trkpt><trkpt lat="45.97556979843568" lon="12.42967542598379"><ele>272.0</ele><time>2026-04-16T13:28:02Z</time></trkpt><trkpt lat="45.975597995555255" lon="12.429806263675461"><ele>274.0</ele><time>2026-04-16T13:28:03Z</time></trkpt><trkpt lat="45.97561210576125" lon="12.42994035014075"><ele>276.0</ele><time>2026-04-16T13:28:04Z</time></trkpt><trkpt lat="45.97563056163272" lon="12.43006056102928"><ele>278.0</ele><time>2026-04-16T13:28:05Z</time></trkpt><trkpt lat="45.97564602302451" lon="12.430190401495466"><ele>278.0</ele><time>2026-04-16T13:28:06Z</time></trkpt><trkpt lat="45.97566357491896" lon="12.430314117397367"><ele>278.0</ele><time>2026-04-16T13:28:07Z</time></trkpt><trkpt lat="45.97568049029868" lon="12.430440920805662"><ele>278.0</ele><time>2026-04-16T13:28:08Z</time></trkpt><trkpt lat="45.97570172683239" lon="12.430554232745699"><ele>278.0</ele><time>2026-04-16T13:28:09Z</time></trkpt><trkpt lat="45.97571133553192" lon="12.430662987075229"><ele>278.0</ele><time>2026-04-16T13:28:10Z</time></trkpt><trkpt lat="45.97573888661375" lon="12.430755820792141"><ele>278.0</ele><time>2026-04-16T13:28:11Z</time></trkpt><trkpt lat="45.975744639315565" lon="12.430917979966527"><ele>278.5</ele><time>2026-04-16T13:28:13Z</time></trkpt><trkpt lat="45.97576339293496" lon="12.431005171981154"><ele>279.0</ele><time>2026-04-16T13:28:15Z</time></trkpt><trkpt lat="45.975781004601544" lon="12.431094378554569"><ele>279.5</ele><time>2026-04-16T13:28:19Z</time></trkpt><trkpt lat="45.975829819951834" lon="12.43115338398652"><ele>280.0</ele><time>2026-04-16T13:28:40Z</time></trkpt><trkpt lat="45.975868277345" lon="12.431307724528466"><ele>280.5</ele><time>2026-04-16T13:29:26Z</time></trkpt><trkpt lat="45.97591747471121" lon="12.43145734488316"><ele>281.0</ele><time>2026-04-16T13:29:28Z</time></trkpt><trkpt lat="45.975952425587536" lon="12.431546329838053"><ele>283.0</ele><time>2026-04-16T13:29:29Z</time></trkpt><trkpt lat="45.975990809510485" lon="12.431625552768585"><ele>285.0</ele><time>2026-04-16T13:29:30Z</time></trkpt><trkpt lat="45.97606699373827" lon="12.431763694349849"><ele>287.0</ele><time>2026-04-16T13:29:32Z</time></trkpt><trkpt lat="45.97611428779825" lon="12.431836975346561"><ele>289.0</ele><time>2026-04-16T13:29:33Z</time></trkpt><trkpt lat="45.97616465943353" lon="12.431900197967261"><ele>291.0</ele><time>2026-04-16T13:29:34Z</time></trkpt><trkpt lat="45.97622094507059" lon="12.431960980457395"><ele>293.0</ele><time>2026-04-16T13:29:35Z</time></trkpt><trkpt lat="45.97628516128772" lon="12.432012096488174"><ele>293.0</ele><time>2026-04-16T13:29:36Z</time></trkpt><trkpt lat="45.97636807033388" lon="12.432054158322455"><ele>293.0</ele><time>2026-04-16T13:29:37Z</time></trkpt><trkpt lat="45.97644350503689" lon="12.43207397326091"><ele>293.0</ele><time>2026-04-16T13:29:38Z</time></trkpt><trkpt lat="45.9765202393242" lon="12.432088578408298"><ele>293.0</ele><time>2026-04-16T13:29:39Z</time></trkpt><trkpt lat="45.97659530927369" lon="12.432103247242894"><ele>293.0</ele><time>2026-04-16T13:29:40Z</time></trkpt><trkpt lat="45.97667133950891" lon="12.432110360870764"><ele>293.0</ele><time>2026-04-16T13:29:41Z</time></trkpt><trkpt lat="45.97675786738431" lon="12.432101809843612"><ele>293.5</ele><time>2026-04-16T13:29:42Z</time></trkpt><trkpt lat="45.976837637365094" lon="12.43209622375736"><ele>294.0</ele><time>2026-04-16T13:29:43Z</time></trkpt><trkpt lat="45.97691903222064" lon="12.432093144442431"><ele>294.5</ele><time>2026-04-16T13:29:44Z</time></trkpt><trkpt lat="45.97700805626762" lon="12.432090764349029"><ele>295.0</ele><time>2026-04-16T13:29:45Z</time></trkpt><trkpt lat="45.97709403427643" lon="12.432106910910086"><ele>295.5</ele><time>2026-04-16T13:29:46Z</time></trkpt><trkpt lat="45.977165063303424" lon="12.432153502634835"><ele>296.0</ele><time>2026-04-16T13:29:47Z</time></trkpt><trkpt lat="45.9772413281666" lon="12.432227945425453"><ele>297.0</ele><time>2026-04-16T13:29:48Z</time></trkpt><trkpt lat="45.97732145660883" lon="12.432302854735294"><ele>298.0</ele><time>2026-04-16T13:29:49Z</time></trkpt><trkpt lat="45.977396945347735" lon="12.432377500030274"><ele>299.0</ele><time>2026-04-16T13:29:50Z</time></trkpt><trkpt lat="45.977475906062445" lon="12.432446151037022"><ele>300.0</ele><time>2026-04-16T13:29:51Z</time></trkpt><trkpt lat="45.97756564194916" lon="12.432490172046514"><ele>301.0</ele><time>2026-04-16T13:29:52Z</time></trkpt><trkpt lat="45.9776636340654" lon="12.432516085766112"><ele>303.0</ele><time>2026-04-16T13:29:53Z</time></trkpt><trkpt lat="45.977760459499564" lon="12.432534561001408"><ele>305.0</ele><time>2026-04-16T13:29:54Z</time></trkpt><trkpt lat="45.97786222684669" lon="12.432546442884687"><ele>307.0</ele><time>2026-04-16T13:29:55Z</time></trkpt><trkpt lat="45.97795162315218" lon="12.432540253854762"><ele>309.0</ele><time>2026-04-16T13:29:56Z</time></trkpt><trkpt lat="45.97804925875117" lon="12.432502910848592"><ele>311.0</ele><time>2026-04-16T13:29:57Z</time></trkpt><trkpt lat="45.97814153973522" lon="12.432429506392022"><ele>311.0</ele><time>2026-04-16T13:29:58Z</time></trkpt><trkpt lat="45.978224971227974" lon="12.432329105242628"><ele>311.0</ele><time>2026-04-16T13:29:59Z</time></trkpt><trkpt lat="45.97832538506186" lon="12.432252936839799"><ele>311.0</ele><time>2026-04-16T13:30:00Z</time></trkpt><trkpt lat="45.978396804651624" lon="12.432150549326908"><ele>311.0</ele><time>2026-04-16T13:30:01Z</time></trkpt><trkpt lat="45.9784619068985" lon="12.432073524714779"><ele>311.0</ele><time>2026-04-16T13:30:02Z</time></trkpt><trkpt lat="45.9785215177377" lon="12.431998616357758"><ele>314.5</ele><time>2026-04-16T13:30:03Z</time></trkpt><trkpt lat="45.97858623758951" lon="12.43192487317649"><ele>318.0</ele><time>2026-04-16T13:30:05Z</time></trkpt><trkpt lat="45.978625439493676" lon="12.431843492741212"><ele>321.5</ele><time>2026-04-16T13:31:07Z</time></trkpt><trkpt lat="45.978692251229816" lon="12.431731965835713"><ele>325.0</ele><time>2026-04-16T13:31:09Z</time></trkpt><trkpt lat="45.97872088764735" lon="12.431647461930213"><ele>328.5</ele><time>2026-04-16T13:31:10Z</time></trkpt><trkpt lat="45.978754903502875" lon="12.43154852702987"><ele>332.0</ele><time>2026-04-16T13:31:11Z</time></trkpt><trkpt lat="45.97878020246495" lon="12.43143933184822"><ele>332.0</ele><time>2026-04-16T13:31:12Z</time></trkpt><trkpt lat="45.97880228160202" lon="12.431314561106499"><ele>332.0</ele><time>2026-04-16T13:31:13Z</time></trkpt><trkpt lat="45.97882983250135" lon="12.431195292560282"><ele>332.0</ele><time>2026-04-16T13:31:14Z</time></trkpt><trkpt lat="45.97885794064606" lon="12.431081487920634"><ele>332.0</ele><time>2026-04-16T13:31:15Z</time></trkpt><trkpt lat="45.97889315554107" lon="12.43097687309371"><ele>332.0</ele><time>2026-04-16T13:31:16Z</time></trkpt><trkpt lat="45.978911471020105" lon="12.430874027615548"><ele>332.0</ele><time>2026-04-16T13:31:17Z</time></trkpt><trkpt lat="45.97895915733232" lon="12.430750225839693"><ele>332.0</ele><time>2026-04-16T13:31:19Z</time></trkpt><trkpt lat="45.97901483273069" lon="12.430848930674646"><ele>332.0</ele><time>2026-04-16T13:31:22Z</time></trkpt><trkpt lat="45.97896975899938" lon="12.430991706059672"><ele>332.0</ele><time>2026-04-16T13:31:24Z</time></trkpt><trkpt lat="45.97895618199971" lon="12.431093712719383"><ele>332.0</ele><time>2026-04-16T13:31:25Z</time></trkpt><trkpt lat="45.9789519388777" lon="12.431214368731588"><ele>332.0</ele><time>2026-04-16T13:31:26Z</time></trkpt><trkpt lat="45.978964878820214" lon="12.431331802227897"><ele>332.0</ele><time>2026-04-16T13:31:27Z</time></trkpt><trkpt lat="45.97898370362338" lon="12.431486094914808"><ele>332.0</ele><time>2026-04-16T13:31:28Z</time></trkpt><trkpt lat="45.97899265271145" lon="12.431607973378133"><ele>332.0</ele><time>2026-04-16T13:31:29Z</time></trkpt><trkpt lat="45.97899649797948" lon="12.43171554270056"><ele>332.0</ele><time>2026-04-16T13:31:30Z</time></trkpt><trkpt lat="45.979008812026755" lon="12.43180901647898"><ele>332.0</ele><time>2026-04-16T13:31:31Z</time></trkpt><trkpt lat="45.97905299458368" lon="12.431970335323289"><ele>332.0</ele><time>2026-04-16T13:31:33Z</time></trkpt><trkpt lat="45.97908744792388" lon="12.432056737889981"><ele>332.0</ele><time>2026-04-16T13:31:34Z</time></trkpt><trkpt lat="45.9791223703552" lon="12.432139273129934"><ele>331.1666666666667</ele><time>2026-04-16T13:31:35Z</time></trkpt><trkpt lat="45.979163314354125" lon="12.432234796637964"><ele>330.33333333333337</ele><time>2026-04-16T13:31:36Z</time></trkpt><trkpt lat="45.97920017207343" lon="12.43232078626403"><ele>329.5</ele><time>2026-04-16T13:31:37Z</time></trkpt><trkpt lat="45.97926737533919" lon="12.432446160793162"><ele>328.6666666666667</ele><time>2026-04-16T13:31:38Z</time></trkpt><trkpt lat="45.97932907636751" lon="12.432533218383721"><ele>327.8333333333333</ele><time>2026-04-16T13:31:39Z</time></trkpt><trkpt lat="45.979388839554474" lon="12.432617366274965"><ele>327.0</ele><time>2026-04-16T13:31:40Z</time></trkpt><trkpt lat="45.97947324805003" lon="12.43270403601815"><ele>327.0</ele><time>2026-04-16T13:31:41Z</time></trkpt><trkpt lat="45.9795331911858" lon="12.432811579821381"><ele>327.0</ele><time>2026-04-16T13:31:42Z</time></trkpt><trkpt lat="45.979574724738235" lon="12.432889359603482"><ele>327.0</ele><time>2026-04-16T13:31:43Z</time></trkpt><trkpt lat="45.97961483883228" lon="12.432969283266594"><ele>327.0</ele><time>2026-04-16T13:31:44Z</time></trkpt><trkpt lat="45.97969554421744" lon="12.43306937253172"><ele>327.0</ele><time>2026-04-16T13:31:46Z</time></trkpt><trkpt lat="45.9797873415458" lon="12.433105564757296"><ele>327.0</ele><time>2026-04-16T13:31:48Z</time></trkpt><trkpt lat="45.97987083139093" lon="12.43300623917723"><ele>329.8333333333333</ele><time>2026-04-16T13:31:50Z</time></trkpt><trkpt lat="45.979878157106974" lon="12.432904013839936"><ele>332.6666666666667</ele><time>2026-04-16T13:31:51Z</time></trkpt><trkpt lat="45.97981855940312" lon="12.432836414913135"><ele>335.5</ele><time>2026-04-16T13:31:52Z</time></trkpt><trkpt lat="45.9797442106404" lon="12.432679166519884"><ele>338.33333333333337</ele><time>2026-04-16T13:31:54Z</time></trkpt><trkpt lat="45.97969155678387" lon="12.432593693643067"><ele>341.1666666666667</ele><time>2026-04-16T13:31:55Z</time></trkpt><trkpt lat="45.97964794828599" lon="12.432506551282168"><ele>344.0</ele><time>2026-04-16T13:31:56Z</time></trkpt><trkpt lat="45.97962813085555" lon="12.432416613137386"><ele>344.00000000000006</ele><time>2026-04-16T13:31:57Z</time></trkpt><trkpt lat="45.979622075034754" lon="12.432317670389796"><ele>344.0</ele><time>2026-04-16T13:31:58Z</time></trkpt><trkpt lat="45.97961984268795" lon="12.432214193569015"><ele>344.0</ele><time>2026-04-16T13:31:59Z</time></trkpt><trkpt lat="45.979645556712185" lon="12.432115590407722"><ele>344.0</ele><time>2026-04-16T13:32:00Z</time></trkpt><trkpt lat="45.97968264054553" lon="12.432015156814018"><ele>344.0</ele><time>2026-04-16T13:32:01Z</time></trkpt><trkpt lat="45.97974898162368" lon="12.431944869998938"><ele>344.00000000000006</ele><time>2026-04-16T13:32:02Z</time></trkpt><trkpt lat="45.9798000908453" lon="12.431876479426338"><ele>344.0</ele><time>2026-04-16T13:32:03Z</time></trkpt><trkpt lat="45.979840358491" lon="12.431801332727398"><ele>345.4</ele><time>2026-04-16T13:32:04Z</time></trkpt><trkpt lat="45.97986330127824" lon="12.431629605884757"><ele>346.79999999999995</ele><time>2026-04-16T13:32:06Z</time></trkpt><trkpt lat="45.97981398519426" lon="12.43145227357844"><ele>348.20000000000005</ele><time>2026-04-16T13:32:08Z</time></trkpt><trkpt lat="45.97976398030368" lon="12.431358466097846"><ele>349.6</ele><time>2026-04-16T13:32:09Z</time></trkpt><trkpt lat="45.979732894089416" lon="12.431267596778843"><ele>351.0</ele><time>2026-04-16T13:32:10Z</time></trkpt><trkpt lat="45.979704020878145" lon="12.431177153979036"><ele>351.1666666666667</ele><time>2026-04-16T13:32:11Z</time></trkpt><trkpt lat="45.97973436966982" lon="12.431025785508016"><ele>351.3333333333333</ele><time>2026-04-16T13:32:13Z</time></trkpt><trkpt lat="45.979778361064376" lon="12.430942675134672"><ele>351.5</ele><time>2026-04-16T13:32:14Z</time></trkpt><trkpt lat="45.979846510472946" lon="12.430923194454572"><ele>351.66666666666663</ele><time>2026-04-16T13:32:15Z</time></trkpt><trkpt lat="45.97992757479494" lon="12.430910277120715"><ele>351.8333333333333</ele><time>2026-04-16T13:32:16Z</time></trkpt><trkpt lat="45.980012141828034" lon="12.430894012259587"><ele>352.0</ele><time>2026-04-16T13:32:17Z</time></trkpt><trkpt lat="45.980086908121876" lon="12.430868435203392"><ele>356.8333333333333</ele><time>2026-04-16T13:32:18Z</time></trkpt><trkpt lat="45.980150850353745" lon="12.430839489992222"><ele>361.66666666666663</ele><time>2026-04-16T13:32:19Z</time></trkpt><trkpt lat="45.98021371264842" lon="12.430787850235202"><ele>366.5</ele><time>2026-04-16T13:32:20Z</time></trkpt><trkpt lat="45.98026358701103" lon="12.43072089772571"><ele>371.3333333333333</ele><time>2026-04-16T13:32:21Z</time></trkpt><trkpt lat="45.98029390234486" lon="12.430638560671095"><ele>376.1666666666667</ele><time>2026-04-16T13:32:22Z</time></trkpt><trkpt lat="45.98031167891662" lon="12.430551055256045"><ele>381.0</ele><time>2026-04-16T13:32:23Z</time></trkpt><trkpt lat="45.980304382921155" lon="12.430357460523865"><ele>382.8</ele><time>2026-04-16T13:32:25Z</time></trkpt><trkpt lat="45.980285831765016" lon="12.43023280075738"><ele>384.6</ele><time>2026-04-16T13:32:26Z</time></trkpt><trkpt lat="45.98027802811865" lon="12.430097050888438"><ele>386.4</ele><time>2026-04-16T13:32:27Z</time></trkpt><trkpt lat="45.98026189438773" lon="12.429932941636793"><ele>388.2</ele><time>2026-04-16T13:32:28Z</time></trkpt><trkpt lat="45.9802549485348" lon="12.429763817529523"><ele>390.0</ele><time>2026-04-16T13:32:29Z</time></trkpt><trkpt lat="45.98023367312054" lon="12.429592396200533"><ele>391.8</ele><time>2026-04-16T13:32:30Z</time></trkpt><trkpt lat="45.980210118873224" lon="12.429439238841866"><ele>393.6</ele><time>2026-04-16T13:32:31Z</time></trkpt><trkpt lat="45.980184434883085" lon="12.429292431949328"><ele>395.4</ele><time>2026-04-16T13:32:32Z</time></trkpt><trkpt lat="45.98016891285435" lon="12.429135733614814"><ele>397.2</ele><time>2026-04-16T13:32:33Z</time></trkpt><trkpt lat="45.98012757331167" lon="12.429007620944171"><ele>399.0</ele><time>2026-04-16T13:32:34Z</time></trkpt><trkpt lat="45.98008030392717" lon="12.428879044617995"><ele>401.0</ele><time>2026-04-16T13:32:35Z</time></trkpt><trkpt lat="45.98002178415862" lon="12.428765952598923"><ele>403.0</ele><time>2026-04-16T13:32:36Z</time></trkpt><trkpt lat="45.98000288520316" lon="12.428668756498352"><ele>405.0</ele><time>2026-04-16T13:32:37Z</time></trkpt><trkpt lat="45.98001562284902" lon="12.42855582476673"><ele>407.0</ele><time>2026-04-16T13:32:38Z</time></trkpt><trkpt lat="45.98005169305735" lon="12.42844083559851"><ele>409.0</ele><time>2026-04-16T13:32:39Z</time></trkpt><trkpt lat="45.980076814865434" lon="12.428299402401613"><ele>411.0</ele><time>2026-04-16T13:32:40Z</time></trkpt><trkpt lat="45.9800893045699" lon="12.428149717615849"><ele>411.0</ele><time>2026-04-16T13:32:41Z</time></trkpt><trkpt lat="45.98008890804847" lon="12.427990709568865"><ele>411.0</ele><time>2026-04-16T13:32:42Z</time></trkpt><trkpt lat="45.98009113666124" lon="12.427820368626776"><ele>411.0</ele><time>2026-04-16T13:32:43Z</time></trkpt><trkpt lat="45.98008628401441" lon="12.427655700363882"><ele>411.0</ele><time>2026-04-16T13:32:44Z</time></trkpt><trkpt lat="45.98007195532819" lon="12.427507177526833"><ele>411.0</ele><time>2026-04-16T13:32:45Z</time></trkpt><trkpt lat="45.980044038345326" lon="12.42735766209322"><ele>405.4</ele><time>2026-04-16T13:32:46Z</time></trkpt><trkpt lat="45.980001406214456" lon="12.427228324085858"><ele>399.8</ele><time>2026-04-16T13:32:47Z</time></trkpt><trkpt lat="45.97994927186831" lon="12.427067245829072"><ele>394.2</ele><time>2026-04-16T13:32:48Z</time></trkpt><trkpt lat="45.97991073626204" lon="12.426901666486662"><ele>388.59999999999997</ele><time>2026-04-16T13:32:49Z</time></trkpt><trkpt lat="45.979893945486346" lon="12.426762923191811"><ele>383.0</ele><time>2026-04-16T13:32:50Z</time></trkpt><trkpt lat="45.979880434167946" lon="12.426641416078906"><ele>383.0</ele><time>2026-04-16T13:32:51Z</time></trkpt><trkpt lat="45.97988769004896" lon="12.426540258154294"><ele>383.0</ele><time>2026-04-16T13:32:52Z</time></trkpt><trkpt lat="45.979906202305244" lon="12.426445065101593"><ele>383.0</ele><time>2026-04-16T13:32:53Z</time></trkpt><trkpt lat="45.97993100556203" lon="12.426353199506424"><ele>383.0</ele><time>2026-04-16T13:32:54Z</time></trkpt><trkpt lat="45.97998054310984" lon="12.426286829656512"><ele>383.0</ele><time>2026-04-16T13:32:55Z</time></trkpt><trkpt lat="45.980053665361545" lon="12.426277561327048"><ele>383.0</ele><time>2026-04-16T13:32:56Z</time></trkpt><trkpt lat="45.98012487773498" lon="12.426264732172463"><ele>383.0</ele><time>2026-04-16T13:32:57Z</time></trkpt><trkpt lat="45.98019846159855" lon="12.426242692757375"><ele>389.0</ele><time>2026-04-16T13:32:58Z</time></trkpt><trkpt lat="45.98026649918864" lon="12.426209843755649"><ele>395.0</ele><time>2026-04-16T13:32:59Z</time></trkpt><trkpt lat="45.98035657406318" lon="12.426123652641275"><ele>401.0</ele><time>2026-04-16T13:33:01Z</time></trkpt><trkpt lat="45.98039359354977" lon="12.425973995004272"><ele>407.0</ele><time>2026-04-16T13:33:03Z</time></trkpt><trkpt lat="45.98034765152797" lon="12.425849319825115"><ele>413.0</ele><time>2026-04-16T13:33:05Z</time></trkpt><trkpt lat="45.980286125172796" lon="12.425733235809666"><ele>412.99999999999994</ele><time>2026-04-16T13:33:07Z</time></trkpt><trkpt lat="45.980234359163255" lon="12.42566503484272"><ele>413.0</ele><time>2026-04-16T13:33:08Z</time></trkpt><trkpt lat="45.98018125090124" lon="12.42558590583536"><ele>413.0</ele><time>2026-04-16T13:33:09Z</time></trkpt><trkpt lat="45.98012817311204" lon="12.425473270435955"><ele>413.0</ele><time>2026-04-16T13:33:10Z</time></trkpt><trkpt lat="45.98008822782893" lon="12.425355634194098"><ele>412.99999999999994</ele><time>2026-04-16T13:33:11Z</time></trkpt><trkpt lat="45.98007694018132" lon="12.42523832420389"><ele>413.0</ele><time>2026-04-16T13:33:12Z</time></trkpt><trkpt lat="45.98008012359978" lon="12.425113265318423"><ele>412.8333333333333</ele><time>2026-04-16T13:33:13Z</time></trkpt><trkpt lat="45.980089944954756" lon="12.424979028665351"><ele>412.66666666666663</ele><time>2026-04-16T13:33:14Z</time></trkpt><trkpt lat="45.98011532449362" lon="12.424875974492052"><ele>412.5</ele><time>2026-04-16T13:33:15Z</time></trkpt><trkpt lat="45.98015795961919" lon="12.424783204600253"><ele>412.33333333333337</ele><time>2026-04-16T13:33:16Z</time></trkpt><trkpt lat="45.98020522634901" lon="12.4247179632849"><ele>412.1666666666667</ele><time>2026-04-16T13:33:17Z</time></trkpt><trkpt lat="45.980264821695386" lon="12.424650070413366"><ele>412.0</ele><time>2026-04-16T13:33:18Z</time></trkpt><trkpt lat="45.980329078227456" lon="12.424585097691272"><ele>410.00000000000006</ele><time>2026-04-16T13:33:19Z</time></trkpt><trkpt lat="45.980404543754524" lon="12.424521783150691"><ele>408.0</ele><time>2026-04-16T13:33:20Z</time></trkpt><trkpt lat="45.98048142917867" lon="12.424465595459962"><ele>406.0</ele><time>2026-04-16T13:33:21Z</time></trkpt><trkpt lat="45.98054625117602" lon="12.424426359244551"><ele>404.0</ele><time>2026-04-16T13:33:22Z</time></trkpt><trkpt lat="45.9806119916989" lon="12.424389269490682"><ele>402.00000000000006</ele><time>2026-04-16T13:33:23Z</time></trkpt><trkpt lat="45.980678672201904" lon="12.424355288371633"><ele>400.0</ele><time>2026-04-16T13:33:24Z</time></trkpt><trkpt lat="45.98075398827268" lon="12.424321736524432"><ele>400.00000000000006</ele><time>2026-04-16T13:33:25Z</time></trkpt><trkpt lat="45.98083727031779" lon="12.42428025533796"><ele>400.0</ele><time>2026-04-16T13:33:26Z</time></trkpt><trkpt lat="45.98092343560793" lon="12.424225412183016"><ele>400.0</ele><time>2026-04-16T13:33:27Z</time></trkpt><trkpt lat="45.981002255592415" lon="12.424179119908237"><ele>400.0</ele><time>2026-04-16T13:33:28Z</time></trkpt><trkpt lat="45.98107079794898" lon="12.424134954014878"><ele>400.00000000000006</ele><time>2026-04-16T13:33:29Z</time></trkpt><trkpt lat="45.98113833032546" lon="12.424071082139772"><ele>400.0</ele><time>2026-04-16T13:33:30Z</time></trkpt><trkpt lat="45.981194733450145" lon="12.424024195829203"><ele>403.6666666666667</ele><time>2026-04-16T13:33:31Z</time></trkpt><trkpt lat="45.98126149639417" lon="12.42399463564898"><ele>407.33333333333337</ele><time>2026-04-16T13:33:32Z</time></trkpt><trkpt lat="45.98133218009077" lon="12.424001561992396"><ele>411.0</ele><time>2026-04-16T13:33:33Z</time></trkpt><trkpt lat="45.98140060110605" lon="12.424031487022907"><ele>414.66666666666663</ele><time>2026-04-16T13:33:34Z</time></trkpt><trkpt lat="45.981454710082005" lon="12.424100362043236"><ele>418.3333333333333</ele><time>2026-04-16T13:33:35Z</time></trkpt><trkpt lat="45.981581218817546" lon="12.424140571316526"><ele>422.0</ele><time>2026-04-16T13:33:37Z</time></trkpt><trkpt lat="45.9816500919161" lon="12.424079452914631"><ele>421.3333333333333</ele><time>2026-04-16T13:33:38Z</time></trkpt><trkpt lat="45.98169958067532" lon="12.424010220634178"><ele>420.66666666666663</ele><time>2026-04-16T13:33:39Z</time></trkpt><trkpt lat="45.98173293498618" lon="12.423922804606422"><ele>420.0</ele><time>2026-04-16T13:33:40Z</time></trkpt><trkpt lat="45.981753545743935" lon="12.423832895589431"><ele>419.33333333333337</ele><time>2026-04-16T13:33:41Z</time></trkpt><trkpt lat="45.981754314204395" lon="12.42366673787196"><ele>418.6666666666667</ele><time>2026-04-16T13:33:43Z</time></trkpt><trkpt lat="45.98170714614957" lon="12.423593643925658"><ele>418.0</ele><time>2026-04-16T13:33:44Z</time></trkpt><trkpt lat="45.98167758664274" lon="12.423502877364935"><ele>418.0</ele><time>2026-04-16T13:33:45Z</time></trkpt><trkpt lat="45.98159276923559" lon="12.423380244286143"><ele>418.0</ele><time>2026-04-16T13:33:47Z</time></trkpt><trkpt lat="45.981531618268775" lon="12.42324471669325"><ele>418.0</ele><time>2026-04-16T13:33:49Z</time></trkpt><trkpt lat="45.981505916040646" lon="12.423067554884057"><ele>418.0</ele><time>2026-04-16T13:33:51Z</time></trkpt><trkpt lat="45.98152707455603" lon="12.422943849044879"><ele>418.0</ele><time>2026-04-16T13:33:52Z</time></trkpt><trkpt lat="45.981565913558114" lon="12.422817743348968"><ele>418.33333333333337</ele><time>2026-04-16T13:33:53Z</time></trkpt><trkpt lat="45.98159129117705" lon="12.422688194147206"><ele>418.6666666666667</ele><time>2026-04-16T13:33:54Z</time></trkpt><trkpt lat="45.98161920366431" lon="12.422558782683035"><ele>419.0</ele><time>2026-04-16T13:33:55Z</time></trkpt><trkpt lat="45.9816476432494" lon="12.422441964872377"><ele>419.33333333333337</ele><time>2026-04-16T13:33:56Z</time></trkpt><trkpt lat="45.981677494572935" lon="12.422333107898039"><ele>419.6666666666667</ele><time>2026-04-16T13:33:57Z</time></trkpt><trkpt lat="45.981716761919564" lon="12.4222348697494"><ele>420.0</ele><time>2026-04-16T13:33:58Z</time></trkpt><trkpt lat="45.98176771580123" lon="12.422155324484631"><ele>420.8333333333333</ele><time>2026-04-16T13:33:59Z</time></trkpt><trkpt lat="45.981827523060986" lon="12.422098599268445"><ele>421.66666666666663</ele><time>2026-04-16T13:34:00Z</time></trkpt><trkpt lat="45.98189569313281" lon="12.422056227371673"><ele>422.5</ele><time>2026-04-16T13:34:01Z</time></trkpt><trkpt lat="45.981981925507306" lon="12.42203550987265"><ele>423.3333333333333</ele><time>2026-04-16T13:34:02Z</time></trkpt><trkpt lat="45.98207111610993" lon="12.422014685540866"><ele>424.16666666666663</ele><time>2026-04-16T13:34:03Z</time></trkpt><trkpt lat="45.9821750336433" lon="12.421997357182748"><ele>425.0</ele><time>2026-04-16T13:34:04Z</time></trkpt><trkpt lat="45.9822818932919" lon="12.421978652421947"><ele>425.0</ele><time>2026-04-16T13:34:05Z</time></trkpt><trkpt lat="45.982389607188345" lon="12.421955367542948"><ele>425.0</ele><time>2026-04-16T13:34:06Z</time></trkpt><trkpt lat="45.982504632721685" lon="12.421932751811191"><ele>425.0</ele><time>2026-04-16T13:34:07Z</time></trkpt><trkpt lat="45.98261137805201" lon="12.421885951202373"><ele>425.0</ele><time>2026-04-16T13:34:08Z</time></trkpt><trkpt lat="45.98272320202224" lon="12.42183821065171"><ele>428.8</ele><time>2026-04-16T13:34:09Z</time></trkpt><trkpt lat="45.98283753989231" lon="12.421807512118985"><ele>432.6</ele><time>2026-04-16T13:34:10Z</time></trkpt><trkpt lat="45.98294865576607" lon="12.421784309220687"><ele>436.4</ele><time>2026-04-16T13:34:11Z</time></trkpt><trkpt lat="45.98303977660295" lon="12.421747728587293"><ele>440.2</ele><time>2026-04-16T13:34:12Z</time></trkpt><trkpt lat="45.98312658810332" lon="12.421717674396373"><ele>444.0</ele><time>2026-04-16T13:34:13Z</time></trkpt><trkpt lat="45.983199867923425" lon="12.421692028001823"><ele>444.0</ele><time>2026-04-16T13:34:14Z</time></trkpt><trkpt lat="45.983336293269986" lon="12.421691820619612"><ele>444.0</ele><time>2026-04-16T13:34:16Z</time></trkpt><trkpt lat="45.98340708811561" lon="12.42168607334464"><ele>444.0</ele><time>2026-04-16T13:34:17Z</time></trkpt><trkpt lat="45.983487750117185" lon="12.421672028550926"><ele>444.0</ele><time>2026-04-16T13:34:18Z</time></trkpt><trkpt lat="45.98355319191892" lon="12.421696772048216"><ele>444.0</ele><time>2026-04-16T13:34:19Z</time></trkpt><trkpt lat="45.983614647660936" lon="12.421730980982069"><ele>444.0</ele><time>2026-04-16T13:34:20Z</time></trkpt><trkpt lat="45.983659928767054" lon="12.42180976398338"><ele>445.0</ele><time>2026-04-16T13:34:21Z</time></trkpt><trkpt lat="45.983702712499394" lon="12.421882504638893"><ele>446.0</ele><time>2026-04-16T13:34:22Z</time></trkpt><trkpt lat="45.98375061825583" lon="12.422016124811835"><ele>447.0</ele><time>2026-04-16T13:34:24Z</time></trkpt><trkpt lat="45.98384034766679" lon="12.422171395546577"><ele>448.0</ele><time>2026-04-16T13:34:26Z</time></trkpt><trkpt lat="45.983860889672805" lon="12.422283520597333"><ele>449.0</ele><time>2026-04-16T13:34:27Z</time></trkpt><trkpt lat="45.98386591856588" lon="12.422411781838614"><ele>449.0</ele><time>2026-04-16T13:34:28Z</time></trkpt><trkpt lat="45.98385718688437" lon="12.422534881894011"><ele>449.0</ele><time>2026-04-16T13:34:29Z</time></trkpt><trkpt lat="45.98375837901648" lon="12.422625572589167"><ele>449.0</ele><time>2026-04-16T13:34:30Z</time></trkpt><trkpt lat="45.98374855044499" lon="12.422749035021953"><ele>449.0</ele><time>2026-04-16T13:34:31Z</time></trkpt><trkpt lat="45.98374212794549" lon="12.422859221965151"><ele>449.0</ele><time>2026-04-16T13:34:32Z</time></trkpt><trkpt lat="45.983731330433635" lon="12.422988276565327"><ele>450.0</ele><time>2026-04-16T13:34:33Z</time></trkpt><trkpt lat="45.983730058109664" lon="12.4230985878315"><ele>451.0</ele><time>2026-04-16T13:34:34Z</time></trkpt><trkpt lat="45.9837447713372" lon="12.423231687126695"><ele>452.0</ele><time>2026-04-16T13:34:35Z</time></trkpt><trkpt lat="45.98380322858772" lon="12.42338476016441"><ele>453.0</ele><time>2026-04-16T13:34:36Z</time></trkpt><trkpt lat="45.983857688353005" lon="12.423486896533278"><ele>454.0</ele><time>2026-04-16T13:34:37Z</time></trkpt><trkpt lat="45.983937952975836" lon="12.42362182589719"><ele>454.00000000000006</ele><time>2026-04-16T13:34:39Z</time></trkpt><trkpt lat="45.98398005386598" lon="12.423716057648088"><ele>454.0</ele><time>2026-04-16T13:34:40Z</time></trkpt><trkpt lat="45.98402371305506" lon="12.423819869792336"><ele>454.0</ele><time>2026-04-16T13:34:41Z</time></trkpt><trkpt lat="45.98407943423202" lon="12.423922926380646"><ele>454.0</ele><time>2026-04-16T13:34:42Z</time></trkpt><trkpt lat="45.984124747235" lon="12.424030184794985"><ele>454.00000000000006</ele><time>2026-04-16T13:34:43Z</time></trkpt><trkpt lat="45.984156141751946" lon="12.424147577414516"><ele>454.0</ele><time>2026-04-16T13:34:44Z</time></trkpt><trkpt lat="45.9841975508143" lon="12.424253026156112"><ele>455.50000000000006</ele><time>2026-04-16T13:34:45Z</time></trkpt><trkpt lat="45.98424058234971" lon="12.424371590507404"><ele>457.0</ele><time>2026-04-16T13:34:46Z</time></trkpt><trkpt lat="45.98429069625459" lon="12.424474029808453"><ele>458.5</ele><time>2026-04-16T13:34:47Z</time></trkpt><trkpt lat="45.98431708419545" lon="12.424592166244645"><ele>460.0</ele><time>2026-04-16T13:34:48Z</time></trkpt><trkpt lat="45.98434192394406" lon="12.424727412393354"><ele>461.50000000000006</ele><time>2026-04-16T13:34:49Z</time></trkpt><trkpt lat="45.984348331456204" lon="12.424832093937342"><ele>463.0</ele><time>2026-04-16T13:34:50Z</time></trkpt><trkpt lat="45.98435791100138" lon="12.424930808556908"><ele>464.4</ele><time>2026-04-16T13:34:51Z</time></trkpt><trkpt lat="45.98436746873341" lon="12.425029298122299"><ele>465.79999999999995</ele><time>2026-04-16T13:34:52Z</time></trkpt><trkpt lat="45.98438295731628" lon="12.425204570394458"><ele>467.2</ele><time>2026-04-16T13:34:54Z</time></trkpt><trkpt lat="45.984406549616615" lon="12.425350162267696"><ele>468.6</ele><time>2026-04-16T13:34:56Z</time></trkpt><trkpt lat="45.9844517594282" lon="12.425444599547186"><ele>470.0</ele><time>2026-04-16T13:34:57Z</time></trkpt><trkpt lat="45.98451644621237" lon="12.42551057735074"><ele>470.16666666666663</ele><time>2026-04-16T13:34:58Z</time></trkpt><trkpt lat="45.98458584074036" lon="12.425554937640573"><ele>470.3333333333333</ele><time>2026-04-16T13:34:59Z</time></trkpt><trkpt lat="45.9846427774709" lon="12.425594098487467"><ele>470.5</ele><time>2026-04-16T13:35:00Z</time></trkpt><trkpt lat="45.98470931876472" lon="12.425625709918375"><ele>470.66666666666663</ele><time>2026-04-16T13:35:01Z</time></trkpt><trkpt lat="45.98478736566442" lon="12.42563157994485"><ele>470.8333333333333</ele><time>2026-04-16T13:35:02Z</time></trkpt><trkpt lat="45.98485589430779" lon="12.425635484828751"><ele>471.0</ele><time>2026-04-16T13:35:03Z</time></trkpt><trkpt lat="45.98498327685059" lon="12.425643580564971"><ele>473.3333333333333</ele><time>2026-04-16T13:35:05Z</time></trkpt><trkpt lat="45.98505113088343" lon="12.42564366203742"><ele>475.66666666666663</ele><time>2026-04-16T13:35:06Z</time></trkpt><trkpt lat="45.98511866171902" lon="12.425663205632219"><ele>478.0</ele><time>2026-04-16T13:35:07Z</time></trkpt><trkpt lat="45.985184711076236" lon="12.425682410670055"><ele>480.3333333333333</ele><time>2026-04-16T13:35:08Z</time></trkpt><trkpt lat="45.98523919518324" lon="12.425728866474957"><ele>482.66666666666663</ele><time>2026-04-16T13:35:09Z</time></trkpt><trkpt lat="45.985324599228896" lon="12.425858525125784"><ele>485.0</ele><time>2026-04-16T13:35:11Z</time></trkpt><trkpt lat="45.98534339333199" lon="12.425951502751452"><ele>484.99999999999994</ele><time>2026-04-16T13:35:12Z</time></trkpt><trkpt lat="45.985360381414644" lon="12.426061935197763"><ele>485.0</ele><time>2026-04-16T13:35:13Z</time></trkpt><trkpt lat="45.98534819746315" lon="12.4261811858453"><ele>485.0</ele><time>2026-04-16T13:35:14Z</time></trkpt><trkpt lat="45.98534098521311" lon="12.426308577181254"><ele>485.0</ele><time>2026-04-16T13:35:15Z</time></trkpt><trkpt lat="45.985346655066884" lon="12.426441015308265"><ele>484.99999999999994</ele><time>2026-04-16T13:35:16Z</time></trkpt><trkpt lat="45.98533677110285" lon="12.426579516793389"><ele>485.0</ele><time>2026-04-16T13:35:17Z</time></trkpt><trkpt lat="45.985351682228696" lon="12.426719547015283"><ele>486.4</ele><time>2026-04-16T13:35:18Z</time></trkpt><trkpt lat="45.985364657146135" lon="12.426857441130569"><ele>487.8</ele><time>2026-04-16T13:35:19Z</time></trkpt><trkpt lat="45.985375209397375" lon="12.426984665757756"><ele>489.20000000000005</ele><time>2026-04-16T13:35:20Z</time></trkpt><trkpt lat="45.98538689825068" lon="12.427117577261015"><ele>490.6</ele><time>2026-04-16T13:35:21Z</time></trkpt><trkpt lat="45.98540203063916" lon="12.427261648959103"><ele>492.0</ele><time>2026-04-16T13:35:22Z</time></trkpt><trkpt lat="45.98539563369696" lon="12.427418862037824"><ele>493.75</ele><time>2026-04-16T13:35:23Z</time></trkpt><trkpt lat="45.98544842399622" lon="12.427581014669535"><ele>495.5</ele><time>2026-04-16T13:35:24Z</time></trkpt><trkpt lat="45.9854741779059" lon="12.427800891308344"><ele>497.25</ele><time>2026-04-16T13:35:25Z</time></trkpt><trkpt lat="45.98548675139035" lon="12.427951471886738"><ele>499.0</ele><time>2026-04-16T13:35:26Z</time></trkpt><trkpt lat="45.9854832111327" lon="12.428091501227263"><ele>500.4</ele><time>2026-04-16T13:35:27Z</time></trkpt><trkpt lat="45.98547589802067" lon="12.428223556601809"><ele>501.79999999999995</ele><time>2026-04-16T13:35:28Z</time></trkpt><trkpt lat="45.985459438376516" lon="12.428366995860781"><ele>503.20000000000005</ele><time>2026-04-16T13:35:29Z</time></trkpt><trkpt lat="45.985441329909776" lon="12.428511140115475"><ele>504.6</ele><time>2026-04-16T13:35:30Z</time></trkpt><trkpt lat="45.98541196520939" lon="12.428663519786195"><ele>506.0</ele><time>2026-04-16T13:35:31Z</time></trkpt><trkpt lat="45.98539668425239" lon="12.428837546792705"><ele>508.0</ele><time>2026-04-16T13:35:32Z</time></trkpt><trkpt lat="45.98539257196976" lon="12.428992961464939"><ele>510.0</ele><time>2026-04-16T13:35:33Z</time></trkpt><trkpt lat="45.9853870340509" lon="12.429173375946736"><ele>512.0</ele><time>2026-04-16T13:35:34Z</time></trkpt><trkpt lat="45.98539368524443" lon="12.429335799368728"><ele>514.0</ele><time>2026-04-16T13:35:35Z</time></trkpt><trkpt lat="45.98537112719907" lon="12.429493304079266"><ele>514.0</ele><time>2026-04-16T13:35:36Z</time></trkpt><trkpt lat="45.98535816140322" lon="12.429641218337634"><ele>514.0</ele><time>2026-04-16T13:35:37Z</time></trkpt><trkpt lat="45.985389446142996" lon="12.429799906776811"><ele>514.0</ele><time>2026-04-16T13:35:38Z</time></trkpt><trkpt lat="45.985367543235256" lon="12.429944643094396"><ele>514.0</ele><time>2026-04-16T13:35:39Z</time></trkpt><trkpt lat="45.98536265817416" lon="12.430060612500759"><ele>514.0</ele><time>2026-04-16T13:35:40Z</time></trkpt><trkpt lat="45.9853274485954" lon="12.430165635878396"><ele>515.0</ele><time>2026-04-16T13:35:41Z</time></trkpt><trkpt lat="45.98530686597226" lon="12.430272672441019"><ele>516.0</ele><time>2026-04-16T13:35:42Z</time></trkpt><trkpt lat="45.98528004548116" lon="12.43039889366688"><ele>517.0</ele><time>2026-04-16T13:35:43Z</time></trkpt><trkpt lat="45.985261123329934" lon="12.430487943485852"><ele>518.0</ele><time>2026-04-16T13:35:44Z</time></trkpt><trkpt lat="45.98523802683206" lon="12.43063895240148"><ele>519.0</ele><time>2026-04-16T13:35:46Z</time></trkpt><trkpt lat="45.98523415728404" lon="12.430737628407755"><ele>520.0</ele><time>2026-04-16T13:35:48Z</time></trkpt><trkpt lat="45.98525125327889" lon="12.430840389791593"><ele>520.1666666666667</ele><time>2026-04-16T13:35:50Z</time></trkpt><trkpt lat="45.98528130058435" lon="12.430930762171533"><ele>520.3333333333334</ele><time>2026-04-16T13:35:52Z</time></trkpt><trkpt lat="45.98533366254235" lon="12.431005075834456"><ele>520.5</ele><time>2026-04-16T13:36:01Z</time></trkpt><trkpt lat="45.98541420029593" lon="12.431055668319711"><ele>520.6666666666666</ele><time>2026-04-16T13:36:08Z</time></trkpt><trkpt lat="45.98548342986265" lon="12.431092748423842"><ele>520.8333333333333</ele><time>2026-04-16T13:36:09Z</time></trkpt><trkpt lat="45.98560612951728" lon="12.431149238092786"><ele>521.0</ele><time>2026-04-16T13:36:11Z</time></trkpt><trkpt lat="45.98567136873802" lon="12.431202387991538"><ele>521.0</ele><time>2026-04-16T13:36:12Z</time></trkpt><trkpt lat="45.98574514688336" lon="12.431285234705456"><ele>521.0</ele><time>2026-04-16T13:36:13Z</time></trkpt><trkpt lat="45.985809868467946" lon="12.431359143720487"><ele>521.0</ele><time>2026-04-16T13:36:14Z</time></trkpt><trkpt lat="45.985890216749524" lon="12.431441969198527"><ele>521.0</ele><time>2026-04-16T13:36:15Z</time></trkpt><trkpt lat="45.985982247940484" lon="12.431497507656205"><ele>521.0</ele><time>2026-04-16T13:36:16Z</time></trkpt><trkpt lat="45.98606466968221" lon="12.431588820390166"><ele>523.4</ele><time>2026-04-16T13:36:17Z</time></trkpt><trkpt lat="45.986158264333824" lon="12.431664498356097"><ele>525.8</ele><time>2026-04-16T13:36:18Z</time></trkpt><trkpt lat="45.986233354759506" lon="12.431721786313172"><ele>528.1999999999999</ele><time>2026-04-16T13:36:19Z</time></trkpt><trkpt lat="45.98630535717226" lon="12.43177867826185"><ele>530.6</ele><time>2026-04-16T13:36:20Z</time></trkpt><trkpt lat="45.986372903939625" lon="12.431846474653291"><ele>533.0</ele><time>2026-04-16T13:36:21Z</time></trkpt><trkpt lat="45.98644516209584" lon="12.431931092809165"><ele>533.0</ele><time>2026-04-16T13:36:22Z</time></trkpt><trkpt lat="45.986486026999344" lon="12.432040651267688"><ele>533.0</ele><time>2026-04-16T13:36:23Z</time></trkpt><trkpt lat="45.98651066100395" lon="12.432152793922798"><ele>533.0</ele><time>2026-04-16T13:36:24Z</time></trkpt><trkpt lat="45.98652671790809" lon="12.432254689311248"><ele>533.0</ele><time>2026-04-16T13:36:25Z</time></trkpt><trkpt lat="45.98658151573293" lon="12.432394982414849"><ele>533.0</ele><time>2026-04-16T13:36:27Z</time></trkpt><trkpt lat="45.9866632176693" lon="12.432513088710499"><ele>530.8333333333333</ele><time>2026-04-16T13:36:29Z</time></trkpt><trkpt lat="45.98673444409412" lon="12.432538881378383"><ele>528.6666666666666</ele><time>2026-04-16T13:36:30Z</time></trkpt><trkpt lat="45.98681245366906" lon="12.43252760660141"><ele>526.5</ele><time>2026-04-16T13:36:31Z</time></trkpt><trkpt lat="45.98689184792587" lon="12.432501058881266"><ele>524.3333333333334</ele><time>2026-04-16T13:36:32Z</time></trkpt><trkpt lat="45.986978779728005" lon="12.432460237983936"><ele>522.1666666666667</ele><time>2026-04-16T13:36:33Z</time></trkpt><trkpt lat="45.987056190343836" lon="12.432412401636242"><ele>520.0</ele><time>2026-04-16T13:36:34Z</time></trkpt><trkpt lat="45.98713140451788" lon="12.43236531107539"><ele>520.0</ele><time>2026-04-16T13:36:35Z</time></trkpt><trkpt lat="45.987190758837684" lon="12.432329363997525"><ele>520.0</ele><time>2026-04-16T13:36:36Z</time></trkpt><trkpt lat="45.987255190460814" lon="12.432284247684619"><ele>520.0</ele><time>2026-04-16T13:36:37Z</time></trkpt><trkpt lat="45.98731996643036" lon="12.432219572948723"><ele>520.0</ele><time>2026-04-16T13:36:38Z</time></trkpt><trkpt lat="45.987388484772175" lon="12.43212457320599"><ele>520.0</ele><time>2026-04-16T13:36:39Z</time></trkpt><trkpt lat="45.987440083588" lon="12.432036510202247"><ele>520.0</ele><time>2026-04-16T13:36:40Z</time></trkpt><trkpt lat="45.98749401844369" lon="12.431940011406672"><ele>522.5</ele><time>2026-04-16T13:36:41Z</time></trkpt><trkpt lat="45.98754648007426" lon="12.431841215446177"><ele>525.0</ele><time>2026-04-16T13:36:42Z</time></trkpt><trkpt lat="45.987588584722495" lon="12.431739494176316"><ele>527.5</ele><time>2026-04-16T13:36:43Z</time></trkpt><trkpt lat="45.98763899094499" lon="12.4316451054154"><ele>530.0</ele><time>2026-04-16T13:36:44Z</time></trkpt><trkpt lat="45.98769117945121" lon="12.431583182825625"><ele>532.5</ele><time>2026-04-16T13:36:45Z</time></trkpt><trkpt lat="45.98774432710897" lon="12.431521492177032"><ele>535.0</ele><time>2026-04-16T13:36:46Z</time></trkpt><trkpt lat="45.98780186780236" lon="12.431464409800567"><ele>535.0</ele><time>2026-04-16T13:36:47Z</time></trkpt><trkpt lat="45.98789463600496" lon="12.431396833339944"><ele>535.0</ele><time>2026-04-16T13:36:48Z</time></trkpt><trkpt lat="45.987959825590494" lon="12.431338661337323"><ele>535.0</ele><time>2026-04-16T13:36:49Z</time></trkpt><trkpt lat="45.98805001865525" lon="12.431318857004968"><ele>535.0</ele><time>2026-04-16T13:36:50Z</time></trkpt><trkpt lat="45.98813570184822" lon="12.431280028701424"><ele>535.0</ele><time>2026-04-16T13:36:51Z</time></trkpt><trkpt lat="45.9882318715045" lon="12.431246097133867"><ele>540.0</ele><time>2026-04-16T13:36:53Z</time></trkpt><trkpt lat="45.98831906884541" lon="12.43125485863935"><ele>545.0</ele><time>2026-04-16T13:36:55Z</time></trkpt><trkpt lat="45.98843889190545" lon="12.431197567467953"><ele>550.0</ele><time>2026-04-16T13:36:58Z</time></trkpt><trkpt lat="45.98848760757897" lon="12.431077738182637"><ele>555.0</ele><time>2026-04-16T13:37:00Z</time></trkpt><trkpt lat="45.98846206215213" lon="12.430988806823532"><ele>560.0</ele><time>2026-04-16T13:37:01Z</time></trkpt><trkpt lat="45.988389293972986" lon="12.430919905896285"><ele>560.0</ele><time>2026-04-16T13:37:03Z</time></trkpt><trkpt lat="45.98829875951549" lon="12.430986371604707"><ele>560.0</ele><time>2026-04-16T13:37:04Z</time></trkpt><trkpt lat="45.988197166979" lon="12.431030880254331"><ele>560.0</ele><time>2026-04-16T13:37:06Z</time></trkpt><trkpt lat="45.98813343916395" lon="12.431053453098174"><ele>560.0</ele><time>2026-04-16T13:37:07Z</time></trkpt><trkpt lat="45.98802524416846" lon="12.431076718386402"><ele>560.0</ele><time>2026-04-16T13:37:09Z</time></trkpt><trkpt lat="45.98795748090624" lon="12.431085467423948"><ele>560.0</ele><time>2026-04-16T13:37:10Z</time></trkpt><trkpt lat="45.98789618795276" lon="12.43111132343622"><ele>560.0</ele><time>2026-04-16T13:37:11Z</time></trkpt><trkpt lat="45.98782805578724" lon="12.431089250285478"><ele>560.0</ele><time>2026-04-16T13:37:12Z</time></trkpt><trkpt lat="45.98775659777405" lon="12.431083137762545"><ele>560.0</ele><time>2026-04-16T13:37:13Z</time></trkpt><trkpt lat="45.98768355701881" lon="12.431075010916528"><ele>560.0</ele><time>2026-04-16T13:37:14Z</time></trkpt><trkpt lat="45.98761840665366" lon="12.431064304499545"><ele>560.0</ele><time>2026-04-16T13:37:15Z</time></trkpt><trkpt lat="45.98749253386341" lon="12.431043483717081"><ele>559.8</ele><time>2026-04-16T13:37:17Z</time></trkpt><trkpt lat="45.98736910220803" lon="12.431026693555598"><ele>559.6</ele><time>2026-04-16T13:37:18.999Z</time></trkpt><trkpt lat="45.98730281829054" lon="12.431027541363395"><ele>559.4</ele><time>2026-04-16T13:37:19.999Z</time></trkpt><trkpt lat="45.987177336921285" lon="12.431031885391771"><ele>559.2</ele><time>2026-04-16T13:37:21.999Z</time></trkpt><trkpt lat="45.987065412558096" lon="12.431061229762294"><ele>559.0</ele><time>2026-04-16T13:37:23.999Z</time></trkpt><trkpt lat="45.98694509246498" lon="12.43106296208447"><ele>559.0</ele><time>2026-04-16T13:37:25.999Z</time></trkpt><trkpt lat="45.986880276460326" lon="12.431036525969398"><ele>559.0</ele><time>2026-04-16T13:37:26.999Z</time></trkpt><trkpt lat="45.98682192810284" lon="12.430975184890347"><ele>559.0</ele><time>2026-04-16T13:37:27.999Z</time></trkpt><trkpt lat="45.98676720799505" lon="12.430900461554513"><ele>559.0</ele><time>2026-04-16T13:37:28.999Z</time></trkpt><trkpt lat="45.98672726890854" lon="12.43081485030416"><ele>559.0</ele><time>2026-04-16T13:37:29.999Z</time></trkpt><trkpt lat="45.98669794089475" lon="12.430712157097936"><ele>559.0</ele><time>2026-04-16T13:37:30.999Z</time></trkpt><trkpt lat="45.98668050181038" lon="12.430601604184636"><ele>559.0</ele><time>2026-04-16T13:37:31.999Z</time></trkpt><trkpt lat="45.98665789293459" lon="12.43048577613749"><ele>558.8333333333334</ele><time>2026-04-16T13:37:32.999Z</time></trkpt><trkpt lat="45.98664531678497" lon="12.430361768950743"><ele>558.6666666666667</ele><time>2026-04-16T13:37:34Z</time></trkpt><trkpt lat="45.98664188718476" lon="12.43024116690066"><ele>558.5</ele><time>2026-04-16T13:37:35Z</time></trkpt><trkpt lat="45.98664259068479" lon="12.430127604822003"><ele>558.3333333333334</ele><time>2026-04-16T13:37:36Z</time></trkpt><trkpt lat="45.98665364336035" lon="12.430019516749883"><ele>558.1666666666666</ele><time>2026-04-16T13:37:37Z</time></trkpt><trkpt lat="45.98667151469467" lon="12.429914859474643"><ele>558.0</ele><time>2026-04-16T13:37:38Z</time></trkpt><trkpt lat="45.98669977762012" lon="12.429810940039255"><ele>561.1999999999999</ele><time>2026-04-16T13:37:39Z</time></trkpt><trkpt lat="45.9867364103262" lon="12.429701655931563"><ele>564.4</ele><time>2026-04-16T13:37:40Z</time></trkpt><trkpt lat="45.98676806799365" lon="12.429581483545508"><ele>567.5999999999999</ele><time>2026-04-16T13:37:41Z</time></trkpt><trkpt lat="45.98679454124327" lon="12.429448564173777"><ele>570.8</ele><time>2026-04-16T13:37:42Z</time></trkpt><trkpt lat="45.986820670526505" lon="12.429314134623963"><ele>574.0</ele><time>2026-04-16T13:37:43Z</time></trkpt><trkpt lat="45.986845476309675" lon="12.42919463284483"><ele>576.2</ele><time>2026-04-16T13:37:44Z</time></trkpt><trkpt lat="45.98689087115842" lon="12.429087027483561"><ele>578.4</ele><time>2026-04-16T13:37:45Z</time></trkpt><trkpt lat="45.986950159958106" lon="12.428969884146122"><ele>580.6</ele><time>2026-04-16T13:37:46Z</time></trkpt><trkpt lat="45.98701429488025" lon="12.428854772018044"><ele>582.8</ele><time>2026-04-16T13:37:47Z</time></trkpt><trkpt lat="45.98707623377981" lon="12.428727940188718"><ele>585.0</ele><time>2026-04-16T13:37:48Z</time></trkpt><trkpt lat="45.98712556023441" lon="12.428585229246101"><ele>585.4</ele><time>2026-04-16T13:37:49Z</time></trkpt><trkpt lat="45.98716089433553" lon="12.428436233220207"><ele>585.8</ele><time>2026-04-16T13:37:50Z</time></trkpt><trkpt lat="45.98719833565152" lon="12.428282094004196"><ele>586.2</ele><time>2026-04-16T13:37:51Z</time></trkpt><trkpt lat="45.98725555183832" lon="12.428150813873577"><ele>586.6</ele><time>2026-04-16T13:37:52Z</time></trkpt><trkpt lat="45.98730823285344" lon="12.428026893370419"><ele>587.0</ele><time>2026-04-16T13:37:53Z</time></trkpt><trkpt lat="45.98734661407861" lon="12.427917119287029"><ele>587.0</ele><time>2026-04-16T13:37:54Z</time></trkpt><trkpt lat="45.98737978068124" lon="12.427829710453704"><ele>587.0</ele><time>2026-04-16T13:37:55Z</time></trkpt><trkpt lat="45.98739484808847" lon="12.42773113270661"><ele>587.0</ele><time>2026-04-16T13:37:56Z</time></trkpt><trkpt lat="45.98739253525969" lon="12.427620523257117"><ele>587.0</ele><time>2026-04-16T13:37:57Z</time></trkpt><trkpt lat="45.987385995941004" lon="12.427520973201512"><ele>587.0</ele><time>2026-04-16T13:37:58Z</time></trkpt><trkpt lat="45.987382997083394" lon="12.42741686990958"><ele>587.0</ele><time>2026-04-16T13:37:59Z</time></trkpt><trkpt lat="45.98740654540326" lon="12.427310701040724"><ele>587.0</ele><time>2026-04-16T13:38:00Z</time></trkpt><trkpt lat="45.98745064354136" lon="12.427204185142747"><ele>586.0</ele><time>2026-04-16T13:38:01Z</time></trkpt><trkpt lat="45.9875092492251" lon="12.427102642638284"><ele>585.0</ele><time>2026-04-16T13:38:02Z</time></trkpt><trkpt lat="45.98755232544239" lon="12.426973344837108"><ele>584.0</ele><time>2026-04-16T13:38:03Z</time></trkpt><trkpt lat="45.98758581703378" lon="12.426848164150382"><ele>583.0</ele><time>2026-04-16T13:38:04Z</time></trkpt><trkpt lat="45.98760811467851" lon="12.426734105110642"><ele>582.0</ele><time>2026-04-16T13:38:05Z</time></trkpt><trkpt lat="45.98762561833482" lon="12.426647006046991"><ele>581.0</ele><time>2026-04-16T13:38:06Z</time></trkpt><trkpt lat="45.987709497164595" lon="12.426521027759371"><ele>583.8333333333333</ele><time>2026-04-16T13:38:08Z</time></trkpt><trkpt lat="45.987778100545846" lon="12.426496947500437"><ele>586.6666666666666</ele><time>2026-04-16T13:38:09Z</time></trkpt><trkpt lat="45.98785668194265" lon="12.426495378307996"><ele>589.5</ele><time>2026-04-16T13:38:10Z</time></trkpt><trkpt lat="45.987928413077455" lon="12.42652256323495"><ele>592.3333333333334</ele><time>2026-04-16T13:38:11Z</time></trkpt><trkpt lat="45.98805545208128" lon="12.426514544731713"><ele>595.1666666666667</ele><time>2026-04-16T13:38:13Z</time></trkpt><trkpt lat="45.98811881682852" lon="12.42646089923053"><ele>598.0</ele><time>2026-04-16T13:38:14Z</time></trkpt><trkpt lat="45.98817913856019" lon="12.42637749868663"><ele>598.6</ele><time>2026-04-16T13:38:15Z</time></trkpt><trkpt lat="45.988234310119566" lon="12.426285399874466"><ele>599.1999999999999</ele><time>2026-04-16T13:38:16Z</time></trkpt><trkpt lat="45.98827696034799" lon="12.426202938977008"><ele>599.8</ele><time>2026-04-16T13:38:17Z</time></trkpt><trkpt lat="45.98831486393063" lon="12.426047529661307"><ele>600.4</ele><time>2026-04-16T13:38:19Z</time></trkpt><trkpt lat="45.988287841525086" lon="12.425881224907872"><ele>601.0</ele><time>2026-04-16T13:38:21Z</time></trkpt><trkpt lat="45.9882463158694" lon="12.425799466185868"><ele>601.0</ele><time>2026-04-16T13:38:22Z</time></trkpt><trkpt lat="45.988191998545226" lon="12.42570215844774"><ele>601.0</ele><time>2026-04-16T13:38:23Z</time></trkpt><trkpt lat="45.98814159976483" lon="12.425626732020401"><ele>601.0</ele><time>2026-04-16T13:38:24Z</time></trkpt><trkpt lat="45.98810780175676" lon="12.425539101942286"><ele>601.0</ele><time>2026-04-16T13:38:25Z</time></trkpt><trkpt lat="45.988080034859465" lon="12.4254274853049"><ele>601.0</ele><time>2026-04-16T13:38:26Z</time></trkpt><trkpt lat="45.98809162596904" lon="12.425281210951034"><ele>601.0</ele><time>2026-04-16T13:38:27Z</time></trkpt><trkpt lat="45.98809166916023" lon="12.425156523093257"><ele>601.6666666666667</ele><time>2026-04-16T13:38:28Z</time></trkpt><trkpt lat="45.98811529896194" lon="12.425064356727253"><ele>602.3333333333334</ele><time>2026-04-16T13:38:29Z</time></trkpt><trkpt lat="45.98816708172311" lon="12.42498738338799"><ele>603.0</ele><time>2026-04-16T13:38:30Z</time></trkpt><trkpt lat="45.98824046595529" lon="12.424909611020059"><ele>603.6666666666666</ele><time>2026-04-16T13:38:31Z</time></trkpt><trkpt lat="45.98830396620523" lon="12.424834140777287"><ele>604.3333333333333</ele><time>2026-04-16T13:38:32Z</time></trkpt><trkpt lat="45.98834990542275" lon="12.424766883835229"><ele>605.0</ele><time>2026-04-16T13:38:33Z</time></trkpt><trkpt lat="45.98839394795149" lon="12.42461277365419"><ele>605.4</ele><time>2026-04-16T13:38:35Z</time></trkpt><trkpt lat="45.98837005490342" lon="12.424427780588895"><ele>605.8</ele><time>2026-04-16T13:38:37Z</time></trkpt><trkpt lat="45.98835138758936" lon="12.424326026357923"><ele>606.2</ele><time>2026-04-16T13:38:38Z</time></trkpt><trkpt lat="45.9883199420039" lon="12.424212683729747"><ele>606.6</ele><time>2026-04-16T13:38:39Z</time></trkpt><trkpt lat="45.9882939245185" lon="12.42406396934949"><ele>607.0</ele><time>2026-04-16T13:38:40Z</time></trkpt><trkpt lat="45.98826152824583" lon="12.423954074740797"><ele>606.9999999999999</ele><time>2026-04-16T13:38:41Z</time></trkpt><trkpt lat="45.98827686263081" lon="12.423841796285185"><ele>607.0</ele><time>2026-04-16T13:38:42Z</time></trkpt><trkpt lat="45.98830512975378" lon="12.423744648910594"><ele>607.0</ele><time>2026-04-16T13:38:43Z</time></trkpt><trkpt lat="45.98835556876532" lon="12.42368174958659"><ele>607.0</ele><time>2026-04-16T13:38:44Z</time></trkpt><trkpt lat="45.988422112982626" lon="12.423654620991352"><ele>607.0</ele><time>2026-04-16T13:38:45Z</time></trkpt><trkpt lat="45.98849555139111" lon="12.423658303401275"><ele>606.9999999999999</ele><time>2026-04-16T13:38:46Z</time></trkpt><trkpt lat="45.98857968707484" lon="12.423680648841565"><ele>607.0</ele><time>2026-04-16T13:38:47Z</time></trkpt><trkpt lat="45.98866804068202" lon="12.423710651453936"><ele>605.8333333333334</ele><time>2026-04-16T13:38:48Z</time></trkpt><trkpt lat="45.988765222740696" lon="12.423735129952961"><ele>604.6666666666667</ele><time>2026-04-16T13:38:49Z</time></trkpt><trkpt lat="45.98884989065406" lon="12.423741171409644"><ele>603.5</ele><time>2026-04-16T13:38:50Z</time></trkpt><trkpt lat="45.98891963724602" lon="12.423748573997718"><ele>602.3333333333334</ele><time>2026-04-16T13:38:51Z</time></trkpt><trkpt lat="45.98899322692553" lon="12.423787618760619"><ele>601.1666666666666</ele><time>2026-04-16T13:38:52Z</time></trkpt><trkpt lat="45.98906737567586" lon="12.42385714788796"><ele>600.0</ele><time>2026-04-16T13:38:53Z</time></trkpt><trkpt lat="45.98913954442682" lon="12.42394266812438"><ele>601.4</ele><time>2026-04-16T13:38:54Z</time></trkpt><trkpt lat="45.98921278462391" lon="12.424034962138398"><ele>602.8</ele><time>2026-04-16T13:38:55Z</time></trkpt><trkpt lat="45.989291778495" lon="12.42412199286487"><ele>604.2</ele><time>2026-04-16T13:38:56Z</time></trkpt><trkpt lat="45.989381369620716" lon="12.424208994988101"><ele>605.6</ele><time>2026-04-16T13:38:57Z</time></trkpt><trkpt lat="45.98945212081504" lon="12.424288949074013"><ele>607.0</ele><time>2026-04-16T13:38:58Z</time></trkpt><trkpt lat="45.98951294073789" lon="12.424386426890848"><ele>606.9999999999999</ele><time>2026-04-16T13:38:59Z</time></trkpt><trkpt lat="45.989552573311094" lon="12.424463145770591"><ele>607.0</ele><time>2026-04-16T13:39:00Z</time></trkpt><trkpt lat="45.98958834301428" lon="12.42453872140702"><ele>607.0</ele><time>2026-04-16T13:39:01Z</time></trkpt><trkpt lat="45.98964685422607" lon="12.424600115778416"><ele>607.0</ele><time>2026-04-16T13:39:02Z</time></trkpt><trkpt lat="45.989673783172684" lon="12.424696615368292"><ele>607.0</ele><time>2026-04-16T13:39:03Z</time></trkpt><trkpt lat="45.98968617195124" lon="12.424792151208122"><ele>606.9999999999999</ele><time>2026-04-16T13:39:04Z</time></trkpt><trkpt lat="45.989687490544455" lon="12.42490025117121"><ele>607.0</ele><time>2026-04-16T13:39:05Z</time></trkpt><trkpt lat="45.98966484144234" lon="12.425021492553087"><ele>611.4</ele><time>2026-04-16T13:39:06Z</time></trkpt><trkpt lat="45.98962729320921" lon="12.42515374030919"><ele>615.8000000000001</ele><time>2026-04-16T13:39:07Z</time></trkpt><trkpt lat="45.98958779803962" lon="12.425301985462083"><ele>620.2</ele><time>2026-04-16T13:39:08Z</time></trkpt><trkpt lat="45.98955528219938" lon="12.425450927306363"><ele>624.6</ele><time>2026-04-16T13:39:09Z</time></trkpt><trkpt lat="45.98953624506964" lon="12.42557421137388"><ele>629.0</ele><time>2026-04-16T13:39:10Z</time></trkpt><trkpt lat="45.98952966073" lon="12.425677927168634"><ele>632.0</ele><time>2026-04-16T13:39:11Z</time></trkpt><trkpt lat="45.98956526947379" lon="12.425847898639294"><ele>635.0</ele><time>2026-04-16T13:39:13Z</time></trkpt><trkpt lat="45.98964563151194" lon="12.42596817242771"><ele>638.0</ele><time>2026-04-16T13:39:15Z</time></trkpt><trkpt lat="45.98970355842783" lon="12.42601619895418"><ele>641.0</ele><time>2026-04-16T13:39:16Z</time></trkpt><trkpt lat="45.9897712291992" lon="12.426058612297757"><ele>644.0</ele><time>2026-04-16T13:39:17Z</time></trkpt><trkpt lat="45.98983315987388" lon="12.426133791820124"><ele>644.0</ele><time>2026-04-16T13:39:18Z</time></trkpt><trkpt lat="45.989894816102435" lon="12.426214273049276"><ele>644.0</ele><time>2026-04-16T13:39:19Z</time></trkpt><trkpt lat="45.98992148718995" lon="12.426322437351683"><ele>644.0</ele><time>2026-04-16T13:39:19.999Z</time></trkpt><trkpt lat="45.98994643234493" lon="12.426412197262264"><ele>644.0</ele><time>2026-04-16T13:39:20.999Z</time></trkpt><trkpt lat="45.99003735458004" lon="12.426536599558894"><ele>644.0</ele><time>2026-04-16T13:39:22.999Z</time></trkpt><trkpt lat="45.99011610181985" lon="12.426567617741613"><ele>644.0</ele><time>2026-04-16T13:39:23.999Z</time></trkpt><trkpt lat="45.99018909675514" lon="12.426592371762892"><ele>644.1666666666666</ele><time>2026-04-16T13:39:24.999Z</time></trkpt><trkpt lat="45.99031164045265" lon="12.426587295189663"><ele>644.3333333333333</ele><time>2026-04-16T13:39:26.999Z</time></trkpt><trkpt lat="45.99037493451475" lon="12.426569098936124"><ele>644.5</ele><time>2026-04-16T13:39:27.999Z</time></trkpt><trkpt lat="45.99046753105394" lon="12.42654103874871"><ele>644.6666666666666</ele><time>2026-04-16T13:39:28.999Z</time></trkpt><trkpt lat="45.99051745708675" lon="12.426465775838565"><ele>644.8333333333334</ele><time>2026-04-16T13:39:29.999Z</time></trkpt><trkpt lat="45.99057399576451" lon="12.42637896882392"><ele>645.0</ele><time>2026-04-16T13:39:30.999Z</time></trkpt><trkpt lat="45.99065674135923" lon="12.426261950092806"><ele>645.0</ele><time>2026-04-16T13:39:31.999Z</time></trkpt><trkpt lat="45.9907184087164" lon="12.426193220006486"><ele>645.0</ele><time>2026-04-16T13:39:32.999Z</time></trkpt><trkpt lat="45.99076502051827" lon="12.426110032422086"><ele>645.0</ele><time>2026-04-16T13:39:33.999Z</time></trkpt><trkpt lat="45.99083524720061" lon="12.426048606299723"><ele>645.0</ele><time>2026-04-16T13:39:34.999Z</time></trkpt><trkpt lat="45.9909065955771" lon="12.426017698327556"><ele>645.0</ele><time>2026-04-16T13:39:35.999Z</time></trkpt><trkpt lat="45.99099073210862" lon="12.426020091847365"><ele>645.0</ele><time>2026-04-16T13:39:36.999Z</time></trkpt><trkpt lat="45.99107880329279" lon="12.426043539307813"><ele>643.6</ele><time>2026-04-16T13:39:37.999Z</time></trkpt><trkpt lat="45.99116196930186" lon="12.426083999311109"><ele>642.2</ele><time>2026-04-16T13:39:38.999Z</time></trkpt><trkpt lat="45.99124607858803" lon="12.426165487164452"><ele>640.8</ele><time>2026-04-16T13:39:40Z</time></trkpt><trkpt lat="45.99133512452731" lon="12.426250572772746"><ele>639.4</ele><time>2026-04-16T13:39:41Z</time></trkpt><trkpt lat="45.99142503343943" lon="12.426336605506227"><ele>638.0</ele><time>2026-04-16T13:39:42Z</time></trkpt><trkpt lat="45.99152014448376" lon="12.426425203349114"><ele>642.75</ele><time>2026-04-16T13:39:43Z</time></trkpt><trkpt lat="45.99161885974783" lon="12.426510334682073"><ele>647.5</ele><time>2026-04-16T13:39:44Z</time></trkpt><trkpt lat="45.99172691126563" lon="12.426597587210342"><ele>652.25</ele><time>2026-04-16T13:39:45Z</time></trkpt><trkpt lat="45.991826067916264" lon="12.426669660327192"><ele>657.0</ele><time>2026-04-16T13:39:46Z</time></trkpt><trkpt lat="45.99192953496132" lon="12.426735407412759"><ele>658.0</ele><time>2026-04-16T13:39:47Z</time></trkpt><trkpt lat="45.99204202019857" lon="12.426796628461156"><ele>659.0</ele><time>2026-04-16T13:39:48Z</time></trkpt><trkpt lat="45.99216717607118" lon="12.426831174322738"><ele>660.0</ele><time>2026-04-16T13:39:49Z</time></trkpt><trkpt lat="45.99230208738073" lon="12.42687464948072"><ele>661.0</ele><time>2026-04-16T13:39:50Z</time></trkpt><trkpt lat="45.99241158131671" lon="12.426904314898307"><ele>665.0</ele><time>2026-04-16T13:39:51Z</time></trkpt><trkpt lat="45.992524661034174" lon="12.426915015672357"><ele>669.0</ele><time>2026-04-16T13:39:52Z</time></trkpt><trkpt lat="45.99264322144524" lon="12.426912829447936"><ele>673.0</ele><time>2026-04-16T13:39:53Z</time></trkpt><trkpt lat="45.99275822412254" lon="12.426899310822632"><ele>677.0</ele><time>2026-04-16T13:39:54Z</time></trkpt><trkpt lat="45.99286125337552" lon="12.426883326626958"><ele>677.0</ele><time>2026-04-16T13:39:55Z</time></trkpt><trkpt lat="45.99294633394075" lon="12.426860231992366"><ele>677.0</ele><time>2026-04-16T13:39:56Z</time></trkpt><trkpt lat="45.9930115496457" lon="12.426842426238437"><ele>677.0</ele><time>2026-04-16T13:39:57Z</time></trkpt><trkpt lat="45.99314103508103" lon="12.426865005819105"><ele>677.0</ele><time>2026-04-16T13:39:59Z</time></trkpt><trkpt lat="45.993205424344474" lon="12.426921158896322"><ele>677.0</ele><time>2026-04-16T13:40:00Z</time></trkpt><trkpt lat="45.99326896227783" lon="12.426986522638984"><ele>677.0</ele><time>2026-04-16T13:40:01Z</time></trkpt><trkpt lat="45.99334523749823" lon="12.427038878892725"><ele>679.1666666666666</ele><time>2026-04-16T13:40:02Z</time></trkpt><trkpt lat="45.99341080601358" lon="12.427095992230997"><ele>681.3333333333333</ele><time>2026-04-16T13:40:03Z</time></trkpt><trkpt lat="45.993479207083055" lon="12.427144552151123"><ele>683.5</ele><time>2026-04-16T13:40:04Z</time></trkpt><trkpt lat="45.99353512062211" lon="12.427227180133029"><ele>685.6666666666666</ele><time>2026-04-16T13:40:05Z</time></trkpt><trkpt lat="45.99358198015642" lon="12.427342983097688"><ele>687.8333333333334</ele><time>2026-04-16T13:40:06Z</time></trkpt><trkpt lat="45.9936369360509" lon="12.427458350594085"><ele>690.0</ele><time>2026-04-16T13:40:07Z</time></trkpt><trkpt lat="45.99370296842385" lon="12.427570243422213"><ele>690.0</ele><time>2026-04-16T13:40:08Z</time></trkpt><trkpt lat="45.99376664105328" lon="12.427684528189056"><ele>690.0</ele><time>2026-04-16T13:40:09Z</time></trkpt><trkpt lat="45.9938248245948" lon="12.427815399404764"><ele>690.0</ele><time>2026-04-16T13:40:10Z</time></trkpt><trkpt lat="45.993891440078876" lon="12.427942850835935"><ele>690.0</ele><time>2026-04-16T13:40:11Z</time></trkpt><trkpt lat="45.99396961657692" lon="12.428025469575584"><ele>690.0</ele><time>2026-04-16T13:40:12Z</time></trkpt><trkpt lat="45.99406308151521" lon="12.428110698186414"><ele>689.8333333333334</ele><time>2026-04-16T13:40:13Z</time></trkpt><trkpt lat="45.99413652499542" lon="12.428166342619708"><ele>689.6666666666666</ele><time>2026-04-16T13:40:14Z</time></trkpt><trkpt lat="45.99420639181441" lon="12.428200969297643"><ele>689.5</ele><time>2026-04-16T13:40:15Z</time></trkpt><trkpt lat="45.9942913276962" lon="12.428227712789662"><ele>689.3333333333333</ele><time>2026-04-16T13:40:16Z</time></trkpt><trkpt lat="45.994388880424665" lon="12.428249631888937"><ele>689.1666666666666</ele><time>2026-04-16T13:40:17Z</time></trkpt><trkpt lat="45.994491064504786" lon="12.428262194051824"><ele>689.0</ele><time>2026-04-16T13:40:18Z</time></trkpt><trkpt lat="45.99459513797487" lon="12.428248992925843"><ele>689.8000000000001</ele><time>2026-04-16T13:40:19Z</time></trkpt><trkpt lat="45.99469278653883" lon="12.428259980313138"><ele>690.6</ele><time>2026-04-16T13:40:20Z</time></trkpt><trkpt lat="45.99480637084581" lon="12.428275410066908"><ele>691.4</ele><time>2026-04-16T13:40:21Z</time></trkpt><trkpt lat="45.99491606785449" lon="12.428291366791454"><ele>692.2</ele><time>2026-04-16T13:40:22Z</time></trkpt><trkpt lat="45.99501617022122" lon="12.42829384471372"><ele>693.0</ele><time>2026-04-16T13:40:23Z</time></trkpt><trkpt lat="45.99511646951842" lon="12.428289282987421"><ele>693.0</ele><time>2026-04-16T13:40:24Z</time></trkpt><trkpt lat="45.99520005978111" lon="12.4282832780268"><ele>693.0</ele><time>2026-04-16T13:40:25Z</time></trkpt><trkpt lat="45.99527450115637" lon="12.428260653167419"><ele>693.0</ele><time>2026-04-16T13:40:26Z</time></trkpt><trkpt lat="45.9953401343762" lon="12.428218286715985"><ele>693.0</ele><time>2026-04-16T13:40:27Z</time></trkpt><trkpt lat="45.99541123966101" lon="12.42815598995265"><ele>693.0</ele><time>2026-04-16T13:40:28Z</time></trkpt><trkpt lat="45.99547405866453" lon="12.428063064612672"><ele>693.0</ele><time>2026-04-16T13:40:29Z</time></trkpt><trkpt lat="45.99551760794532" lon="12.427958547752583"><ele>696.0</ele><time>2026-04-16T13:40:30Z</time></trkpt><trkpt lat="45.99556805204382" lon="12.427840333966314"><ele>699.0</ele><time>2026-04-16T13:40:31Z</time></trkpt><trkpt lat="45.99561814292831" lon="12.42772314002604"><ele>702.0</ele><time>2026-04-16T13:40:32Z</time></trkpt><trkpt lat="45.99568019169912" lon="12.427601421265948"><ele>705.0</ele><time>2026-04-16T13:40:33Z</time></trkpt><trkpt lat="45.99573587642123" lon="12.427471996539232"><ele>708.0</ele><time>2026-04-16T13:40:34Z</time></trkpt><trkpt lat="45.99578394305705" lon="12.427332304954984"><ele>708.0</ele><time>2026-04-16T13:40:35Z</time></trkpt><trkpt lat="45.99582976628117" lon="12.427182090289822"><ele>708.0</ele><time>2026-04-16T13:40:36Z</time></trkpt><trkpt lat="45.99588550802699" lon="12.427047001097936"><ele>708.0</ele><time>2026-04-16T13:40:37Z</time></trkpt><trkpt lat="45.99593104147602" lon="12.426932438598428"><ele>708.0</ele><time>2026-04-16T13:40:38Z</time></trkpt><trkpt lat="45.995986428967335" lon="12.426825371125092"><ele>708.0</ele><time>2026-04-16T13:40:39Z</time></trkpt><trkpt lat="45.99604583102382" lon="12.426721082956565"><ele>709.0</ele><time>2026-04-16T13:40:40Z</time></trkpt><trkpt lat="45.996121092544975" lon="12.426631116788947"><ele>710.0</ele><time>2026-04-16T13:40:41Z</time></trkpt><trkpt lat="45.99619862760894" lon="12.426534291154407"><ele>711.0</ele><time>2026-04-16T13:40:42Z</time></trkpt><trkpt lat="45.996262082210116" lon="12.426413710534506"><ele>712.0</ele><time>2026-04-16T13:40:43Z</time></trkpt><trkpt lat="45.99635181847233" lon="12.426308049253725"><ele>713.0</ele><time>2026-04-16T13:40:44Z</time></trkpt><trkpt lat="45.996443560949324" lon="12.426204188793804"><ele>717.25</ele><time>2026-04-16T13:40:45Z</time></trkpt><trkpt lat="45.99649021699128" lon="12.426024561892321"><ele>721.5</ele><time>2026-04-16T13:40:46Z</time></trkpt><trkpt lat="45.996565105396044" lon="12.425860490524835"><ele>725.75</ele><time>2026-04-16T13:40:47Z</time></trkpt><trkpt lat="45.996655169997425" lon="12.425726198776974"><ele>730.0</ele><time>2026-04-16T13:40:48Z</time></trkpt><trkpt lat="45.996738096876946" lon="12.425591386624795"><ele>732.2</ele><time>2026-04-16T13:40:49Z</time></trkpt><trkpt lat="45.996816336173346" lon="12.425450896671272"><ele>734.4</ele><time>2026-04-16T13:40:50Z</time></trkpt><trkpt lat="45.99689838807861" lon="12.42534594825942"><ele>736.5999999999999</ele><time>2026-04-16T13:40:51Z</time></trkpt><trkpt lat="45.99696065572293" lon="12.425221541831874"><ele>738.8</ele><time>2026-04-16T13:40:52Z</time></trkpt><trkpt lat="45.99703751446932" lon="12.425116725061633"><ele>741.0</ele><time>2026-04-16T13:40:53Z</time></trkpt><trkpt lat="45.99712565268477" lon="12.425035913695897"><ele>741.0</ele><time>2026-04-16T13:40:54Z</time></trkpt><trkpt lat="45.997198991675205" lon="12.424964881233828"><ele>741.0</ele><time>2026-04-16T13:40:55Z</time></trkpt><trkpt lat="45.99728722619643" lon="12.424894857744702"><ele>741.0</ele><time>2026-04-16T13:40:56Z</time></trkpt><trkpt lat="45.997360431654485" lon="12.424810585572908"><ele>741.0</ele><time>2026-04-16T13:40:57Z</time></trkpt><trkpt lat="45.997402693170955" lon="12.42470223187867"><ele>741.0</ele><time>2026-04-16T13:40:58Z</time></trkpt><trkpt lat="45.997476629115866" lon="12.424605076630751"><ele>743.1999999999999</ele><time>2026-04-16T13:40:59Z</time></trkpt><trkpt lat="45.997534487037726" lon="12.424513316397185"><ele>745.4</ele><time>2026-04-16T13:41:00Z</time></trkpt><trkpt lat="45.997588840475096" lon="12.42438202442763"><ele>747.6</ele><time>2026-04-16T13:41:01Z</time></trkpt><trkpt lat="45.99764702344375" lon="12.42424162716507"><ele>749.8</ele><time>2026-04-16T13:41:02Z</time></trkpt><trkpt lat="45.99771055001874" lon="12.424104606455556"><ele>752.0</ele><time>2026-04-16T13:41:03Z</time></trkpt><trkpt lat="45.99777898035098" lon="12.423995974045306"><ele>752.0</ele><time>2026-04-16T13:41:04Z</time></trkpt><trkpt lat="45.99784317724754" lon="12.42388482184265"><ele>752.0</ele><time>2026-04-16T13:41:04.999Z</time></trkpt><trkpt lat="45.99790255321855" lon="12.423752402689598"><ele>752.0</ele><time>2026-04-16T13:41:05.999Z</time></trkpt><trkpt lat="45.99796074465509" lon="12.423658269671709"><ele>752.0</ele><time>2026-04-16T13:41:06.999Z</time></trkpt><trkpt lat="45.99803896237994" lon="12.423570314074189"><ele>752.0</ele><time>2026-04-16T13:41:07.999Z</time></trkpt><trkpt lat="45.998102657997386" lon="12.423500631466622"><ele>754.4000000000001</ele><time>2026-04-16T13:41:08.999Z</time></trkpt><trkpt lat="45.99818339305318" lon="12.423475293960296"><ele>756.8000000000001</ele><time>2026-04-16T13:41:09.999Z</time></trkpt><trkpt lat="45.99826480732607" lon="12.423455162751637"><ele>759.2</ele><time>2026-04-16T13:41:10.999Z</time></trkpt><trkpt lat="45.99834154635488" lon="12.423385461851788"><ele>761.6</ele><time>2026-04-16T13:41:11.999Z</time></trkpt><trkpt lat="45.99841967882965" lon="12.423212788071952"><ele>764.0</ele><time>2026-04-16T13:41:13.999Z</time></trkpt><trkpt lat="45.99846828801634" lon="12.423139638243647"><ele>765.6</ele><time>2026-04-16T13:41:14.999Z</time></trkpt><trkpt lat="45.99851326672902" lon="12.42304270426636"><ele>767.2</ele><time>2026-04-16T13:41:15.999Z</time></trkpt><trkpt lat="45.998573499947696" lon="12.422923831400745"><ele>768.8000000000001</ele><time>2026-04-16T13:41:16.999Z</time></trkpt><trkpt lat="45.99863729157524" lon="12.422808753277234"><ele>770.4000000000001</ele><time>2026-04-16T13:41:17.999Z</time></trkpt><trkpt lat="45.998696272474895" lon="12.42273229108913"><ele>772.0</ele><time>2026-04-16T13:41:18.999Z</time></trkpt><trkpt lat="45.99876229314682" lon="12.422635071000169"><ele>773.6666666666666</ele><time>2026-04-16T13:41:19.999Z</time></trkpt><trkpt lat="45.99882345636387" lon="12.422539027510556"><ele>775.3333333333333</ele><time>2026-04-16T13:41:20.999Z</time></trkpt><trkpt lat="45.998903497674725" lon="12.422510674666857"><ele>777.0</ele><time>2026-04-16T13:41:21.999Z</time></trkpt><trkpt lat="45.99897614221584" lon="12.422475774027061"><ele>778.6666666666667</ele><time>2026-04-16T13:41:22.999Z</time></trkpt><trkpt lat="45.9990504349197" lon="12.422453574014057"><ele>780.3333333333334</ele><time>2026-04-16T13:41:23.999Z</time></trkpt><trkpt lat="45.999134014926994" lon="12.422462162179743"><ele>782.0</ele><time>2026-04-16T13:41:24.999Z</time></trkpt><trkpt lat="45.99921567970152" lon="12.422497803093865"><ele>783.0000000000001</ele><time>2026-04-16T13:41:25.999Z</time></trkpt><trkpt lat="45.999289801621835" lon="12.422570009716818"><ele>784.0</ele><time>2026-04-16T13:41:26.999Z</time></trkpt><trkpt lat="45.999361021086095" lon="12.42264670290595"><ele>785.0</ele><time>2026-04-16T13:41:27.999Z</time></trkpt><trkpt lat="45.99944923648139" lon="12.422683688798774"><ele>786.0</ele><time>2026-04-16T13:41:28.999Z</time></trkpt><trkpt lat="45.99955568103082" lon="12.422704528641404"><ele>787.0000000000001</ele><time>2026-04-16T13:41:29.999Z</time></trkpt><trkpt lat="45.99961940083509" lon="12.422709608530857"><ele>788.0</ele><time>2026-04-16T13:41:30.999Z</time></trkpt><trkpt lat="45.99968461969941" lon="12.422701946396831"><ele>788.0</ele><time>2026-04-16T13:41:31.999Z</time></trkpt><trkpt lat="45.999760772318446" lon="12.422725272042028"><ele>788.0</ele><time>2026-04-16T13:41:32.999Z</time></trkpt><trkpt lat="45.9998949958706" lon="12.422763988989168"><ele>788.0</ele><time>2026-04-16T13:41:33.999Z</time></trkpt><trkpt lat="45.99998548731424" lon="12.422746046868994"><ele>788.0</ele><time>2026-04-16T13:41:34.999Z</time></trkpt><trkpt lat="46.000067384174685" lon="12.422727456529083"><ele>788.0</ele><time>2026-04-16T13:41:35.999Z</time></trkpt><trkpt lat="46.00014620949417" lon="12.422635189910645"><ele>788.0</ele><time>2026-04-16T13:41:37.999Z</time></trkpt><trkpt lat="46.0001927339478" lon="12.42255105936531"><ele>788.0</ele><time>2026-04-16T13:41:38.999Z</time></trkpt><trkpt lat="46.00022266327615" lon="12.422415424748127"><ele>788.0</ele><time>2026-04-16T13:41:40.999Z</time></trkpt><trkpt lat="46.00023232094492" lon="12.42231802196344"><ele>788.0</ele><time>2026-04-16T13:41:41.999Z</time></trkpt><trkpt lat="46.000266388876284" lon="12.422220086428666"><ele>788.0</ele><time>2026-04-16T13:41:42.999Z</time></trkpt><trkpt lat="46.00025142179429" lon="12.422030620476889"><ele>789.5000000000001</ele><time>2026-04-16T13:41:44.999Z</time></trkpt><trkpt lat="46.00019977872823" lon="12.421915231332273"><ele>791.0</ele><time>2026-04-16T13:41:46Z</time></trkpt><trkpt lat="46.00018440608213" lon="12.421783617670783"><ele>792.5</ele><time>2026-04-16T13:41:47Z</time></trkpt><trkpt lat="46.00014930078391" lon="12.421667183672676"><ele>794.0</ele><time>2026-04-16T13:41:48Z</time></trkpt><trkpt lat="46.000118974331734" lon="12.421548348676277"><ele>795.5000000000001</ele><time>2026-04-16T13:41:49Z</time></trkpt><trkpt lat="46.000091356843754" lon="12.42146437287612"><ele>797.0</ele><time>2026-04-16T13:41:50Z</time></trkpt><trkpt lat="46.00007751505722" lon="12.421370539557312"><ele>800.3333333333334</ele><time>2026-04-16T13:41:51Z</time></trkpt><trkpt lat="46.000109793836906" lon="12.421199031684635"><ele>803.6666666666667</ele><time>2026-04-16T13:41:53Z</time></trkpt><trkpt lat="46.00015442475806" lon="12.421120092570247"><ele>807.0</ele><time>2026-04-16T13:41:54Z</time></trkpt><trkpt lat="46.000216439591206" lon="12.421038380394807"><ele>810.3333333333333</ele><time>2026-04-16T13:41:55Z</time></trkpt><trkpt lat="46.00027193806813" lon="12.420972676959225"><ele>813.6666666666666</ele><time>2026-04-16T13:41:56Z</time></trkpt><trkpt lat="46.00032339302285" lon="12.420897906038158"><ele>817.0</ele><time>2026-04-16T13:41:57Z</time></trkpt><trkpt lat="46.000398133240665" lon="12.42073424061624"><ele>816.9999999999999</ele><time>2026-04-16T13:41:59Z</time></trkpt><trkpt lat="46.00044002757685" lon="12.420627575623397"><ele>817.0</ele><time>2026-04-16T13:42:00Z</time></trkpt><trkpt lat="46.00048741083269" lon="12.420537964775546"><ele>817.0</ele><time>2026-04-16T13:42:01Z</time></trkpt><trkpt lat="46.00053561205841" lon="12.420413336304035"><ele>817.0</ele><time>2026-04-16T13:42:02Z</time></trkpt><trkpt lat="46.00057571929803" lon="12.420291267308409"><ele>816.9999999999999</ele><time>2026-04-16T13:42:03Z</time></trkpt><trkpt lat="46.000623953480556" lon="12.420188291985017"><ele>817.0</ele><time>2026-04-16T13:42:04Z</time></trkpt><trkpt lat="46.0006796445206" lon="12.420076688228708"><ele>820.0</ele><time>2026-04-16T13:42:05Z</time></trkpt><trkpt lat="46.00075425115415" lon="12.419932904905783"><ele>823.0</ele><time>2026-04-16T13:42:06Z</time></trkpt><trkpt lat="46.000811397970786" lon="12.419796567790451"><ele>826.0</ele><time>2026-04-16T13:42:07Z</time></trkpt><trkpt lat="46.00085208062931" lon="12.419625995991439"><ele>829.0</ele><time>2026-04-16T13:42:08Z</time></trkpt><trkpt lat="46.000916898372445" lon="12.419474153842796"><ele>829.0</ele><time>2026-04-16T13:42:09Z</time></trkpt><trkpt lat="46.00100244488037" lon="12.419338839882343"><ele>829.0</ele><time>2026-04-16T13:42:10Z</time></trkpt><trkpt lat="46.001092748118616" lon="12.4191788301656"><ele>829.0</ele><time>2026-04-16T13:42:11Z</time></trkpt><trkpt lat="46.00116906537291" lon="12.41901553119924"><ele>829.0</ele><time>2026-04-16T13:42:12Z</time></trkpt><trkpt lat="46.00123691724248" lon="12.41887553361468"><ele>833.0</ele><time>2026-04-16T13:42:13Z</time></trkpt><trkpt lat="46.00131179103458" lon="12.418754460018475"><ele>837.0</ele><time>2026-04-16T13:42:14Z</time></trkpt><trkpt lat="46.001387568453644" lon="12.418613164884137"><ele>841.0</ele><time>2026-04-16T13:42:15Z</time></trkpt><trkpt lat="46.00152867559885" lon="12.418461370939458"><ele>845.0</ele><time>2026-04-16T13:42:16Z</time></trkpt><trkpt lat="46.00161962531822" lon="12.418344827978945"><ele>844.5</ele><time>2026-04-16T13:42:17Z</time></trkpt><trkpt lat="46.00171130913624" lon="12.418243597704842"><ele>844.0</ele><time>2026-04-16T13:42:18Z</time></trkpt><trkpt lat="46.00180198393453" lon="12.418136191512744"><ele>843.5</ele><time>2026-04-16T13:42:19Z</time></trkpt><trkpt lat="46.001871706763836" lon="12.418016080941928"><ele>843.0</ele><time>2026-04-16T13:42:20Z</time></trkpt><trkpt lat="46.001960099735165" lon="12.417916164020832"><ele>843.0</ele><time>2026-04-16T13:42:21Z</time></trkpt><trkpt lat="46.00204006742581" lon="12.417812175634275"><ele>843.0</ele><time>2026-04-16T13:42:22Z</time></trkpt><trkpt lat="46.00209369566286" lon="12.417717609582825"><ele>843.0</ele><time>2026-04-16T13:42:23Z</time></trkpt><trkpt lat="46.002172179271774" lon="12.417634579858486"><ele>843.0</ele><time>2026-04-16T13:42:24Z</time></trkpt><trkpt lat="46.00222608988764" lon="12.41750616734195"><ele>843.0</ele><time>2026-04-16T13:42:25Z</time></trkpt><trkpt lat="46.002287985122926" lon="12.417473538459278"><ele>843.0</ele><time>2026-04-16T13:42:26Z</time></trkpt><trkpt lat="46.00236724006081" lon="12.41747491242027"><ele>843.0</ele><time>2026-04-16T13:42:27Z</time></trkpt><trkpt lat="46.00244088675489" lon="12.417469239299592"><ele>843.0</ele><time>2026-04-16T13:42:28Z</time></trkpt><trkpt lat="46.00251080374177" lon="12.417515115125815"><ele>843.0</ele><time>2026-04-16T13:42:29Z</time></trkpt><trkpt lat="46.002563448714334" lon="12.417564836909879"><ele>843.0</ele><time>2026-04-16T13:42:30Z</time></trkpt><trkpt lat="46.002640493583584" lon="12.417623792183317"><ele>843.0</ele><time>2026-04-16T13:42:31Z</time></trkpt><trkpt lat="46.00272613978933" lon="12.41765007947416"><ele>841.5999999999999</ele><time>2026-04-16T13:42:32Z</time></trkpt><trkpt lat="46.0028109875209" lon="12.41759851216178"><ele>840.1999999999999</ele><time>2026-04-16T13:42:34Z</time></trkpt><trkpt lat="46.00294363954142" lon="12.41756265933994"><ele>838.8</ele><time>2026-04-16T13:42:36Z</time></trkpt><trkpt lat="46.00304603645192" lon="12.417528028013297"><ele>837.4</ele><time>2026-04-16T13:42:37Z</time></trkpt><trkpt lat="46.00314308189075" lon="12.417485760785262"><ele>836.0</ele><time>2026-04-16T13:42:38Z</time></trkpt><trkpt lat="46.00323524216502" lon="12.41742494964551"><ele>836.0000000000001</ele><time>2026-04-16T13:42:39Z</time></trkpt><trkpt lat="46.003328928058835" lon="12.417353444471473"><ele>836.0</ele><time>2026-04-16T13:42:40Z</time></trkpt><trkpt lat="46.00340960243967" lon="12.41728066072496"><ele>836.0</ele><time>2026-04-16T13:42:41Z</time></trkpt><trkpt lat="46.00347763241344" lon="12.41721825622143"><ele>836.0</ele><time>2026-04-16T13:42:42Z</time></trkpt><trkpt lat="46.00352820523303" lon="12.41714875485414"><ele>836.0000000000001</ele><time>2026-04-16T13:42:43Z</time></trkpt><trkpt lat="46.00360219088765" lon="12.41706358056091"><ele>836.0</ele><time>2026-04-16T13:42:44Z</time></trkpt><trkpt lat="46.00365042833722" lon="12.416958739916806"><ele>839.25</ele><time>2026-04-16T13:42:45Z</time></trkpt><trkpt lat="46.003712380527475" lon="12.416855757306362"><ele>842.5</ele><time>2026-04-16T13:42:46Z</time></trkpt><trkpt lat="46.00378329604031" lon="12.416709227015529"><ele>845.75</ele><time>2026-04-16T13:42:47Z</time></trkpt><trkpt lat="46.00383518363905" lon="12.41654751761593"><ele>849.0</ele><time>2026-04-16T13:42:48Z</time></trkpt><trkpt lat="46.00392026757686" lon="12.416420705433639"><ele>849.0</ele><time>2026-04-16T13:42:49Z</time></trkpt><trkpt lat="46.00397475899273" lon="12.416323732496405"><ele>849.0</ele><time>2026-04-16T13:42:50Z</time></trkpt><trkpt lat="46.00404910760976" lon="12.416229951492241"><ele>849.0</ele><time>2026-04-16T13:42:51Z</time></trkpt><trkpt lat="46.004109452524666" lon="12.416154848283059"><ele>849.0</ele><time>2026-04-16T13:42:52Z</time></trkpt><trkpt lat="46.00421786910326" lon="12.416078224197635"><ele>849.0</ele><time>2026-04-16T13:42:53Z</time></trkpt><trkpt lat="46.004288450068195" lon="12.415998737873174"><ele>849.2</ele><time>2026-04-16T13:42:54Z</time></trkpt><trkpt lat="46.004357116905396" lon="12.415895770371156"><ele>849.4000000000001</ele><time>2026-04-16T13:42:55Z</time></trkpt><trkpt lat="46.00441492835196" lon="12.415771863891308"><ele>849.6</ele><time>2026-04-16T13:42:56Z</time></trkpt><trkpt lat="46.00445874707519" lon="12.415647060247863"><ele>849.8</ele><time>2026-04-16T13:42:57Z</time></trkpt><trkpt lat="46.00450794929755" lon="12.415533175763038"><ele>850.0</ele><time>2026-04-16T13:42:58Z</time></trkpt><trkpt lat="46.004565471990986" lon="12.415434048437898"><ele>850.0</ele><time>2026-04-16T13:42:59Z</time></trkpt><trkpt lat="46.004660934699096" lon="12.415357474979656"><ele>850.0</ele><time>2026-04-16T13:43:00Z</time></trkpt><trkpt lat="46.00476380685303" lon="12.415299032107313"><ele>850.0</ele><time>2026-04-16T13:43:01Z</time></trkpt><trkpt lat="46.00485784648985" lon="12.41521640507942"><ele>850.0</ele><time>2026-04-16T13:43:01.999Z</time></trkpt><trkpt lat="46.004961789225554" lon="12.415159328255159"><ele>850.0</ele><time>2026-04-16T13:43:02.999Z</time></trkpt><trkpt lat="46.005064947090844" lon="12.415105921403391"><ele>852.6</ele><time>2026-04-16T13:43:03.999Z</time></trkpt><trkpt lat="46.00516678577097" lon="12.415054890029266"><ele>855.2</ele><time>2026-04-16T13:43:04.999Z</time></trkpt><trkpt lat="46.005269882842725" lon="12.414993273662258"><ele>857.8</ele><time>2026-04-16T13:43:05.999Z</time></trkpt><trkpt lat="46.00537722759429" lon="12.414940974242272"><ele>860.4</ele><time>2026-04-16T13:43:06.999Z</time></trkpt><trkpt lat="46.00546997377853" lon="12.41487418515529"><ele>863.0</ele><time>2026-04-16T13:43:07.999Z</time></trkpt><trkpt lat="46.005557163720646" lon="12.414785917083934"><ele>863.0000000000001</ele><time>2026-04-16T13:43:08.999Z</time></trkpt><trkpt lat="46.005637395844246" lon="12.414723553123087"><ele>863.0</ele><time>2026-04-16T13:43:09.999Z</time></trkpt><trkpt lat="46.005724121353246" lon="12.414673368241672"><ele>863.0</ele><time>2026-04-16T13:43:10.999Z</time></trkpt><trkpt lat="46.005786266788085" lon="12.414613978712492"><ele>863.0</ele><time>2026-04-16T13:43:11.999Z</time></trkpt><trkpt lat="46.00583944705709" lon="12.41456161098088"><ele>863.0000000000001</ele><time>2026-04-16T13:43:12.999Z</time></trkpt><trkpt lat="46.00585290943537" lon="12.414465051522804"><ele>863.0</ele><time>2026-04-16T13:43:13.999Z</time></trkpt><trkpt lat="46.005937527076476" lon="12.41440734267026"><ele>866.4</ele><time>2026-04-16T13:43:14.999Z</time></trkpt><trkpt lat="46.00602322696321" lon="12.41438101675825"><ele>869.8</ele><time>2026-04-16T13:43:15.999Z</time></trkpt><trkpt lat="46.00608690927285" lon="12.41433857724898"><ele>873.2</ele><time>2026-04-16T13:43:16.999Z</time></trkpt><trkpt lat="46.006185389518855" lon="12.414345324972873"><ele>876.6</ele><time>2026-04-16T13:43:17.999Z</time></trkpt><trkpt lat="46.00630652364429" lon="12.41437673619491"><ele>880.0</ele><time>2026-04-16T13:43:19.999Z</time></trkpt><trkpt lat="46.00639906364172" lon="12.414483654552805"><ele>880.0</ele><time>2026-04-16T13:43:21.999Z</time></trkpt><trkpt lat="46.00641892851605" lon="12.414577782834264"><ele>880.0</ele><time>2026-04-16T13:43:22.999Z</time></trkpt><trkpt lat="46.00645488612839" lon="12.414710940447652"><ele>880.0</ele><time>2026-04-16T13:43:23.999Z</time></trkpt><trkpt lat="46.00649337483882" lon="12.414833916997475"><ele>880.0</ele><time>2026-04-16T13:43:24.999Z</time></trkpt><trkpt lat="46.00652803230477" lon="12.414968754559073"><ele>880.0</ele><time>2026-04-16T13:43:25.999Z</time></trkpt><trkpt lat="46.00655595215232" lon="12.41511951867882"><ele>878.8</ele><time>2026-04-16T13:43:26.999Z</time></trkpt><trkpt lat="46.00657783388936" lon="12.415281055400385"><ele>877.6</ele><time>2026-04-16T13:43:27.999Z</time></trkpt><trkpt lat="46.00660926645966" lon="12.415421141201278"><ele>876.4000000000001</ele><time>2026-04-16T13:43:28.999Z</time></trkpt><trkpt lat="46.006635402539004" lon="12.415555072423139"><ele>875.2</ele><time>2026-04-16T13:43:29.999Z</time></trkpt><trkpt lat="46.006643124169244" lon="12.415694142623787"><ele>874.0</ele><time>2026-04-16T13:43:30.999Z</time></trkpt><trkpt lat="46.006636627575304" lon="12.415831946041738"><ele>873.9999999999999</ele><time>2026-04-16T13:43:31.999Z</time></trkpt><trkpt lat="46.0066204332207" lon="12.415966367774589"><ele>874.0</ele><time>2026-04-16T13:43:32.999Z</time></trkpt><trkpt lat="46.00660826684142" lon="12.416068268733353"><ele>874.0</ele><time>2026-04-16T13:43:33.999Z</time></trkpt><trkpt lat="46.00661660543398" lon="12.41618266100994"><ele>874.0</ele><time>2026-04-16T13:43:34.999Z</time></trkpt><trkpt lat="46.006646791990434" lon="12.416264231630254"><ele>873.9999999999999</ele><time>2026-04-16T13:43:35.999Z</time></trkpt><trkpt lat="46.0066998878333" lon="12.416370118046114"><ele>874.0</ele><time>2026-04-16T13:43:36.999Z</time></trkpt><trkpt lat="46.00671731797558" lon="12.416479356049203"><ele>878.6</ele><time>2026-04-16T13:43:37.999Z</time></trkpt><trkpt lat="46.00680762039945" lon="12.41657218136845"><ele>883.2</ele><time>2026-04-16T13:43:38.999Z</time></trkpt><trkpt lat="46.006849703439165" lon="12.416697909681767"><ele>887.8000000000001</ele><time>2026-04-16T13:43:39.999Z</time></trkpt><trkpt lat="46.00686622316104" lon="12.416823670286755"><ele>892.4000000000001</ele><time>2026-04-16T13:43:40.999Z</time></trkpt><trkpt lat="46.006819299427846" lon="12.416960408474694"><ele>897.0</ele><time>2026-04-16T13:43:41.999Z</time></trkpt><trkpt lat="46.00676086205938" lon="12.417040354765817"><ele>897.0</ele><time>2026-04-16T13:43:42.999Z</time></trkpt><trkpt lat="46.00674066394831" lon="12.41712675616527"><ele>897.0</ele><time>2026-04-16T13:43:43.999Z</time></trkpt><trkpt lat="46.00675946411561" lon="12.417259134863269"><ele>897.0</ele><time>2026-04-16T13:43:45.999Z</time></trkpt><trkpt lat="46.006848951227184" lon="12.417384730098371"><ele>897.0</ele><time>2026-04-16T13:43:47.999Z</time></trkpt><trkpt lat="46.006966404299085" lon="12.417440658968113"><ele>897.0</ele><time>2026-04-16T13:43:49.999Z</time></trkpt><trkpt lat="46.00703472306117" lon="12.417476528939723"><ele>896.6666666666666</ele><time>2026-04-16T13:43:50.999Z</time></trkpt><trkpt lat="46.00712036991777" lon="12.417510930819951"><ele>896.3333333333333</ele><time>2026-04-16T13:43:52Z</time></trkpt><trkpt lat="46.00720443866496" lon="12.417540330678522"><ele>896.0</ele><time>2026-04-16T13:43:53Z</time></trkpt><trkpt lat="46.00728361873366" lon="12.417573712853402"><ele>895.6666666666666</ele><time>2026-04-16T13:43:54Z</time></trkpt><trkpt lat="46.007361835805035" lon="12.417598964304268"><ele>895.3333333333333</ele><time>2026-04-16T13:43:55Z</time></trkpt><trkpt lat="46.00744296178295" lon="12.417681130790166"><ele>895.0</ele><time>2026-04-16T13:43:56Z</time></trkpt><trkpt lat="46.00749096480325" lon="12.417764918481215"><ele>897.8333333333333</ele><time>2026-04-16T13:43:57Z</time></trkpt><trkpt lat="46.00754726302716" lon="12.4178461480815"><ele>900.6666666666666</ele><time>2026-04-16T13:43:58Z</time></trkpt><trkpt lat="46.00758182257284" lon="12.417957543148317"><ele>903.5</ele><time>2026-04-16T13:43:59Z</time></trkpt><trkpt lat="46.00761057721802" lon="12.41807565018748"><ele>906.3333333333333</ele><time>2026-04-16T13:44:00Z</time></trkpt><trkpt lat="46.00758579884752" lon="12.41818406534453"><ele>909.1666666666666</ele><time>2026-04-16T13:44:01Z</time></trkpt><trkpt lat="46.007543006067" lon="12.418262471497014"><ele>912.0</ele><time>2026-04-16T13:44:02Z</time></trkpt><trkpt lat="46.007508447584314" lon="12.41834478473124"><ele>912.0</ele><time>2026-04-16T13:44:03Z</time></trkpt><trkpt lat="46.00752665783705" lon="12.41848378198906"><ele>912.0</ele><time>2026-04-16T13:44:05Z</time></trkpt><trkpt lat="46.007616169858686" lon="12.418556055693136"><ele>912.0</ele><time>2026-04-16T13:44:07Z</time></trkpt><trkpt lat="46.007741358623576" lon="12.418573102560554"><ele>912.0</ele><time>2026-04-16T13:44:09Z</time></trkpt><trkpt lat="46.00780941845928" lon="12.418568847891137"><ele>912.0</ele><time>2026-04-16T13:44:10Z</time></trkpt><trkpt lat="46.00789832634198" lon="12.418599740314942"><ele>912.0</ele><time>2026-04-16T13:44:11Z</time></trkpt><trkpt lat="46.007966376974544" lon="12.418597963746784"><ele>911.9999999999999</ele><time>2026-04-16T13:44:12Z</time></trkpt><trkpt lat="46.00802864783357" lon="12.418562301625293"><ele>912.0</ele><time>2026-04-16T13:44:13Z</time></trkpt><trkpt lat="46.00808852460363" lon="12.418521095867588"><ele>912.0</ele><time>2026-04-16T13:44:14Z</time></trkpt><trkpt lat="46.00814826419618" lon="12.418481591322761"><ele>911.9999999999999</ele><time>2026-04-16T13:44:15Z</time></trkpt><trkpt lat="46.00820593699202" lon="12.41841761135394"><ele>912.0</ele><time>2026-04-16T13:44:16Z</time></trkpt><trkpt lat="46.008271108391746" lon="12.418331858063118"><ele>912.0</ele><time>2026-04-16T13:44:17Z</time></trkpt><trkpt lat="46.00831630873153" lon="12.418244795474445"><ele>914.5</ele><time>2026-04-16T13:44:18Z</time></trkpt><trkpt lat="46.00836725406185" lon="12.41814189988732"><ele>917.0</ele><time>2026-04-16T13:44:19Z</time></trkpt><trkpt lat="46.00843000216686" lon="12.418087841098934"><ele>919.5</ele><time>2026-04-16T13:44:20Z</time></trkpt><trkpt lat="46.0085019059581" lon="12.418045108909494"><ele>922.0</ele><time>2026-04-16T13:44:21Z</time></trkpt><trkpt lat="46.00855754048767" lon="12.41799244820194"><ele>924.5</ele><time>2026-04-16T13:44:22Z</time></trkpt><trkpt lat="46.0086243260587" lon="12.417963071811158"><ele>927.0</ele><time>2026-04-16T13:44:23Z</time></trkpt><trkpt lat="46.00873278542036" lon="12.417898971495395"><ele>927.0</ele><time>2026-04-16T13:44:25Z</time></trkpt><trkpt lat="46.00883056538661" lon="12.417907184336842"><ele>927.0</ele><time>2026-04-16T13:44:27Z</time></trkpt><trkpt lat="46.00891886221633" lon="12.418033952200686"><ele>927.0</ele><time>2026-04-16T13:44:29Z</time></trkpt><trkpt lat="46.008951394495305" lon="12.418123158427859"><ele>927.0</ele><time>2026-04-16T13:44:30Z</time></trkpt><trkpt lat="46.008988825795576" lon="12.418230226943088"><ele>927.0</ele><time>2026-04-16T13:44:31Z</time></trkpt><trkpt lat="46.008999422983614" lon="12.418328593161462"><ele>927.0</ele><time>2026-04-16T13:44:32Z</time></trkpt><trkpt lat="46.00905798017914" lon="12.418452850374383"><ele>927.0</ele><time>2026-04-16T13:44:34Z</time></trkpt><trkpt lat="46.00914841961796" lon="12.41852642807001"><ele>927.0</ele><time>2026-04-16T13:44:36Z</time></trkpt><trkpt lat="46.00921151089456" lon="12.41855095994117"><ele>927.0</ele><time>2026-04-16T13:44:37Z</time></trkpt><trkpt lat="46.009278579491756" lon="12.41856881921578"><ele>927.0</ele><time>2026-04-16T13:44:38Z</time></trkpt><trkpt lat="46.009340821580956" lon="12.418608229273456"><ele>927.0</ele><time>2026-04-16T13:44:39Z</time></trkpt><trkpt lat="46.00942257601026" lon="12.418763268734198"><ele>927.0</ele><time>2026-04-16T13:44:41Z</time></trkpt><trkpt lat="46.009444302111426" lon="12.41885211886925"><ele>929.0</ele><time>2026-04-16T13:44:42Z</time></trkpt><trkpt lat="46.009494348533835" lon="12.418999464353055"><ele>931.0</ele><time>2026-04-16T13:44:44Z</time></trkpt><trkpt lat="46.00959001669051" lon="12.419106713196149"><ele>933.0</ele><time>2026-04-16T13:44:46Z</time></trkpt><trkpt lat="46.0096781388936" lon="12.41918683397982"><ele>935.0</ele><time>2026-04-16T13:44:48Z</time></trkpt><trkpt lat="46.009760090180244" lon="12.419216189667175"><ele>937.0</ele><time>2026-04-16T13:44:50Z</time></trkpt><trkpt lat="46.00982459035305" lon="12.41918719557547"><ele>936.9999999999999</ele><time>2026-04-16T13:44:51Z</time></trkpt><trkpt lat="46.00989439582396" lon="12.419161448937858"><ele>937.0</ele><time>2026-04-16T13:44:52Z</time></trkpt><trkpt lat="46.01000875126606" lon="12.41911026464359"><ele>937.0</ele><time>2026-04-16T13:44:53Z</time></trkpt><trkpt lat="46.01007940790785" lon="12.41904660002434"><ele>937.0</ele><time>2026-04-16T13:44:54Z</time></trkpt><trkpt lat="46.010145502405805" lon="12.418981719942918"><ele>936.9999999999999</ele><time>2026-04-16T13:44:55Z</time></trkpt><trkpt lat="46.01019930593214" lon="12.418900966887112"><ele>937.0</ele><time>2026-04-16T13:44:56Z</time></trkpt><trkpt lat="46.010248250111786" lon="12.418827400413626"><ele>941.4000000000001</ele><time>2026-04-16T13:44:57Z</time></trkpt><trkpt lat="46.01031484717162" lon="12.418728703165376"><ele>945.8000000000001</ele><time>2026-04-16T13:44:58Z</time></trkpt><trkpt lat="46.0104155612491" lon="12.418653053360885"><ele>950.2</ele><time>2026-04-16T13:44:59Z</time></trkpt><trkpt lat="46.01049391216437" lon="12.418587890387787"><ele>954.6</ele><time>2026-04-16T13:45:00Z</time></trkpt><trkpt lat="46.0106064300133" lon="12.418572080936276"><ele>959.0</ele><time>2026-04-16T13:45:01Z</time></trkpt><trkpt lat="46.01069502997183" lon="12.41857330303595"><ele>959.0000000000001</ele><time>2026-04-16T13:45:02Z</time></trkpt><trkpt lat="46.01078472398122" lon="12.418561271640735"><ele>959.0</ele><time>2026-04-16T13:45:03Z</time></trkpt><trkpt lat="46.010853749488476" lon="12.41854541699895"><ele>959.0</ele><time>2026-04-16T13:45:04Z</time></trkpt><trkpt lat="46.010951743352344" lon="12.418509590712635"><ele>959.0</ele><time>2026-04-16T13:45:06Z</time></trkpt><trkpt lat="46.01103060945863" lon="12.418460422209737"><ele>959.0000000000001</ele><time>2026-04-16T13:45:08Z</time></trkpt><trkpt lat="46.011083842608215" lon="12.41839179751053"><ele>959.0</ele><time>2026-04-16T13:45:12Z</time></trkpt><trkpt lat="46.0111927539344" lon="12.418332756514364"><ele>960.2</ele><time>2026-04-16T13:45:23.999Z</time></trkpt><trkpt lat="46.01128470675287" lon="12.418263870843056"><ele>961.4000000000001</ele><time>2026-04-16T13:46:35Z</time></trkpt><trkpt lat="46.0113884159397" lon="12.4181764664616"><ele>962.6</ele><time>2026-04-16T13:46:37Z</time></trkpt><trkpt lat="46.01147691160485" lon="12.418182890975297"><ele>963.8</ele><time>2026-04-16T13:46:38Z</time></trkpt><trkpt lat="46.01158690596695" lon="12.41813483800083"><ele>965.0</ele><time>2026-04-16T13:46:40Z</time></trkpt><trkpt lat="46.01165341785079" lon="12.418106510131937"><ele>965.8333333333334</ele><time>2026-04-16T13:46:41Z</time></trkpt><trkpt lat="46.011723289027074" lon="12.418078269810078"><ele>966.6666666666667</ele><time>2026-04-16T13:46:42Z</time></trkpt><trkpt lat="46.01182938808228" lon="12.418075548457363"><ele>967.5</ele><time>2026-04-16T13:46:44Z</time></trkpt><trkpt lat="46.01190057425068" lon="12.418083330252484"><ele>968.3333333333333</ele><time>2026-04-16T13:46:46Z</time></trkpt><trkpt lat="46.01199811169817" lon="12.418069874013623"><ele>969.1666666666666</ele><time>2026-04-16T13:46:48Z</time></trkpt><trkpt lat="46.01206189477546" lon="12.418077505838182"><ele>970.0</ele><time>2026-04-16T13:46:49Z</time></trkpt><trkpt lat="46.01212692996712" lon="12.418118771112832"><ele>970.0</ele><time>2026-04-16T13:46:51Z</time></trkpt><trkpt lat="46.01196153132247" lon="12.418104672171884"><ele>970.0</ele><time>2026-04-16T13:47:00Z</time></trkpt><trkpt lat="46.01186830793366" lon="12.41808129937331"><ele>970.0</ele><time>2026-04-16T13:47:02Z</time></trkpt><trkpt lat="46.01180729186669" lon="12.418117348279907"><ele>970.0</ele><time>2026-04-16T13:47:03Z</time></trkpt><trkpt lat="46.011669493332654" lon="12.418146255740758"><ele>969.0</ele><time>2026-04-16T13:47:05Z</time></trkpt><trkpt lat="46.01160050676782" lon="12.418148998289976"><ele>968.0</ele><time>2026-04-16T13:47:06Z</time></trkpt><trkpt lat="46.01148659134826" lon="12.41816919509221"><ele>967.0</ele><time>2026-04-16T13:47:08Z</time></trkpt><trkpt lat="46.011361586782925" lon="12.418220282926194"><ele>966.0</ele><time>2026-04-16T13:47:10Z</time></trkpt><trkpt lat="46.011337479699286" lon="12.41832549897099"><ele>965.0</ele><time>2026-04-16T13:47:10.999Z</time></trkpt><trkpt lat="46.01125714582923" lon="12.418351799066164"><ele>965.0</ele><time>2026-04-16T13:47:11.999Z</time></trkpt><trkpt lat="46.011159256196684" lon="12.41842591674537"><ele>965.0</ele><time>2026-04-16T13:47:12.999Z</time></trkpt><trkpt lat="46.01109007445577" lon="12.418454114957989"><ele>965.0</ele><time>2026-04-16T13:47:13.999Z</time></trkpt><trkpt lat="46.010999000113564" lon="12.418490119895036"><ele>965.0</ele><time>2026-04-16T13:47:15.999Z</time></trkpt><trkpt lat="46.010904538573236" lon="12.418569647584995"><ele>965.0</ele><time>2026-04-16T13:47:17.999Z</time></trkpt><trkpt lat="46.01081366123042" lon="12.418586624657319"><ele>963.8</ele><time>2026-04-16T13:47:18.999Z</time></trkpt><trkpt lat="46.01073271955629" lon="12.418572240906284"><ele>962.6</ele><time>2026-04-16T13:47:19.999Z</time></trkpt><trkpt lat="46.01065725264125" lon="12.4186079892961"><ele>961.4000000000001</ele><time>2026-04-16T13:47:20.999Z</time></trkpt><trkpt lat="46.01054943938232" lon="12.41862604071684"><ele>960.2</ele><time>2026-04-16T13:47:22.999Z</time></trkpt><trkpt lat="46.010429988865944" lon="12.41871393388965"><ele>959.0</ele><time>2026-04-16T13:47:24.999Z</time></trkpt><trkpt lat="46.010380640952505" lon="12.418776047816646"><ele>957.8000000000001</ele><time>2026-04-16T13:47:25.999Z</time></trkpt><trkpt lat="46.01029036019713" lon="12.418928866016309"><ele>956.6000000000001</ele><time>2026-04-16T13:47:27.999Z</time></trkpt><trkpt lat="46.01025254497375" lon="12.4190286447305"><ele>955.4</ele><time>2026-04-16T13:47:28.999Z</time></trkpt><trkpt lat="46.01020988029025" lon="12.419119507241808"><ele>954.2</ele><time>2026-04-16T13:47:29.999Z</time></trkpt><trkpt lat="46.010099494443686" lon="12.4192513995113"><ele>953.0</ele><time>2026-04-16T13:47:31.999Z</time></trkpt><trkpt lat="46.01003834117896" lon="12.419278470045489"><ele>950.3333333333334</ele><time>2026-04-16T13:47:32.999Z</time></trkpt><trkpt lat="46.00996712147982" lon="12.41931544093973"><ele>947.6666666666667</ele><time>2026-04-16T13:47:33.999Z</time></trkpt><trkpt lat="46.00989059804078" lon="12.419353694020133"><ele>945.0</ele><time>2026-04-16T13:47:34.999Z</time></trkpt><trkpt lat="46.009778810012854" lon="12.419347089335936"><ele>942.3333333333333</ele><time>2026-04-16T13:47:36.999Z</time></trkpt><trkpt lat="46.00972007288377" lon="12.419313987158187"><ele>939.6666666666666</ele><time>2026-04-16T13:47:37.999Z</time></trkpt><trkpt lat="46.00966067343429" lon="12.419282140401114"><ele>937.0</ele><time>2026-04-16T13:47:38.999Z</time></trkpt><trkpt lat="46.0095490130074" lon="12.41919397209295"><ele>937.0</ele><time>2026-04-16T13:47:40.999Z</time></trkpt><trkpt lat="46.009501356980415" lon="12.41912470762369"><ele>937.0</ele><time>2026-04-16T13:47:41.999Z</time></trkpt><trkpt lat="46.0094753251968" lon="12.419031006700935"><ele>937.0</ele><time>2026-04-16T13:47:42.999Z</time></trkpt><trkpt lat="46.00944609895409" lon="12.41894649942822"><ele>937.0</ele><time>2026-04-16T13:47:43.999Z</time></trkpt><trkpt lat="46.00939066154964" lon="12.418814368340097"><ele>937.0</ele><time>2026-04-16T13:47:45.999Z</time></trkpt><trkpt lat="46.00926870307864" lon="12.418700787752654"><ele>938.4000000000001</ele><time>2026-04-16T13:47:47.999Z</time></trkpt><trkpt lat="46.00920006143026" lon="12.41867651207879"><ele>939.8000000000001</ele><time>2026-04-16T13:47:48.999Z</time></trkpt><trkpt lat="46.00913336459925" lon="12.418662694815946"><ele>941.2</ele><time>2026-04-16T13:47:49.999Z</time></trkpt><trkpt lat="46.0090354019586" lon="12.418616686641286"><ele>942.6</ele><time>2026-04-16T13:47:51.999Z</time></trkpt><trkpt lat="46.00896766054763" lon="12.418488512481352"><ele>944.0</ele><time>2026-04-16T13:47:53.999Z</time></trkpt><trkpt lat="46.00892702020591" lon="12.418329243080377"><ele>942.8000000000001</ele><time>2026-04-16T13:47:55.999Z</time></trkpt><trkpt lat="46.008906761043015" lon="12.418175071238236"><ele>941.6000000000001</ele><time>2026-04-16T13:47:57.999Z</time></trkpt><trkpt lat="46.00886531198789" lon="12.418059771833756"><ele>940.4</ele><time>2026-04-16T13:47:59.999Z</time></trkpt><trkpt lat="46.00878989757154" lon="12.41799394952845"><ele>939.2</ele><time>2026-04-16T13:48:01.999Z</time></trkpt><trkpt lat="46.00872437230107" lon="12.417966503793393"><ele>938.0</ele><time>2026-04-16T13:48:04Z</time></trkpt><trkpt lat="46.00863108533703" lon="12.418024369911555"><ele>935.8</ele><time>2026-04-16T13:48:06Z</time></trkpt><trkpt lat="46.00852614117803" lon="12.418052169806737"><ele>933.5999999999999</ele><time>2026-04-16T13:48:08Z</time></trkpt><trkpt lat="46.008397954838586" lon="12.418101961894802"><ele>931.4000000000001</ele><time>2026-04-16T13:48:10Z</time></trkpt><trkpt lat="46.00830977333005" lon="12.418219632279728"><ele>929.2</ele><time>2026-04-16T13:48:12Z</time></trkpt><trkpt lat="46.00826243272387" lon="12.41829158011437"><ele>927.0</ele><time>2026-04-16T13:48:13Z</time></trkpt><trkpt lat="46.00818390180134" lon="12.418400365732138"><ele>924.8571428571427</ele><time>2026-04-16T13:48:15Z</time></trkpt><trkpt lat="46.00813905968155" lon="12.418464299544878"><ele>922.7142857142857</ele><time>2026-04-16T13:48:16Z</time></trkpt><trkpt lat="46.0080851312155" lon="12.418518521119527"><ele>920.5714285714284</ele><time>2026-04-16T13:48:17Z</time></trkpt><trkpt lat="46.00802852160289" lon="12.418561169088113"><ele>918.4285714285713</ele><time>2026-04-16T13:48:18Z</time></trkpt><trkpt lat="46.00792983499713" lon="12.418579732103943"><ele>916.2857142857142</ele><time>2026-04-16T13:48:20Z</time></trkpt><trkpt lat="46.00786550378417" lon="12.418605519365295"><ele>914.1428571428571</ele><time>2026-04-16T13:48:21Z</time></trkpt><trkpt lat="46.00779124094014" lon="12.418581702871084"><ele>912.0</ele><time>2026-04-16T13:48:22Z</time></trkpt><trkpt lat="46.007689887146284" lon="12.41854245628915"><ele>912.0</ele><time>2026-04-16T13:48:24Z</time></trkpt><trkpt lat="46.00760227101716" lon="12.418525574143668"><ele>912.0</ele><time>2026-04-16T13:48:26Z</time></trkpt><trkpt lat="46.00753770242171" lon="12.418479988295058"><ele>912.0</ele><time>2026-04-16T13:48:28Z</time></trkpt><trkpt lat="46.00753378214562" lon="12.41835619311999"><ele>912.0</ele><time>2026-04-16T13:48:30Z</time></trkpt><trkpt lat="46.00756618015314" lon="12.418255234738078"><ele>912.0</ele><time>2026-04-16T13:48:32Z</time></trkpt><trkpt lat="46.00759730318727" lon="12.418162863755693"><ele>912.0</ele><time>2026-04-16T13:48:34Z</time></trkpt><trkpt lat="46.0076136310365" lon="12.418046774530623"><ele>913.6</ele><time>2026-04-16T13:48:37Z</time></trkpt><trkpt lat="46.0075831622416" lon="12.417907973050628"><ele>915.2</ele><time>2026-04-16T13:48:39Z</time></trkpt><trkpt lat="46.00751989271934" lon="12.417797020461105"><ele>916.8</ele><time>2026-04-16T13:48:41Z</time></trkpt><trkpt lat="46.00742407977717" lon="12.417719053080049"><ele>918.4</ele><time>2026-04-16T13:48:43Z</time></trkpt><trkpt lat="46.007345914580526" lon="12.417717824816453"><ele>920.0</ele><time>2026-04-16T13:48:44Z</time></trkpt><trkpt lat="46.007283244231694" lon="12.417697893603505"><ele>915.0</ele><time>2026-04-16T13:48:45Z</time></trkpt><trkpt lat="46.00721668600556" lon="12.417664738701353"><ele>910.0</ele><time>2026-04-16T13:48:46Z</time></trkpt><trkpt lat="46.00715925028911" lon="12.417621107805088"><ele>905.0</ele><time>2026-04-16T13:48:47Z</time></trkpt><trkpt lat="46.00705046745404" lon="12.417558168913109"><ele>900.0</ele><time>2026-04-16T13:48:49Z</time></trkpt><trkpt lat="46.006940892540406" lon="12.417511127066108"><ele>895.0</ele><time>2026-04-16T13:48:51Z</time></trkpt><trkpt lat="46.00685784461563" lon="12.417510332514006"><ele>894.9999999999999</ele><time>2026-04-16T13:48:53Z</time></trkpt><trkpt lat="46.00676077176935" lon="12.417466020294167"><ele>895.0</ele><time>2026-04-16T13:48:55Z</time></trkpt><trkpt lat="46.00673754539866" lon="12.417307807868452"><ele>895.0</ele><time>2026-04-16T13:48:57Z</time></trkpt><trkpt lat="46.006751780172365" lon="12.417215226137017"><ele>895.0</ele><time>2026-04-16T13:48:58Z</time></trkpt><trkpt lat="46.006778287592425" lon="12.417098855123292"><ele>894.9999999999999</ele><time>2026-04-16T13:48:59Z</time></trkpt><trkpt lat="46.00679814825032" lon="12.416999519313679"><ele>895.0</ele><time>2026-04-16T13:49:00Z</time></trkpt><trkpt lat="46.00681184050925" lon="12.416909196891003"><ele>895.2857142857142</ele><time>2026-04-16T13:49:01Z</time></trkpt><trkpt lat="46.00681020426903" lon="12.416814425808061"><ele>895.5714285714287</ele><time>2026-04-16T13:49:02Z</time></trkpt><trkpt lat="46.006795389816915" lon="12.416715378849178"><ele>895.8571428571429</ele><time>2026-04-16T13:49:03Z</time></trkpt><trkpt lat="46.00677295053296" lon="12.416614907846515"><ele>896.1428571428571</ele><time>2026-04-16T13:49:04Z</time></trkpt><trkpt lat="46.00673247971147" lon="12.416512714559492"><ele>896.4285714285713</ele><time>2026-04-16T13:49:05Z</time></trkpt><trkpt lat="46.006689432861265" lon="12.416420785628066"><ele>896.7142857142858</ele><time>2026-04-16T13:49:06Z</time></trkpt><trkpt lat="46.00664685848028" lon="12.41632211223289"><ele>897.0</ele><time>2026-04-16T13:49:07Z</time></trkpt><trkpt lat="46.006620399311785" lon="12.416219709206715"><ele>893.1666666666666</ele><time>2026-04-16T13:49:08Z</time></trkpt><trkpt lat="46.00659256267967" lon="12.416113728104214"><ele>889.3333333333333</ele><time>2026-04-16T13:49:09Z</time></trkpt><trkpt lat="46.0065972711523" lon="12.416022206158466"><ele>885.5</ele><time>2026-04-16T13:49:10Z</time></trkpt><trkpt lat="46.00661094445862" lon="12.415908608529348"><ele>881.6666666666666</ele><time>2026-04-16T13:49:11Z</time></trkpt><trkpt lat="46.00662230521395" lon="12.41578418508357"><ele>877.8333333333333</ele><time>2026-04-16T13:49:12Z</time></trkpt><trkpt lat="46.006623616896185" lon="12.415668146926288"><ele>874.0</ele><time>2026-04-16T13:49:13Z</time></trkpt><trkpt lat="46.006608013716686" lon="12.415556324450131"><ele>873.4999999999999</ele><time>2026-04-16T13:49:14Z</time></trkpt><trkpt lat="46.006582909807285" lon="12.4154376376735"><ele>873.0</ele><time>2026-04-16T13:49:15Z</time></trkpt><trkpt lat="46.00655546820932" lon="12.415325028381275"><ele>872.5</ele><time>2026-04-16T13:49:15.999Z</time></trkpt><trkpt lat="46.00653536322108" lon="12.415213489173365"><ele>872.0</ele><time>2026-04-16T13:49:16.999Z</time></trkpt><trkpt lat="46.00652166204035" lon="12.415110398211407"><ele>871.4999999999999</ele><time>2026-04-16T13:49:17.999Z</time></trkpt><trkpt lat="46.00650870458672" lon="12.41501283742765"><ele>871.0</ele><time>2026-04-16T13:49:18.999Z</time></trkpt><trkpt lat="46.00648318100007" lon="12.414913027730618"><ele>870.9999999999999</ele><time>2026-04-16T13:49:19.999Z</time></trkpt><trkpt lat="46.00645074483193" lon="12.414822328155356"><ele>871.0</ele><time>2026-04-16T13:49:20.999Z</time></trkpt><trkpt lat="46.00642018112617" lon="12.414727070041156"><ele>871.0</ele><time>2026-04-16T13:49:21.999Z</time></trkpt><trkpt lat="46.00639118715551" lon="12.414574201373082"><ele>871.0</ele><time>2026-04-16T13:49:23.999Z</time></trkpt><trkpt lat="46.00633746604921" lon="12.414442075496854"><ele>870.9999999999999</ele><time>2026-04-16T13:49:25.999Z</time></trkpt><trkpt lat="46.00626008191246" lon="12.414379527998994"><ele>871.0</ele><time>2026-04-16T13:49:27.999Z</time></trkpt><trkpt lat="46.00614360610254" lon="12.414368806530044"><ele>870.1428571428571</ele><time>2026-04-16T13:49:29.999Z</time></trkpt><trkpt lat="46.006079178871744" lon="12.4143635749967"><ele>869.2857142857142</ele><time>2026-04-16T13:49:30.999Z</time></trkpt><trkpt lat="46.00601764638707" lon="12.414393443521545"><ele>868.4285714285714</ele><time>2026-04-16T13:49:31.999Z</time></trkpt><trkpt lat="46.00595536228717" lon="12.414419261241212"><ele>867.5714285714286</ele><time>2026-04-16T13:49:32.999Z</time></trkpt><trkpt lat="46.005893180834875" lon="12.414470543774009"><ele>866.7142857142858</ele><time>2026-04-16T13:49:33.999Z</time></trkpt><trkpt lat="46.00583302477829" lon="12.41451993973466"><ele>865.8571428571429</ele><time>2026-04-16T13:49:34.999Z</time></trkpt><trkpt lat="46.00576158728424" lon="12.414591355380598"><ele>865.0</ele><time>2026-04-16T13:49:35.999Z</time></trkpt><trkpt lat="46.00571594174654" lon="12.41466158155311"><ele>864.6666666666666</ele><time>2026-04-16T13:49:36.999Z</time></trkpt><trkpt lat="46.00568269863834" lon="12.414752699338875"><ele>864.3333333333333</ele><time>2026-04-16T13:49:37.999Z</time></trkpt><trkpt lat="46.00563650069864" lon="12.414825223121019"><ele>864.0</ele><time>2026-04-16T13:49:38.999Z</time></trkpt><trkpt lat="46.005562350989415" lon="12.414873841344209"><ele>863.6666666666667</ele><time>2026-04-16T13:49:39.999Z</time></trkpt><trkpt lat="46.0054826902367" lon="12.414938084610272"><ele>863.3333333333334</ele><time>2026-04-16T13:49:40.999Z</time></trkpt><trkpt lat="46.005409777082626" lon="12.41500339326135"><ele>863.0</ele><time>2026-04-16T13:49:41.999Z</time></trkpt><trkpt lat="46.00533425239301" lon="12.415064639750593"><ele>863.0000000000001</ele><time>2026-04-16T13:49:42.999Z</time></trkpt><trkpt lat="46.005281151852834" lon="12.415120150608784"><ele>863.0</ele><time>2026-04-16T13:49:43.999Z</time></trkpt><trkpt lat="46.00519368337136" lon="12.41518708761563"><ele>863.0</ele><time>2026-04-16T13:49:44.999Z</time></trkpt><trkpt lat="46.00510777722629" lon="12.415255716236242"><ele>863.0</ele><time>2026-04-16T13:49:45.999Z</time></trkpt><trkpt lat="46.005037495733575" lon="12.415304104018144"><ele>863.0000000000001</ele><time>2026-04-16T13:49:46.999Z</time></trkpt><trkpt lat="46.00497418823055" lon="12.415349914693088"><ele>863.0</ele><time>2026-04-16T13:49:47.999Z</time></trkpt><trkpt lat="46.00491015549107" lon="12.415393335355"><ele>861.4</ele><time>2026-04-16T13:49:48.999Z</time></trkpt><trkpt lat="46.00483490505271" lon="12.41542477229378"><ele>859.8</ele><time>2026-04-16T13:49:49.999Z</time></trkpt><trkpt lat="46.00472228734134" lon="12.415495319750228"><ele>858.2</ele><time>2026-04-16T13:49:51.999Z</time></trkpt><trkpt lat="46.004617949969706" lon="12.415564170386666"><ele>856.6</ele><time>2026-04-16T13:49:53.999Z</time></trkpt><trkpt lat="46.004526967897874" lon="12.415654744959888"><ele>855.0</ele><time>2026-04-16T13:49:55.999Z</time></trkpt><trkpt lat="46.00444923395104" lon="12.415791275726457"><ele>855.0</ele><time>2026-04-16T13:49:57.999Z</time></trkpt><trkpt lat="46.00437846880083" lon="12.415923371592529"><ele>855.0</ele><time>2026-04-16T13:49:59.999Z</time></trkpt><trkpt lat="46.004329936626476" lon="12.415989424761479"><ele>855.0</ele><time>2026-04-16T13:50:00.999Z</time></trkpt><trkpt lat="46.00427047936957" lon="12.416062809522384"><ele>855.0</ele><time>2026-04-16T13:50:01.999Z</time></trkpt><trkpt lat="46.00420219476962" lon="12.41613044526751"><ele>855.0</ele><time>2026-04-16T13:50:02.999Z</time></trkpt><trkpt lat="46.00412300844736" lon="12.41620898898134"><ele>855.0</ele><time>2026-04-16T13:50:03.999Z</time></trkpt><trkpt lat="46.0040427383694" lon="12.416280411053714"><ele>853.8</ele><time>2026-04-16T13:50:04.999Z</time></trkpt><trkpt lat="46.003964852997235" lon="12.416358383208323"><ele>852.6</ele><time>2026-04-16T13:50:05.999Z</time></trkpt><trkpt lat="46.00390051096317" lon="12.416467923538262"><ele>851.4000000000001</ele><time>2026-04-16T13:50:06.999Z</time></trkpt><trkpt lat="46.00385280697038" lon="12.416555404114945"><ele>850.2</ele><time>2026-04-16T13:50:07.999Z</time></trkpt><trkpt lat="46.00380198770303" lon="12.41667804318996"><ele>849.0</ele><time>2026-04-16T13:50:08.999Z</time></trkpt><trkpt lat="46.00376423436844" lon="12.416799564628814"><ele>849.0</ele><time>2026-04-16T13:50:10Z</time></trkpt><trkpt lat="46.003705121062715" lon="12.41692193719169"><ele>849.0</ele><time>2026-04-16T13:50:11Z</time></trkpt><trkpt lat="46.00364724844487" lon="12.417015483621443"><ele>849.0</ele><time>2026-04-16T13:50:12Z</time></trkpt><trkpt lat="46.00357837611079" lon="12.417080579904486"><ele>849.0</ele><time>2026-04-16T13:50:13Z</time></trkpt><trkpt lat="46.00350227272834" lon="12.41715709567575"><ele>849.0</ele><time>2026-04-16T13:50:14Z</time></trkpt><trkpt lat="46.00341936184509" lon="12.417241769225503"><ele>846.4000000000001</ele><time>2026-04-16T13:50:15Z</time></trkpt><trkpt lat="46.00332830195028" lon="12.417291475641425"><ele>843.8</ele><time>2026-04-16T13:50:16Z</time></trkpt><trkpt lat="46.00323097907262" lon="12.417344770383366"><ele>841.2</ele><time>2026-04-16T13:50:17Z</time></trkpt><trkpt lat="46.00313667821553" lon="12.417413334632949"><ele>838.5999999999999</ele><time>2026-04-16T13:50:18Z</time></trkpt><trkpt lat="46.003049730586405" lon="12.4174632728732"><ele>836.0</ele><time>2026-04-16T13:50:19Z</time></trkpt><trkpt lat="46.002968131692896" lon="12.417520700124328"><ele>836.0000000000001</ele><time>2026-04-16T13:50:20Z</time></trkpt><trkpt lat="46.00289153631109" lon="12.417565383344517"><ele>836.0</ele><time>2026-04-16T13:50:21Z</time></trkpt><trkpt lat="46.00282192702723" lon="12.417599040760882"><ele>836.0</ele><time>2026-04-16T13:50:22Z</time></trkpt><trkpt lat="46.00271190421708" lon="12.417649336727631"><ele>836.0</ele><time>2026-04-16T13:50:24Z</time></trkpt><trkpt lat="46.00263332227381" lon="12.41764737226593"><ele>836.0000000000001</ele><time>2026-04-16T13:50:25Z</time></trkpt><trkpt lat="46.002567072812" lon="12.417633698142025"><ele>836.0</ele><time>2026-04-16T13:50:26Z</time></trkpt><trkpt lat="46.002465248714245" lon="12.417567619969388"><ele>837.4</ele><time>2026-04-16T13:50:28Z</time></trkpt><trkpt lat="46.00235970867593" lon="12.417499006424979"><ele>838.8</ele><time>2026-04-16T13:50:30Z</time></trkpt><trkpt lat="46.00224012851855" lon="12.417505183170519"><ele>840.1999999999999</ele><time>2026-04-16T13:50:32Z</time></trkpt><trkpt lat="46.00217697654701" lon="12.417556047715745"><ele>841.5999999999999</ele><time>2026-04-16T13:50:33Z</time></trkpt><trkpt lat="46.002124007234364" lon="12.417648905331749"><ele>843.0</ele><time>2026-04-16T13:50:34Z</time></trkpt><trkpt lat="46.00207552969825" lon="12.41775290737974"><ele>843.0</ele><time>2026-04-16T13:50:35Z</time></trkpt><trkpt lat="46.00201765930871" lon="12.417858019830975"><ele>843.0</ele><time>2026-04-16T13:50:36Z</time></trkpt><trkpt lat="46.00198126301189" lon="12.417947205726135"><ele>843.0</ele><time>2026-04-16T13:50:37Z</time></trkpt><trkpt lat="46.00191293585407" lon="12.418034322002509"><ele>843.0</ele><time>2026-04-16T13:50:38Z</time></trkpt><trkpt lat="46.001835587121654" lon="12.418117858451836"><ele>843.0</ele><time>2026-04-16T13:50:39Z</time></trkpt><trkpt lat="46.001753759634205" lon="12.418166048441117"><ele>843.0</ele><time>2026-04-16T13:50:40Z</time></trkpt><trkpt lat="46.00168814750887" lon="12.418286401280351"><ele>843.4</ele><time>2026-04-16T13:50:41Z</time></trkpt><trkpt lat="46.00162095260541" lon="12.418392451571448"><ele>843.8</ele><time>2026-04-16T13:50:42Z</time></trkpt><trkpt lat="46.001557417241145" lon="12.418474092708703"><ele>844.2</ele><time>2026-04-16T13:50:43Z</time></trkpt><trkpt lat="46.001487891675744" lon="12.418589562743499"><ele>844.6</ele><time>2026-04-16T13:50:44Z</time></trkpt><trkpt lat="46.00141740141531" lon="12.418691295875126"><ele>845.0</ele><time>2026-04-16T13:50:45Z</time></trkpt><trkpt lat="46.00135416080291" lon="12.418795972562657"><ele>841.8</ele><time>2026-04-16T13:50:46Z</time></trkpt><trkpt lat="46.00128512249295" lon="12.41891046353523"><ele>838.6</ele><time>2026-04-16T13:50:47Z</time></trkpt><trkpt lat="46.001226299456064" lon="12.41902150174584"><ele>835.4000000000001</ele><time>2026-04-16T13:50:48Z</time></trkpt><trkpt lat="46.001169230460675" lon="12.419138877664254"><ele>832.2</ele><time>2026-04-16T13:50:49Z</time></trkpt><trkpt lat="46.00110802240961" lon="12.419258682879839"><ele>829.0</ele><time>2026-04-16T13:50:50Z</time></trkpt><trkpt lat="46.00105502658797" lon="12.41937508487093"><ele>829.0</ele><time>2026-04-16T13:50:51Z</time></trkpt><trkpt lat="46.00099403872235" lon="12.419462760651326"><ele>829.0</ele><time>2026-04-16T13:50:52Z</time></trkpt><trkpt lat="46.000935614136154" lon="12.419540159957409"><ele>829.0</ele><time>2026-04-16T13:50:53Z</time></trkpt><trkpt lat="46.00089022415481" lon="12.419636451613359"><ele>829.0</ele><time>2026-04-16T13:50:54Z</time></trkpt><trkpt lat="46.00081561223768" lon="12.419750702747821"><ele>829.0</ele><time>2026-04-16T13:50:55Z</time></trkpt><trkpt lat="46.00073240324784" lon="12.419894588017002"><ele>830.6</ele><time>2026-04-16T13:50:56Z</time></trkpt><trkpt lat="46.000685384601134" lon="12.420023898196629"><ele>832.2</ele><time>2026-04-16T13:50:57Z</time></trkpt><trkpt lat="46.00061701471231" lon="12.420187539425187"><ele>833.8000000000001</ele><time>2026-04-16T13:50:58Z</time></trkpt><trkpt lat="46.000566631171296" lon="12.420335656440503"><ele>835.4000000000001</ele><time>2026-04-16T13:50:59Z</time></trkpt><trkpt lat="46.00054399840387" lon="12.420443664644361"><ele>837.0</ele><time>2026-04-16T13:51:00Z</time></trkpt><trkpt lat="46.00050234680655" lon="12.42055473792082"><ele>833.6666666666666</ele><time>2026-04-16T13:51:01Z</time></trkpt><trkpt lat="46.000462299415105" lon="12.420655447631008"><ele>830.3333333333333</ele><time>2026-04-16T13:51:02Z</time></trkpt><trkpt lat="46.00043356045892" lon="12.420739330977872"><ele>827.0</ele><time>2026-04-16T13:51:03Z</time></trkpt><trkpt lat="46.00039066996623" lon="12.420825928033548"><ele>823.6666666666666</ele><time>2026-04-16T13:51:04Z</time></trkpt><trkpt lat="46.000357859960175" lon="12.420936195570828"><ele>820.3333333333333</ele><time>2026-04-16T13:51:05Z</time></trkpt><trkpt lat="46.00031655802422" lon="12.421018595958984"><ele>817.0</ele><time>2026-04-16T13:51:06Z</time></trkpt><trkpt lat="46.000257499901764" lon="12.421100943054995"><ele>817.0</ele><time>2026-04-16T13:51:07Z</time></trkpt><trkpt lat="46.000206758452485" lon="12.421171652489926"><ele>817.0</ele><time>2026-04-16T13:51:08Z</time></trkpt><trkpt lat="46.00013605481572" lon="12.421264625966218"><ele>817.0</ele><time>2026-04-16T13:51:10Z</time></trkpt><trkpt lat="46.0001222850516" lon="12.42142492096748"><ele>817.0</ele><time>2026-04-16T13:51:12Z</time></trkpt><trkpt lat="46.00016636767858" lon="12.421569773755527"><ele>817.0</ele><time>2026-04-16T13:51:14Z</time></trkpt><trkpt lat="46.00019864859316" lon="12.421656885839191"><ele>813.6666666666666</ele><time>2026-04-16T13:51:15Z</time></trkpt><trkpt lat="46.00022213724999" lon="12.421750277903541"><ele>810.3333333333333</ele><time>2026-04-16T13:51:16Z</time></trkpt><trkpt lat="46.00024753568897" lon="12.421858678371615"><ele>807.0</ele><time>2026-04-16T13:51:17Z</time></trkpt><trkpt lat="46.0002649482471" lon="12.421946078005556"><ele>803.6666666666667</ele><time>2026-04-16T13:51:18Z</time></trkpt><trkpt lat="46.00029361237889" lon="12.422027188704076"><ele>800.3333333333334</ele><time>2026-04-16T13:51:19Z</time></trkpt><trkpt lat="46.0003120631949" lon="12.422207888183962"><ele>797.0</ele><time>2026-04-16T13:51:21Z</time></trkpt><trkpt lat="46.00028788932957" lon="12.422300662621087"><ele>795.2</ele><time>2026-04-16T13:51:22Z</time></trkpt><trkpt lat="46.000238323972106" lon="12.422413189917052"><ele>793.4000000000001</ele><time>2026-04-16T13:51:23Z</time></trkpt><trkpt lat="46.00021655857755" lon="12.422517963928476"><ele>791.5999999999999</ele><time>2026-04-16T13:51:24Z</time></trkpt><trkpt lat="46.00019092404705" lon="12.422654705677155"><ele>789.8</ele><time>2026-04-16T13:51:26Z</time></trkpt><trkpt lat="46.000139636803" lon="12.422764318263956"><ele>788.0</ele><time>2026-04-16T13:51:28Z</time></trkpt><trkpt lat="46.00000658420744" lon="12.422799759819577"><ele>788.0000000000001</ele><time>2026-04-16T13:51:30Z</time></trkpt><trkpt lat="45.999944042383824" lon="12.422811714598367"><ele>788.0</ele><time>2026-04-16T13:51:31Z</time></trkpt><trkpt lat="45.99987408386595" lon="12.422813158525491"><ele>788.0</ele><time>2026-04-16T13:51:32Z</time></trkpt><trkpt lat="45.99979953974357" lon="12.422796753801112"><ele>788.0</ele><time>2026-04-16T13:51:33Z</time></trkpt><trkpt lat="45.99973003563931" lon="12.422797186065173"><ele>788.0000000000001</ele><time>2026-04-16T13:51:33.999Z</time></trkpt><trkpt lat="45.99960012942179" lon="12.422790233040992"><ele>788.0</ele><time>2026-04-16T13:51:35.999Z</time></trkpt><trkpt lat="45.99954194469885" lon="12.42274336617992"><ele>788.0</ele><time>2026-04-16T13:51:36.999Z</time></trkpt><trkpt lat="45.9994782474305" lon="12.422725532182893"><ele>788.0</ele><time>2026-04-16T13:51:37.999Z</time></trkpt><trkpt lat="45.99939317943815" lon="12.422593629993631"><ele>788.0</ele><time>2026-04-16T13:51:39.999Z</time></trkpt><trkpt lat="45.99928386639506" lon="12.422512575492599"><ele>788.0</ele><time>2026-04-16T13:51:41.999Z</time></trkpt><trkpt lat="45.99920626847001" lon="12.422481896360873"><ele>788.0</ele><time>2026-04-16T13:51:42.999Z</time></trkpt><trkpt lat="45.99913244721797" lon="12.422484878243505"><ele>787.0000000000001</ele><time>2026-04-16T13:51:43.999Z</time></trkpt><trkpt lat="45.999062466421016" lon="12.422513524558518"><ele>786.0</ele><time>2026-04-16T13:51:44.999Z</time></trkpt><trkpt lat="45.998990942377155" lon="12.42255137929386"><ele>785.0</ele><time>2026-04-16T13:51:45.999Z</time></trkpt><trkpt lat="45.99891925499257" lon="12.422596094854821"><ele>784.0</ele><time>2026-04-16T13:51:46.999Z</time></trkpt><trkpt lat="45.99881913616032" lon="12.422646358712734"><ele>783.0000000000001</ele><time>2026-04-16T13:51:47.999Z</time></trkpt><trkpt lat="45.998771094632765" lon="12.422719827739423"><ele>782.0</ele><time>2026-04-16T13:51:48.999Z</time></trkpt><trkpt lat="45.99868501013551" lon="12.42275126155013"><ele>782.0000000000001</ele><time>2026-04-16T13:51:49.999Z</time></trkpt><trkpt lat="45.998625610236104" lon="12.42281209612023"><ele>782.0</ele><time>2026-04-16T13:51:50.999Z</time></trkpt><trkpt lat="45.998560790138825" lon="12.422874619380256"><ele>782.0</ele><time>2026-04-16T13:51:51.999Z</time></trkpt><trkpt lat="45.99850129429021" lon="12.42294236962664"><ele>782.0</ele><time>2026-04-16T13:51:52.999Z</time></trkpt><trkpt lat="45.998457802177356" lon="12.423014446333704"><ele>782.0000000000001</ele><time>2026-04-16T13:51:53.999Z</time></trkpt><trkpt lat="45.998365308275254" lon="12.42317186990538"><ele>782.0</ele><time>2026-04-16T13:51:55.999Z</time></trkpt><trkpt lat="45.99834033187102" lon="12.423255889061243"><ele>779.0000000000001</ele><time>2026-04-16T13:51:56.999Z</time></trkpt><trkpt lat="45.998268529554" lon="12.423376808886948"><ele>776.0</ele><time>2026-04-16T13:51:58.999Z</time></trkpt><trkpt lat="45.9982034640996" lon="12.423429369113437"><ele>773.0</ele><time>2026-04-16T13:51:59.999Z</time></trkpt><trkpt lat="45.99813285037273" lon="12.42348973827275"><ele>770.0</ele><time>2026-04-16T13:52:00.999Z</time></trkpt><trkpt lat="45.998068108435035" lon="12.423543840204891"><ele>767.0</ele><time>2026-04-16T13:52:01.999Z</time></trkpt><trkpt lat="45.99800553757104" lon="12.423621264805456"><ele>764.0</ele><time>2026-04-16T13:52:02.999Z</time></trkpt><trkpt lat="45.997944088872195" lon="12.423696755716522"><ele>764.0</ele><time>2026-04-16T13:52:03.999Z</time></trkpt><trkpt lat="45.99787948417009" lon="12.423783820669708"><ele>764.0</ele><time>2026-04-16T13:52:04.999Z</time></trkpt><trkpt lat="45.99781407408553" lon="12.423877278494265"><ele>764.0</ele><time>2026-04-16T13:52:05.999Z</time></trkpt><trkpt lat="45.99776414917561" lon="12.424003577316531"><ele>764.0</ele><time>2026-04-16T13:52:06.999Z</time></trkpt><trkpt lat="45.99771148453323" lon="12.42412074598516"><ele>764.0</ele><time>2026-04-16T13:52:07.999Z</time></trkpt><trkpt lat="45.99766554786186" lon="12.42423507550176"><ele>761.6</ele><time>2026-04-16T13:52:08.999Z</time></trkpt><trkpt lat="45.99760525447164" lon="12.424342968399442"><ele>759.2</ele><time>2026-04-16T13:52:09.999Z</time></trkpt><trkpt lat="45.9975435827315" lon="12.424470924146243"><ele>756.8000000000001</ele><time>2026-04-16T13:52:10.999Z</time></trkpt><trkpt lat="45.99750284517128" lon="12.424602273063933"><ele>754.4000000000001</ele><time>2026-04-16T13:52:11.999Z</time></trkpt><trkpt lat="45.99745320340736" lon="12.424709553619014"><ele>752.0</ele><time>2026-04-16T13:52:12.999Z</time></trkpt><trkpt lat="45.99740569955528" lon="12.42478565972958"><ele>750.1666666666666</ele><time>2026-04-16T13:52:13.999Z</time></trkpt><trkpt lat="45.99735804111853" lon="12.424865882764706"><ele>748.3333333333333</ele><time>2026-04-16T13:52:14.999Z</time></trkpt><trkpt lat="45.99729573628843" lon="12.424935321912212"><ele>746.5</ele><time>2026-04-16T13:52:16Z</time></trkpt><trkpt lat="45.997225699881" lon="12.425021084131979"><ele>744.6666666666666</ele><time>2026-04-16T13:52:17Z</time></trkpt><trkpt lat="45.997148171929524" lon="12.425098206540413"><ele>742.8333333333334</ele><time>2026-04-16T13:52:18Z</time></trkpt><trkpt lat="45.99707329520844" lon="12.425165205642179"><ele>741.0</ele><time>2026-04-16T13:52:19Z</time></trkpt><trkpt lat="45.9970079011078" lon="12.425227839502313"><ele>741.0</ele><time>2026-04-16T13:52:20Z</time></trkpt><trkpt lat="45.99695094346379" lon="12.42530909649558"><ele>741.0</ele><time>2026-04-16T13:52:21Z</time></trkpt><trkpt lat="45.99689162189418" lon="12.42538419458286"><ele>741.0</ele><time>2026-04-16T13:52:22Z</time></trkpt><trkpt lat="45.996837757057186" lon="12.425444024616034"><ele>741.0</ele><time>2026-04-16T13:52:23Z</time></trkpt><trkpt lat="45.996771508998336" lon="12.425515118733632"><ele>741.0</ele><time>2026-04-16T13:52:24Z</time></trkpt><trkpt lat="45.99669602490267" lon="12.42564515734606"><ele>741.0</ele><time>2026-04-16T13:52:25Z</time></trkpt><trkpt lat="45.99663220144641" lon="12.425748360697073"><ele>738.8</ele><time>2026-04-16T13:52:26Z</time></trkpt><trkpt lat="45.99657347657281" lon="12.4258483989763"><ele>736.5999999999999</ele><time>2026-04-16T13:52:27Z</time></trkpt><trkpt lat="45.99650158563193" lon="12.425940171429856"><ele>734.4</ele><time>2026-04-16T13:52:28Z</time></trkpt><trkpt lat="45.99644110550007" lon="12.42605815970908"><ele>732.2</ele><time>2026-04-16T13:52:29Z</time></trkpt><trkpt lat="45.996370702967205" lon="12.426155095706061"><ele>730.0</ele><time>2026-04-16T13:52:30Z</time></trkpt><trkpt lat="45.996306167919755" lon="12.426251909415873"><ele>727.1666666666667</ele><time>2026-04-16T13:52:31Z</time></trkpt><trkpt lat="45.99624601997898" lon="12.42634329370779"><ele>724.3333333333334</ele><time>2026-04-16T13:52:32Z</time></trkpt><trkpt lat="45.996183815375865" lon="12.42644222638119"><ele>721.5</ele><time>2026-04-16T13:52:33Z</time></trkpt><trkpt lat="45.99612340351927" lon="12.426521792025095"><ele>718.6666666666666</ele><time>2026-04-16T13:52:34Z</time></trkpt><trkpt lat="45.996056172532356" lon="12.426591911657313"><ele>715.8333333333333</ele><time>2026-04-16T13:52:35Z</time></trkpt><trkpt lat="45.99599770826423" lon="12.426672880111548"><ele>713.0</ele><time>2026-04-16T13:52:36Z</time></trkpt><trkpt lat="45.995954448020996" lon="12.426782115241208"><ele>713.0</ele><time>2026-04-16T13:52:37Z</time></trkpt><trkpt lat="45.99591763219742" lon="12.426887585685924"><ele>713.0</ele><time>2026-04-16T13:52:38Z</time></trkpt><trkpt lat="45.99588761368706" lon="12.427000016836125"><ele>713.0</ele><time>2026-04-16T13:52:39Z</time></trkpt><trkpt lat="45.99585735864697" lon="12.427143076720661"><ele>713.0</ele><time>2026-04-16T13:52:40Z</time></trkpt><trkpt lat="45.99583088293092" lon="12.427253431039052"><ele>713.0</ele><time>2026-04-16T13:52:41Z</time></trkpt><trkpt lat="45.99580118226301" lon="12.427376390276615"><ele>713.0</ele><time>2026-04-16T13:52:42Z</time></trkpt><trkpt lat="45.99576150817421" lon="12.427494848192346"><ele>712.1666666666666</ele><time>2026-04-16T13:52:43Z</time></trkpt><trkpt lat="45.995722164066436" lon="12.427612574603483"><ele>711.3333333333333</ele><time>2026-04-16T13:52:44Z</time></trkpt><trkpt lat="45.99567466161791" lon="12.427724426369421"><ele>710.5</ele><time>2026-04-16T13:52:45Z</time></trkpt><trkpt lat="45.995629116242846" lon="12.427827098437342"><ele>709.6666666666666</ele><time>2026-04-16T13:52:46Z</time></trkpt><trkpt lat="45.995583643321915" lon="12.427919886998309"><ele>708.8333333333334</ele><time>2026-04-16T13:52:47Z</time></trkpt><trkpt lat="45.99554676696136" lon="12.428002946735626"><ele>708.0</ele><time>2026-04-16T13:52:48Z</time></trkpt><trkpt lat="45.99550666211677" lon="12.428077377932084"><ele>705.5</ele><time>2026-04-16T13:52:49Z</time></trkpt><trkpt lat="45.99541536806839" lon="12.428203255300806"><ele>703.0</ele><time>2026-04-16T13:52:51Z</time></trkpt><trkpt lat="45.995358652469925" lon="12.42825300819091"><ele>700.5</ele><time>2026-04-16T13:52:52Z</time></trkpt><trkpt lat="45.99529370505229" lon="12.428285800040337"><ele>698.0</ele><time>2026-04-16T13:52:53Z</time></trkpt><trkpt lat="45.99521695927814" lon="12.428301328123888"><ele>695.5</ele><time>2026-04-16T13:52:54Z</time></trkpt><trkpt lat="45.995134491087356" lon="12.428312462493892"><ele>693.0</ele><time>2026-04-16T13:52:55Z</time></trkpt><trkpt lat="45.99504899820116" lon="12.428326857345624"><ele>693.8333333333334</ele><time>2026-04-16T13:52:56Z</time></trkpt><trkpt lat="45.994958908309556" lon="12.428316994793496"><ele>694.6666666666666</ele><time>2026-04-16T13:52:57Z</time></trkpt><trkpt lat="45.99486578177152" lon="12.428303732359995"><ele>695.5</ele><time>2026-04-16T13:52:58Z</time></trkpt><trkpt lat="45.994772704390634" lon="12.428297010616841"><ele>696.3333333333333</ele><time>2026-04-16T13:52:59Z</time></trkpt><trkpt lat="45.99468230026387" lon="12.42829346335813"><ele>697.1666666666666</ele><time>2026-04-16T13:53:00Z</time></trkpt><trkpt lat="45.99460366340637" lon="12.428283846857168"><ele>698.0</ele><time>2026-04-16T13:53:01Z</time></trkpt><trkpt lat="45.99452253231726" lon="12.428283269172596"><ele>698.0</ele><time>2026-04-16T13:53:02Z</time></trkpt><trkpt lat="45.99445081117993" lon="12.428274577433923"><ele>698.0</ele><time>2026-04-16T13:53:03Z</time></trkpt><trkpt lat="45.99438082792316" lon="12.428257774097359"><ele>698.0</ele><time>2026-04-16T13:53:04Z</time></trkpt><trkpt lat="45.99430164436154" lon="12.428235441213765"><ele>698.0</ele><time>2026-04-16T13:53:05Z</time></trkpt><trkpt lat="45.99421805658234" lon="12.428200269090372"><ele>698.0</ele><time>2026-04-16T13:53:06Z</time></trkpt><trkpt lat="45.994143210996995" lon="12.428150921491433"><ele>698.0</ele><time>2026-04-16T13:53:07Z</time></trkpt><trkpt lat="45.99407266434171" lon="12.428088888791633"><ele>696.4</ele><time>2026-04-16T13:53:08Z</time></trkpt><trkpt lat="45.99400603518477" lon="12.428022091852084"><ele>694.8</ele><time>2026-04-16T13:53:09Z</time></trkpt><trkpt lat="45.99394037084394" lon="12.42793641362116"><ele>693.2</ele><time>2026-04-16T13:53:10Z</time></trkpt><trkpt lat="45.99387418824451" lon="12.427829494504353"><ele>691.6</ele><time>2026-04-16T13:53:11Z</time></trkpt><trkpt lat="45.993807696644076" lon="12.427717200999838"><ele>690.0</ele><time>2026-04-16T13:53:12Z</time></trkpt><trkpt lat="45.99374883214804" lon="12.427606525201563"><ele>690.0</ele><time>2026-04-16T13:53:13Z</time></trkpt><trkpt lat="45.993695220273764" lon="12.427508144255478"><ele>690.0</ele><time>2026-04-16T13:53:14Z</time></trkpt><trkpt lat="45.993646486356106" lon="12.427419822364461"><ele>690.0</ele><time>2026-04-16T13:53:15Z</time></trkpt><trkpt lat="45.99359722475847" lon="12.42734190624886"><ele>690.0</ele><time>2026-04-16T13:53:16Z</time></trkpt><trkpt lat="45.99355038490191" lon="12.427265663644656"><ele>690.0</ele><time>2026-04-16T13:53:17Z</time></trkpt><trkpt lat="45.99350310331427" lon="12.427195206721871"><ele>690.0</ele><time>2026-04-16T13:53:18Z</time></trkpt><trkpt lat="45.993451182903655" lon="12.427130472798"><ele>690.0</ele><time>2026-04-16T13:53:19Z</time></trkpt><trkpt lat="45.99339584080571" lon="12.427076736736105"><ele>690.6666666666666</ele><time>2026-04-16T13:53:20Z</time></trkpt><trkpt lat="45.99334106361129" lon="12.427024980861146"><ele>691.3333333333334</ele><time>2026-04-16T13:53:21Z</time></trkpt><trkpt lat="45.99328301821687" lon="12.426978673007808"><ele>692.0</ele><time>2026-04-16T13:53:22Z</time></trkpt><trkpt lat="45.99322618824719" lon="12.426932973209873"><ele>692.6666666666667</ele><time>2026-04-16T13:53:23Z</time></trkpt><trkpt lat="45.99312476588843" lon="12.42685838219662"><ele>693.3333333333334</ele><time>2026-04-16T13:53:25Z</time></trkpt><trkpt lat="45.993003478000034" lon="12.426834366248046"><ele>694.0</ele><time>2026-04-16T13:53:27Z</time></trkpt><trkpt lat="45.99293830708319" lon="12.426848692413838"><ele>691.5714285714286</ele><time>2026-04-16T13:53:28Z</time></trkpt><trkpt lat="45.992864069782655" lon="12.426865138280998"><ele>689.1428571428571</ele><time>2026-04-16T13:53:29Z</time></trkpt><trkpt lat="45.992791741436434" lon="12.426883497377847"><ele>686.7142857142857</ele><time>2026-04-16T13:53:30Z</time></trkpt><trkpt lat="45.9927186848559" lon="12.42690121151116"><ele>684.2857142857142</ele><time>2026-04-16T13:53:31Z</time></trkpt><trkpt lat="45.992645857412256" lon="12.42690485747407"><ele>681.8571428571429</ele><time>2026-04-16T13:53:32Z</time></trkpt><trkpt lat="45.992574596587545" lon="12.426905820736014"><ele>679.4285714285713</ele><time>2026-04-16T13:53:33Z</time></trkpt><trkpt lat="45.99250367200595" lon="12.426899929972272"><ele>677.0</ele><time>2026-04-16T13:53:34Z</time></trkpt><trkpt lat="45.992430809400275" lon="12.426889521994928"><ele>674.3333333333333</ele><time>2026-04-16T13:53:35Z</time></trkpt><trkpt lat="45.992357279458005" lon="12.426871984438577"><ele>671.6666666666666</ele><time>2026-04-16T13:53:36Z</time></trkpt><trkpt lat="45.99227599491077" lon="12.426862079167956"><ele>669.0</ele><time>2026-04-16T13:53:36.999Z</time></trkpt><trkpt lat="45.99219046100834" lon="12.42683585478219"><ele>666.3333333333334</ele><time>2026-04-16T13:53:37.999Z</time></trkpt><trkpt lat="45.99210725515755" lon="12.426800729746262"><ele>663.6666666666667</ele><time>2026-04-16T13:53:38.999Z</time></trkpt><trkpt lat="45.99201801964292" lon="12.426768362866424"><ele>661.0</ele><time>2026-04-16T13:53:39.999Z</time></trkpt><trkpt lat="45.99192802651051" lon="12.426726385664448"><ele>661.0</ele><time>2026-04-16T13:53:40.999Z</time></trkpt><trkpt lat="45.991835121328165" lon="12.426666678789086"><ele>661.0</ele><time>2026-04-16T13:53:41.999Z</time></trkpt><trkpt lat="45.99174457627067" lon="12.426598824340097"><ele>661.0</ele><time>2026-04-16T13:53:42.999Z</time></trkpt><trkpt lat="45.991655351705575" lon="12.426534294860826"><ele>661.0</ele><time>2026-04-16T13:53:43.999Z</time></trkpt><trkpt lat="45.99156998278074" lon="12.426465659564501"><ele>661.0</ele><time>2026-04-16T13:53:44.999Z</time></trkpt><trkpt lat="45.9914902644303" lon="12.426399490171919"><ele>660.3333333333334</ele><time>2026-04-16T13:53:45.999Z</time></trkpt><trkpt lat="45.99140805755486" lon="12.426343959206953"><ele>659.6666666666667</ele><time>2026-04-16T13:53:46.999Z</time></trkpt><trkpt lat="45.991339743078186" lon="12.426271970893692"><ele>659.0</ele><time>2026-04-16T13:53:47.999Z</time></trkpt><trkpt lat="45.99127655300403" lon="12.426203183915119"><ele>658.3333333333334</ele><time>2026-04-16T13:53:48.999Z</time></trkpt><trkpt lat="45.99121363183102" lon="12.42613909755875"><ele>657.6666666666666</ele><time>2026-04-16T13:53:49.999Z</time></trkpt><trkpt lat="45.99114774970573" lon="12.426085133290083"><ele>657.0</ele><time>2026-04-16T13:53:50.999Z</time></trkpt><trkpt lat="45.991084846200906" lon="12.426051754694289"><ele>655.8333333333334</ele><time>2026-04-16T13:53:51.999Z</time></trkpt><trkpt lat="45.99096797236624" lon="12.426011142797377"><ele>654.6666666666666</ele><time>2026-04-16T13:53:53.999Z</time></trkpt><trkpt lat="45.9908717398703" lon="12.426028684261855"><ele>653.5</ele><time>2026-04-16T13:53:55.999Z</time></trkpt><trkpt lat="45.99080773133144" lon="12.42606738971197"><ele>652.3333333333333</ele><time>2026-04-16T13:53:57.999Z</time></trkpt><trkpt lat="45.99074824138772" lon="12.426130960549836"><ele>651.1666666666666</ele><time>2026-04-16T13:54:01.999Z</time></trkpt><trkpt lat="45.99071310238098" lon="12.426220733628632"><ele>650.0</ele><time>2026-04-16T13:54:22Z</time></trkpt><trkpt lat="45.990672651286765" lon="12.426312218253683"><ele>650.0</ele><time>2026-04-16T13:54:25Z</time></trkpt><trkpt lat="45.99061266351095" lon="12.42637144535394"><ele>650.0</ele><time>2026-04-16T13:54:27Z</time></trkpt><trkpt lat="45.990551723362486" lon="12.42644590736013"><ele>650.0</ele><time>2026-04-16T13:54:29Z</time></trkpt><trkpt lat="45.9904853395819" lon="12.426538193576661"><ele>650.0</ele><time>2026-04-16T13:54:31Z</time></trkpt><trkpt lat="45.99040333952536" lon="12.426610961238781"><ele>650.0</ele><time>2026-04-16T13:54:33Z</time></trkpt><trkpt lat="45.99029081404579" lon="12.426629943717408"><ele>650.0</ele><time>2026-04-16T13:54:35Z</time></trkpt><trkpt lat="45.990219820305725" lon="12.426621722716716"><ele>650.0</ele><time>2026-04-16T13:54:36Z</time></trkpt><trkpt lat="45.99015704912034" lon="12.426599428729778"><ele>650.0</ele><time>2026-04-16T13:54:37Z</time></trkpt><trkpt lat="45.990094120494604" lon="12.42657550300898"><ele>650.0</ele><time>2026-04-16T13:54:38Z</time></trkpt><trkpt lat="45.9899899907978" lon="12.426494904757428"><ele>650.0</ele><time>2026-04-16T13:54:40Z</time></trkpt><trkpt lat="45.98995037862545" lon="12.426424190936398"><ele>650.0</ele><time>2026-04-16T13:54:41Z</time></trkpt><trkpt lat="45.98992163059424" lon="12.426336241822673"><ele>649.0</ele><time>2026-04-16T13:54:42Z</time></trkpt><trkpt lat="45.98989456953732" lon="12.426251265867876"><ele>648.0</ele><time>2026-04-16T13:54:43Z</time></trkpt><trkpt lat="45.9898585969504" lon="12.42617315611439"><ele>647.0</ele><time>2026-04-16T13:54:44Z</time></trkpt><trkpt lat="45.989813726914605" lon="12.426104701815728"><ele>646.0</ele><time>2026-04-16T13:54:45Z</time></trkpt><trkpt lat="45.98975880639206" lon="12.426051899971844"><ele>645.0</ele><time>2026-04-16T13:54:46Z</time></trkpt><trkpt lat="45.98969637723495" lon="12.426004641673913"><ele>644.0</ele><time>2026-04-16T13:54:47Z</time></trkpt><trkpt lat="45.98960033114511" lon="12.42590570099435"><ele>644.0</ele><time>2026-04-16T13:54:49Z</time></trkpt><trkpt lat="45.98955210526824" lon="12.425744040628969"><ele>644.0</ele><time>2026-04-16T13:54:51Z</time></trkpt><trkpt lat="45.98954905541107" lon="12.425644374859939"><ele>644.0</ele><time>2026-04-16T13:54:52Z</time></trkpt><trkpt lat="45.989557779740046" lon="12.42553304843277"><ele>644.0</ele><time>2026-04-16T13:54:53Z</time></trkpt><trkpt lat="45.98957636401116" lon="12.4254164868518"><ele>644.0</ele><time>2026-04-16T13:54:54Z</time></trkpt><trkpt lat="45.98959597265054" lon="12.425293779019505"><ele>644.0</ele><time>2026-04-16T13:54:55Z</time></trkpt><trkpt lat="45.989623403594784" lon="12.425187673366278"><ele>641.5</ele><time>2026-04-16T13:54:56Z</time></trkpt><trkpt lat="45.98965275756667" lon="12.425080440642747"><ele>639.0</ele><time>2026-04-16T13:54:57Z</time></trkpt><trkpt lat="45.989674966174555" lon="12.424984380026613"><ele>636.5</ele><time>2026-04-16T13:54:58Z</time></trkpt><trkpt lat="45.98968583178975" lon="12.424894459284486"><ele>634.0</ele><time>2026-04-16T13:54:59Z</time></trkpt><trkpt lat="45.98968306449891" lon="12.424802485281154"><ele>631.5</ele><time>2026-04-16T13:55:00Z</time></trkpt><trkpt lat="45.989664554850464" lon="12.424708549323759"><ele>629.0</ele><time>2026-04-16T13:55:01Z</time></trkpt><trkpt lat="45.98959608559043" lon="12.424554954135342"><ele>625.3333333333333</ele><time>2026-04-16T13:55:03Z</time></trkpt><trkpt lat="45.98955429976499" lon="12.424475674417394"><ele>621.6666666666666</ele><time>2026-04-16T13:55:04Z</time></trkpt><trkpt lat="45.989501896632056" lon="12.424394839057348"><ele>618.0</ele><time>2026-04-16T13:55:05Z</time></trkpt><trkpt lat="45.98944941655348" lon="12.42431240370985"><ele>614.3333333333334</ele><time>2026-04-16T13:55:06Z</time></trkpt><trkpt lat="45.989389266497945" lon="12.424237743295045"><ele>610.6666666666667</ele><time>2026-04-16T13:55:07Z</time></trkpt><trkpt lat="45.98933483697126" lon="12.424163348588227"><ele>607.0</ele><time>2026-04-16T13:55:08Z</time></trkpt><trkpt lat="45.98928195140806" lon="12.424084866268576"><ele>607.0</ele><time>2026-04-16T13:55:09Z</time></trkpt><trkpt lat="45.98922961745116" lon="12.424014782367479"><ele>607.0</ele><time>2026-04-16T13:55:10Z</time></trkpt><trkpt lat="45.989179527960985" lon="12.423954813828317"><ele>607.0</ele><time>2026-04-16T13:55:11Z</time></trkpt><trkpt lat="45.98908268251362" lon="12.423850519431326"><ele>607.0</ele><time>2026-04-16T13:55:13Z</time></trkpt><trkpt lat="45.98899400395428" lon="12.42376567218862"><ele>607.0</ele><time>2026-04-16T13:55:15Z</time></trkpt><trkpt lat="45.98889548099366" lon="12.423714864169877"><ele>605.8333333333334</ele><time>2026-04-16T13:55:17Z</time></trkpt><trkpt lat="45.9888233495956" lon="12.423702667376709"><ele>604.6666666666667</ele><time>2026-04-16T13:55:18Z</time></trkpt><trkpt lat="45.98875372281594" lon="12.423693549101673"><ele>603.5</ele><time>2026-04-16T13:55:19Z</time></trkpt><trkpt lat="45.988663637694444" lon="12.423684651531937"><ele>602.3333333333334</ele><time>2026-04-16T13:55:20Z</time></trkpt><trkpt lat="45.98859447959201" lon="12.423662622831303"><ele>601.1666666666666</ele><time>2026-04-16T13:55:21Z</time></trkpt><trkpt lat="45.98852844820837" lon="12.423646468981428"><ele>600.0</ele><time>2026-04-16T13:55:22Z</time></trkpt><trkpt lat="45.98841710664056" lon="12.423642191602996"><ele>600.1666666666666</ele><time>2026-04-16T13:55:24Z</time></trkpt><trkpt lat="45.988340480843014" lon="12.423665150405451"><ele>600.3333333333334</ele><time>2026-04-16T13:55:26Z</time></trkpt><trkpt lat="45.98828263558322" lon="12.423752214944997"><ele>600.5</ele><time>2026-04-16T13:55:28Z</time></trkpt><trkpt lat="45.988250924143706" lon="12.423897733901214"><ele>600.6666666666667</ele><time>2026-04-16T13:55:30Z</time></trkpt><trkpt lat="45.98827167766114" lon="12.42405875285235"><ele>600.8333333333334</ele><time>2026-04-16T13:55:32Z</time></trkpt><trkpt lat="45.988286440067576" lon="12.424151036211194"><ele>601.0</ele><time>2026-04-16T13:55:32.999Z</time></trkpt><trkpt lat="45.98830966242836" lon="12.42424450662256"><ele>601.6666666666667</ele><time>2026-04-16T13:55:33.999Z</time></trkpt><trkpt lat="45.98833009473221" lon="12.42433666273932"><ele>602.3333333333334</ele><time>2026-04-16T13:55:34.999Z</time></trkpt><trkpt lat="45.98835300503152" lon="12.42442175722311"><ele>603.0</ele><time>2026-04-16T13:55:35.999Z</time></trkpt><trkpt lat="45.988377327550104" lon="12.424560157936032"><ele>603.6666666666666</ele><time>2026-04-16T13:55:37.999Z</time></trkpt><trkpt lat="45.988359826500606" lon="12.424682238714102"><ele>604.3333333333333</ele><time>2026-04-16T13:55:39.999Z</time></trkpt><trkpt lat="45.988302318802695" lon="12.424755284762716"><ele>605.0</ele><time>2026-04-16T13:55:40.999Z</time></trkpt><trkpt lat="45.988242187485625" lon="12.424824019592295"><ele>605.0</ele><time>2026-04-16T13:55:41.999Z</time></trkpt><trkpt lat="45.988196756761106" lon="12.424892584758142"><ele>605.0</ele><time>2026-04-16T13:55:42.999Z</time></trkpt><trkpt lat="45.98810937420671" lon="12.425001327472103"><ele>605.0</ele><time>2026-04-16T13:55:44.999Z</time></trkpt><trkpt lat="45.9880836303637" lon="12.42508494733192"><ele>605.0</ele><time>2026-04-16T13:55:45.999Z</time></trkpt><trkpt lat="45.988069457152434" lon="12.425174383321158"><ele>605.0</ele><time>2026-04-16T13:55:46.999Z</time></trkpt><trkpt lat="45.98806936665435" lon="12.42526742806689"><ele>605.0</ele><time>2026-04-16T13:55:47.999Z</time></trkpt><trkpt lat="45.988068524775606" lon="12.425437687533822"><ele>604.0</ele><time>2026-04-16T13:55:49.999Z</time></trkpt><trkpt lat="45.98810504922256" lon="12.425593558036738"><ele>603.0</ele><time>2026-04-16T13:55:51.999Z</time></trkpt><trkpt lat="45.98819275926768" lon="12.425731651918762"><ele>602.0</ele><time>2026-04-16T13:55:53.999Z</time></trkpt><trkpt lat="45.98826870741368" lon="12.42585843378962"><ele>601.0</ele><time>2026-04-16T13:55:55.999Z</time></trkpt><trkpt lat="45.98829936771615" lon="12.426015685901858"><ele>601.0</ele><time>2026-04-16T13:55:57.999Z</time></trkpt><trkpt lat="45.98824589074747" lon="12.426178642903531"><ele>601.0</ele><time>2026-04-16T13:55:59.999Z</time></trkpt><trkpt lat="45.988185035778486" lon="12.426246808485082"><ele>601.0</ele><time>2026-04-16T13:56:00.999Z</time></trkpt><trkpt lat="45.98813404720048" lon="12.426319261189906"><ele>601.0</ele><time>2026-04-16T13:56:01.999Z</time></trkpt><trkpt lat="45.98809149757553" lon="12.426392257790061"><ele>601.0</ele><time>2026-04-16T13:56:02.999Z</time></trkpt><trkpt lat="45.98803290191159" lon="12.42643917311332"><ele>601.0</ele><time>2026-04-16T13:56:03.999Z</time></trkpt><trkpt lat="45.9879695421451" lon="12.426463877755992"><ele>600.5</ele><time>2026-04-16T13:56:04.999Z</time></trkpt><trkpt lat="45.9879043313689" lon="12.426457351758902"><ele>600.0</ele><time>2026-04-16T13:56:05.999Z</time></trkpt><trkpt lat="45.98783496595181" lon="12.426431557507637"><ele>599.5</ele><time>2026-04-16T13:56:06.999Z</time></trkpt><trkpt lat="45.987767540235055" lon="12.426420161507767"><ele>599.0</ele><time>2026-04-16T13:56:07.999Z</time></trkpt><trkpt lat="45.98770366597173" lon="12.426438339623308"><ele>598.5</ele><time>2026-04-16T13:56:08.999Z</time></trkpt><trkpt lat="45.98761030553358" lon="12.42651505511114"><ele>598.0</ele><time>2026-04-16T13:56:10.999Z</time></trkpt><trkpt lat="45.987561436723816" lon="12.42667988040543"><ele>598.0</ele><time>2026-04-16T13:56:12.999Z</time></trkpt><trkpt lat="45.98753847723004" lon="12.426786590973048"><ele>598.0</ele><time>2026-04-16T13:56:13.999Z</time></trkpt><trkpt lat="45.987513711979034" lon="12.426898917699901"><ele>598.0</ele><time>2026-04-16T13:56:14.999Z</time></trkpt><trkpt lat="45.98747692851646" lon="12.427002602920714"><ele>598.0</ele><time>2026-04-16T13:56:15.999Z</time></trkpt><trkpt lat="45.987436008299206" lon="12.427110452536173"><ele>598.0</ele><time>2026-04-16T13:56:16.999Z</time></trkpt><trkpt lat="45.98740445878725" lon="12.427202969181918"><ele>598.0</ele><time>2026-04-16T13:56:17.999Z</time></trkpt><trkpt lat="45.987364767721594" lon="12.427375080160397"><ele>596.1666666666667</ele><time>2026-04-16T13:56:19.999Z</time></trkpt><trkpt lat="45.98736306199905" lon="12.42748205810019"><ele>594.3333333333334</ele><time>2026-04-16T13:56:20.999Z</time></trkpt><trkpt lat="45.98735880535946" lon="12.427590903672302"><ele>592.5</ele><time>2026-04-16T13:56:21.999Z</time></trkpt><trkpt lat="45.98736690913079" lon="12.427696470884653"><ele>590.6666666666666</ele><time>2026-04-16T13:56:22.999Z</time></trkpt><trkpt lat="45.98735405609231" lon="12.427803209416384"><ele>588.8333333333333</ele><time>2026-04-16T13:56:23.999Z</time></trkpt><trkpt lat="45.98731533772729" lon="12.4278928410145"><ele>587.0</ele><time>2026-04-16T13:56:24.999Z</time></trkpt><trkpt lat="45.98728062171639" lon="12.428009516858557"><ele>587.0</ele><time>2026-04-16T13:56:25.999Z</time></trkpt><trkpt lat="45.98723803840665" lon="12.428109108851176"><ele>587.0</ele><time>2026-04-16T13:56:26.999Z</time></trkpt><trkpt lat="45.98719640588517" lon="12.42820480052173"><ele>587.0</ele><time>2026-04-16T13:56:28Z</time></trkpt><trkpt lat="45.98716453128008" lon="12.428313884764302"><ele>587.0</ele><time>2026-04-16T13:56:29Z</time></trkpt><trkpt lat="45.98714336177921" lon="12.428422539961291"><ele>587.0</ele><time>2026-04-16T13:56:30Z</time></trkpt><trkpt lat="45.98712572159198" lon="12.428520157849292"><ele>587.0</ele><time>2026-04-16T13:56:31Z</time></trkpt><trkpt lat="45.98710440056622" lon="12.4286189867811"><ele>587.0</ele><time>2026-04-16T13:56:32Z</time></trkpt><trkpt lat="45.98708070851826" lon="12.428712654835918"><ele>587.0</ele><time>2026-04-16T13:56:33Z</time></trkpt><trkpt lat="45.98702406505149" lon="12.428865938006746"><ele>587.0</ele><time>2026-04-16T13:56:35Z</time></trkpt><trkpt lat="45.9869406342751" lon="12.428994841050587"><ele>587.0</ele><time>2026-04-16T13:56:37Z</time></trkpt><trkpt lat="45.986888702153124" lon="12.429075827289186"><ele>587.0</ele><time>2026-04-16T13:56:39Z</time></trkpt><trkpt lat="45.98685778426056" lon="12.429176837469175"><ele>586.6</ele><time>2026-04-16T13:56:42Z</time></trkpt><trkpt lat="45.98683207283733" lon="12.42929200183766"><ele>586.2</ele><time>2026-04-16T13:56:52Z</time></trkpt><trkpt lat="45.986810220780264" lon="12.429428481212799"><ele>585.8</ele><time>2026-04-16T13:56:54Z</time></trkpt><trkpt lat="45.98678850161091" lon="12.429562711916757"><ele>585.4</ele><time>2026-04-16T13:56:56Z</time></trkpt><trkpt lat="45.98675242893308" lon="12.429707465019142"><ele>585.0</ele><time>2026-04-16T13:56:58Z</time></trkpt><trkpt lat="45.986711253589895" lon="12.42984436212006"><ele>579.6</ele><time>2026-04-16T13:57:00Z</time></trkpt><trkpt lat="45.98666971987809" lon="12.429966754251819"><ele>574.2</ele><time>2026-04-16T13:57:02Z</time></trkpt><trkpt lat="45.98665044113011" lon="12.430094512059014"><ele>568.8</ele><time>2026-04-16T13:57:04Z</time></trkpt><trkpt lat="45.986645503501684" lon="12.430213785089306"><ele>563.4</ele><time>2026-04-16T13:57:06Z</time></trkpt><trkpt lat="45.986647910673845" lon="12.430335559167352"><ele>558.0</ele><time>2026-04-16T13:57:08Z</time></trkpt><trkpt lat="45.9866586732055" lon="12.430475799271179"><ele>551.0</ele><time>2026-04-16T13:57:10Z</time></trkpt><trkpt lat="45.98667833126355" lon="12.430622911532575"><ele>559.0</ele><time>2026-04-16T13:57:12Z</time></trkpt><trkpt lat="45.98669963175084" lon="12.43074901401145"><ele>559.0</ele><time>2026-04-16T13:57:14Z</time></trkpt><trkpt lat="45.9867269963876" lon="12.430832970690602"><ele>559.0</ele><time>2026-04-16T13:57:16Z</time></trkpt><trkpt lat="45.986767297315644" lon="12.430907327741723"><ele>559.0</ele><time>2026-04-16T13:57:18Z</time></trkpt><trkpt lat="45.986817031527735" lon="12.43098896106271"><ele>559.0</ele><time>2026-04-16T13:57:20Z</time></trkpt></trkseg></trk></gpx>